PWSweather.com
Personal Weather Stations
Station Observations
HVALPSUND
Hvalpsund, FarsoeDK 9640

HvalpsundFarsoeDK 9640

Lat: 56.705311, Lon: 9.203638

Elevation: 5

Station Type: Vantage Pro2

http://hvalpsundvejr.dk

High Low Average
Temperature 62.3°F16.8°C 53.8°F12.1°C 57.2°F14.0°C
Dew Point 54.7°F12.6°C 50.7°F10.4°C 52.7°F11.5°C
Winds 20.3 mph 32.7 kmh 5.5 mph 8.9 kmh 12.0 mph S19.3 kmh S
Wind Gusts 31.0 mph49.9 kmh 7.0 mph11.3 kmh 19.0 mph30.6 kmh
Humidity 92% 71% 85%
Pressure 29.27 in991.2 mb 29.13 in986.5 mb -
Precipitation 0.31 in7.9 mm - -
Hour Temp Dew Point Humidity Winds Wind Gusts Pressure Precip Precip Rate Daily Precip Total
12:00 AM 57.3°F14.1°C 53.5°F11.9°C 87% 9.9 mph SSE15.9 kmh SSE 19.0 mph30.6 kmh 29.27 in991.2 mb 0.00 in0.0 mm 0.00 in0.0 mm 0.00 in0.0 mm
12:01 AM 57.3°F14.1°C 53.5°F11.9°C 87% 14.0 mph SSE22.5 kmh SSE 20.0 mph32.2 kmh 29.27 in991.2 mb 0.00 in0.0 mm 0.00 in0.0 mm 0.00 in0.0 mm
12:02 AM 57.3°F14.1°C 53.1°F11.7°C 86% 13.7 mph SSE22.0 kmh SSE 23.0 mph37.0 kmh 29.27 in991.2 mb 0.00 in0.0 mm 0.00 in0.0 mm 0.00 in0.0 mm
12:03 AM 57.3°F14.1°C 53.5°F11.9°C 87% 7.5 mph SSE12.1 kmh SSE 23.0 mph37.0 kmh 29.27 in991.2 mb 0.00 in0.0 mm 0.00 in0.0 mm 0.00 in0.0 mm
12:04 AM 57.3°F14.1°C 53.1°F11.7°C 86% 12.0 mph SSE19.3 kmh SSE 21.0 mph33.8 kmh 29.27 in991.2 mb 0.00 in0.0 mm 0.00 in0.0 mm 0.00 in0.0 mm
12:05 AM 57.2°F14.0°C 53.4°F11.9°C 87% 7.0 mph SSE11.3 kmh SSE 21.0 mph33.8 kmh 29.27 in991.2 mb 0.00 in0.0 mm 0.00 in0.0 mm 0.00 in0.0 mm
12:06 AM 57.2°F14.0°C 53.4°F11.9°C 87% 12.6 mph SSE20.3 kmh SSE 20.0 mph32.2 kmh 29.27 in991.2 mb 0.00 in0.0 mm 0.00 in0.0 mm 0.00 in0.0 mm
12:07 AM 57.2°F14.0°C 53.4°F11.9°C 87% 11.0 mph S17.7 kmh S 20.0 mph32.2 kmh 29.27 in991.2 mb 0.00 in0.0 mm 0.00 in0.0 mm 0.00 in0.0 mm
12:08 AM 57.3°F14.1°C 53.1°F11.7°C 86% 9.0 mph S14.5 kmh S 16.0 mph25.7 kmh 29.27 in991.2 mb 0.00 in0.0 mm 0.00 in0.0 mm 0.00 in0.0 mm
12:09 AM 57.3°F14.1°C 53.1°F11.7°C 86% 12.1 mph SSE19.5 kmh SSE 21.0 mph33.8 kmh 29.27 in991.2 mb 0.00 in0.0 mm 0.00 in0.0 mm 0.00 in0.0 mm
12:10 AM 57.2°F14.0°C 53.0°F11.7°C 86% 9.5 mph S15.3 kmh S 21.0 mph33.8 kmh 29.27 in991.2 mb 0.00 in0.0 mm 0.00 in0.0 mm 0.00 in0.0 mm
12:11 AM 57.2°F14.0°C 53.0°F11.7°C 86% 12.2 mph SSE19.6 kmh SSE 18.0 mph29.0 kmh 29.27 in991.2 mb 0.00 in0.0 mm 0.00 in0.0 mm 0.00 in0.0 mm
12:12 AM 57.3°F14.1°C 53.1°F11.7°C 86% 12.7 mph SSE20.4 kmh SSE 18.0 mph29.0 kmh 29.27 in991.2 mb 0.00 in0.0 mm 0.00 in0.0 mm 0.00 in0.0 mm
12:13 AM 57.3°F14.1°C 53.1°F11.7°C 86% 10.8 mph S17.4 kmh S 17.0 mph27.4 kmh 29.27 in991.2 mb 0.00 in0.0 mm 0.00 in0.0 mm 0.00 in0.0 mm
12:14 AM 57.3°F14.1°C 53.1°F11.7°C 86% 11.3 mph SSE18.2 kmh SSE 16.0 mph25.7 kmh 29.27 in991.2 mb 0.00 in0.0 mm 0.00 in0.0 mm 0.00 in0.0 mm
12:15 AM 57.4°F14.1°C 53.2°F11.8°C 86% 11.9 mph SSE19.2 kmh SSE 17.0 mph27.4 kmh 29.27 in991.2 mb 0.00 in0.0 mm 0.00 in0.0 mm 0.00 in0.0 mm
12:16 AM 57.3°F14.1°C 53.1°F11.7°C 86% 13.7 mph SSE22.0 kmh SSE 18.0 mph29.0 kmh 29.27 in991.2 mb 0.00 in0.0 mm 0.00 in0.0 mm 0.00 in0.0 mm
12:17 AM 57.4°F14.1°C 53.2°F11.8°C 86% 10.7 mph S17.2 kmh S 24.0 mph38.6 kmh 29.27 in991.2 mb 0.00 in0.0 mm 0.00 in0.0 mm 0.00 in0.0 mm
12:18 AM 57.4°F14.1°C 53.2°F11.8°C 86% 14.5 mph S23.3 kmh S 24.0 mph38.6 kmh 29.27 in991.2 mb 0.00 in0.0 mm 0.00 in0.0 mm 0.00 in0.0 mm
12:19 AM 57.4°F14.1°C 53.2°F11.8°C 86% 8.3 mph S13.4 kmh S 22.0 mph35.4 kmh 29.27 in991.2 mb 0.00 in0.0 mm 0.00 in0.0 mm 0.00 in0.0 mm
12:20 AM 57.4°F14.1°C 53.2°F11.8°C 86% 11.3 mph S18.2 kmh S 20.0 mph32.2 kmh 29.27 in991.2 mb 0.00 in0.0 mm 0.00 in0.0 mm 0.00 in0.0 mm
12:21 AM 57.4°F14.1°C 53.2°F11.8°C 86% 8.0 mph SSE12.9 kmh SSE 20.0 mph32.2 kmh 29.27 in991.2 mb 0.00 in0.0 mm 0.00 in0.0 mm 0.00 in0.0 mm
12:22 AM 57.4°F14.1°C 53.2°F11.8°C 86% 10.0 mph SSE16.1 kmh SSE 17.0 mph27.4 kmh 29.27 in991.2 mb 0.00 in0.0 mm 0.00 in0.0 mm 0.00 in0.0 mm
12:23 AM 57.3°F14.1°C 53.1°F11.7°C 86% 11.5 mph S18.5 kmh S 19.0 mph30.6 kmh 29.27 in991.2 mb 0.00 in0.0 mm 0.00 in0.0 mm 0.00 in0.0 mm
12:24 AM 57.4°F14.1°C 53.2°F11.8°C 86% 11.0 mph S17.7 kmh S 19.0 mph30.6 kmh 29.27 in991.2 mb 0.00 in0.0 mm 0.00 in0.0 mm 0.00 in0.0 mm
12:25 AM 57.4°F14.1°C 53.2°F11.8°C 86% 11.4 mph S18.3 kmh S 19.0 mph30.6 kmh 29.27 in991.2 mb 0.00 in0.0 mm 0.00 in0.0 mm 0.00 in0.0 mm
12:26 AM 57.4°F14.1°C 53.2°F11.8°C 86% 12.1 mph S19.5 kmh S 19.0 mph30.6 kmh 29.26 in990.9 mb 0.00 in0.0 mm 0.00 in0.0 mm 0.00 in0.0 mm
12:27 AM 57.4°F14.1°C 53.2°F11.8°C 86% 15.1 mph SSE24.3 kmh SSE 22.0 mph35.4 kmh 29.26 in990.9 mb 0.00 in0.0 mm 0.00 in0.0 mm 0.00 in0.0 mm
12:28 AM 57.3°F14.1°C 53.1°F11.7°C 86% 11.0 mph S17.7 kmh S 22.0 mph35.4 kmh 29.26 in990.9 mb 0.00 in0.0 mm 0.00 in0.0 mm 0.00 in0.0 mm
12:29 AM 57.4°F14.1°C 53.2°F11.8°C 86% 12.4 mph SSE20.0 kmh SSE 22.0 mph35.4 kmh 29.26 in990.9 mb 0.00 in0.0 mm 0.00 in0.0 mm 0.00 in0.0 mm
12:30 AM 57.4°F14.1°C 53.2°F11.8°C 86% 11.3 mph SSE18.2 kmh SSE 22.0 mph35.4 kmh 29.26 in990.9 mb 0.00 in0.0 mm 0.00 in0.0 mm 0.00 in0.0 mm
12:31 AM 57.3°F14.1°C 53.1°F11.7°C 86% 15.9 mph SSE25.6 kmh SSE 26.0 mph41.8 kmh 29.26 in990.9 mb 0.00 in0.0 mm 0.00 in0.0 mm 0.00 in0.0 mm
12:32 AM 57.4°F14.1°C 52.9°F11.6°C 85% 15.2 mph S24.5 kmh S 26.0 mph41.8 kmh 29.26 in990.9 mb 0.00 in0.0 mm 0.00 in0.0 mm 0.00 in0.0 mm
12:33 AM 57.3°F14.1°C 52.8°F11.6°C 85% 8.4 mph S13.5 kmh S 22.0 mph35.4 kmh 29.26 in990.9 mb 0.00 in0.0 mm 0.00 in0.0 mm 0.00 in0.0 mm
12:34 AM 57.4°F14.1°C 53.2°F11.8°C 86% 8.5 mph S13.7 kmh S 17.0 mph27.4 kmh 29.26 in990.9 mb 0.00 in0.0 mm 0.00 in0.0 mm 0.00 in0.0 mm
12:35 AM 57.4°F14.1°C 52.9°F11.6°C 85% 12.9 mph S20.8 kmh S 17.0 mph27.4 kmh 29.26 in990.9 mb 0.00 in0.0 mm 0.00 in0.0 mm 0.00 in0.0 mm
12:36 AM 57.4°F14.1°C 52.9°F11.6°C 85% 10.9 mph SSE17.5 kmh SSE 17.0 mph27.4 kmh 29.26 in990.9 mb 0.00 in0.0 mm 0.00 in0.0 mm 0.00 in0.0 mm
12:37 AM 57.3°F14.1°C 52.8°F11.6°C 85% 12.0 mph SSE19.3 kmh SSE 18.0 mph29.0 kmh 29.26 in990.9 mb 0.00 in0.0 mm 0.00 in0.0 mm 0.00 in0.0 mm
12:38 AM 57.4°F14.1°C 53.2°F11.8°C 86% 10.2 mph SSE16.4 kmh SSE 18.0 mph29.0 kmh 29.26 in990.9 mb 0.00 in0.0 mm 0.00 in0.0 mm 0.00 in0.0 mm
12:39 AM 57.3°F14.1°C 53.1°F11.7°C 86% 12.5 mph S20.1 kmh S 19.0 mph30.6 kmh 29.26 in990.9 mb 0.00 in0.0 mm 0.00 in0.0 mm 0.00 in0.0 mm
12:40 AM 57.3°F14.1°C 52.8°F11.6°C 85% 10.5 mph SSE16.9 kmh SSE 19.0 mph30.6 kmh 29.26 in990.9 mb 0.00 in0.0 mm 0.00 in0.0 mm 0.00 in0.0 mm
12:41 AM 57.4°F14.1°C 52.9°F11.6°C 85% 10.5 mph SSE16.9 kmh SSE 17.0 mph27.4 kmh 29.26 in990.9 mb 0.00 in0.0 mm 0.00 in0.0 mm 0.00 in0.0 mm
12:42 AM 57.3°F14.1°C 53.1°F11.7°C 86% 10.4 mph S16.7 kmh S 18.0 mph29.0 kmh 29.25 in990.5 mb 0.00 in0.0 mm 0.00 in0.0 mm 0.00 in0.0 mm
12:43 AM 57.3°F14.1°C 52.8°F11.6°C 85% 10.6 mph S17.1 kmh S 18.0 mph29.0 kmh 29.25 in990.5 mb 0.00 in0.0 mm 0.00 in0.0 mm 0.00 in0.0 mm
12:44 AM 57.3°F14.1°C 52.8°F11.6°C 85% 14.0 mph SSE22.5 kmh SSE 21.0 mph33.8 kmh 29.25 in990.5 mb 0.00 in0.0 mm 0.00 in0.0 mm 0.00 in0.0 mm
12:45 AM 57.3°F14.1°C 53.1°F11.7°C 86% 10.5 mph SSE16.9 kmh SSE 21.0 mph33.8 kmh 29.25 in990.5 mb 0.00 in0.0 mm 0.00 in0.0 mm 0.00 in0.0 mm
12:46 AM 57.3°F14.1°C 53.1°F11.7°C 86% 10.3 mph SSE16.6 kmh SSE 18.0 mph29.0 kmh 29.25 in990.5 mb 0.00 in0.0 mm 0.00 in0.0 mm 0.00 in0.0 mm
12:47 AM 57.3°F14.1°C 53.1°F11.7°C 86% 10.6 mph SSE17.1 kmh SSE 18.0 mph29.0 kmh 29.25 in990.5 mb 0.00 in0.0 mm 0.00 in0.0 mm 0.00 in0.0 mm
12:48 AM 57.3°F14.1°C 52.8°F11.6°C 85% 16.9 mph SSE27.2 kmh SSE 21.0 mph33.8 kmh 29.25 in990.5 mb 0.00 in0.0 mm 0.00 in0.0 mm 0.00 in0.0 mm
12:49 AM 57.3°F14.1°C 52.8°F11.6°C 85% 10.2 mph SSE16.4 kmh SSE 21.0 mph33.8 kmh 29.25 in990.5 mb 0.00 in0.0 mm 0.00 in0.0 mm 0.00 in0.0 mm
12:50 AM 57.4°F14.1°C 52.9°F11.6°C 85% 9.6 mph SSE15.4 kmh SSE 13.0 mph20.9 kmh 29.25 in990.5 mb 0.00 in0.0 mm 0.00 in0.0 mm 0.00 in0.0 mm
12:51 AM 57.4°F14.1°C 52.9°F11.6°C 85% 12.8 mph SSE20.6 kmh SSE 18.0 mph29.0 kmh 29.25 in990.5 mb 0.00 in0.0 mm 0.00 in0.0 mm 0.00 in0.0 mm
12:52 AM 57.4°F14.1°C 52.9°F11.6°C 85% 13.2 mph SSE21.2 kmh SSE 18.0 mph29.0 kmh 29.25 in990.5 mb 0.00 in0.0 mm 0.00 in0.0 mm 0.00 in0.0 mm
12:53 AM 57.4°F14.1°C 52.9°F11.6°C 85% 11.3 mph SSE18.2 kmh SSE 18.0 mph29.0 kmh 29.25 in990.5 mb 0.00 in0.0 mm 0.00 in0.0 mm 0.00 in0.0 mm
12:54 AM 57.4°F14.1°C 52.9°F11.6°C 85% 8.8 mph SSE14.2 kmh SSE 17.0 mph27.4 kmh 29.25 in990.5 mb 0.00 in0.0 mm 0.00 in0.0 mm 0.00 in0.0 mm
12:55 AM 57.4°F14.1°C 52.9°F11.6°C 85% 14.4 mph SSE23.2 kmh SSE 20.0 mph32.2 kmh 29.25 in990.5 mb 0.00 in0.0 mm 0.00 in0.0 mm 0.00 in0.0 mm
12:56 AM 57.4°F14.1°C 53.2°F11.8°C 86% 12.0 mph S19.3 kmh S 20.0 mph32.2 kmh 29.25 in990.5 mb 0.00 in0.0 mm 0.00 in0.0 mm 0.00 in0.0 mm
12:57 AM 57.4°F14.1°C 52.9°F11.6°C 85% 12.3 mph SSE19.8 kmh SSE 22.0 mph35.4 kmh 29.25 in990.5 mb 0.00 in0.0 mm 0.00 in0.0 mm 0.00 in0.0 mm
12:58 AM 57.4°F14.1°C 52.9°F11.6°C 85% 14.9 mph SSE24.0 kmh SSE 22.0 mph35.4 kmh 29.24 in990.2 mb 0.00 in0.0 mm 0.00 in0.0 mm 0.00 in0.0 mm
12:59 AM 57.5°F14.2°C 53.0°F11.7°C 85% 12.3 mph SSE19.8 kmh SSE 22.0 mph35.4 kmh 29.24 in990.2 mb 0.00 in0.0 mm 0.00 in0.0 mm 0.00 in0.0 mm
01:00 AM 57.5°F14.2°C 53.0°F11.7°C 85% 11.5 mph S18.5 kmh S 20.0 mph32.2 kmh 29.24 in990.2 mb 0.00 in0.0 mm 0.00 in0.0 mm 0.00 in0.0 mm
01:01 AM 57.5°F14.2°C 53.0°F11.7°C 85% 10.1 mph SSE16.3 kmh SSE 20.0 mph32.2 kmh 29.24 in990.2 mb 0.00 in0.0 mm 0.00 in0.0 mm 0.00 in0.0 mm
01:02 AM 57.5°F14.2°C 53.0°F11.7°C 85% 9.7 mph SSE15.6 kmh SSE 15.0 mph24.1 kmh 29.24 in990.2 mb 0.00 in0.0 mm 0.00 in0.0 mm 0.00 in0.0 mm
01:03 AM 57.5°F14.2°C 53.0°F11.7°C 85% 9.3 mph S15.0 kmh S 15.0 mph24.1 kmh 29.24 in990.2 mb 0.00 in0.0 mm 0.00 in0.0 mm 0.00 in0.0 mm
01:04 AM 57.5°F14.2°C 53.0°F11.7°C 85% 13.7 mph S22.0 kmh S 20.0 mph32.2 kmh 29.24 in990.2 mb 0.00 in0.0 mm 0.00 in0.0 mm 0.00 in0.0 mm
01:05 AM 57.5°F14.2°C 53.0°F11.7°C 85% 11.8 mph S19.0 kmh S 20.0 mph32.2 kmh 29.24 in990.2 mb 0.00 in0.0 mm 0.00 in0.0 mm 0.00 in0.0 mm
01:06 AM 57.5°F14.2°C 53.0°F11.7°C 85% 10.5 mph SSE16.9 kmh SSE 17.0 mph27.4 kmh 29.24 in990.2 mb 0.00 in0.0 mm 0.00 in0.0 mm 0.00 in0.0 mm
01:07 AM 57.5°F14.2°C 53.0°F11.7°C 85% 13.4 mph S21.6 kmh S 19.0 mph30.6 kmh 29.24 in990.2 mb 0.00 in0.0 mm 0.00 in0.0 mm 0.00 in0.0 mm
01:08 AM 57.5°F14.2°C 53.0°F11.7°C 85% 14.0 mph SSE22.5 kmh SSE 21.0 mph33.8 kmh 29.24 in990.2 mb 0.00 in0.0 mm 0.00 in0.0 mm 0.00 in0.0 mm
01:09 AM 57.5°F14.2°C 53.0°F11.7°C 85% 11.1 mph SSE17.9 kmh SSE 21.0 mph33.8 kmh 29.24 in990.2 mb 0.00 in0.0 mm 0.00 in0.0 mm 0.00 in0.0 mm
01:10 AM 57.5°F14.2°C 53.3°F11.8°C 86% 9.9 mph S15.9 kmh S 17.0 mph27.4 kmh 29.23 in989.8 mb 0.00 in0.0 mm 0.00 in0.0 mm 0.00 in0.0 mm
01:11 AM 57.5°F14.2°C 53.0°F11.7°C 85% 12.7 mph SSE20.4 kmh SSE 19.0 mph30.6 kmh 29.24 in990.2 mb 0.00 in0.0 mm 0.00 in0.0 mm 0.00 in0.0 mm
01:12 AM 57.5°F14.2°C 53.0°F11.7°C 85% 11.0 mph SSE17.7 kmh SSE 19.0 mph30.6 kmh 29.23 in989.8 mb 0.00 in0.0 mm 0.00 in0.0 mm 0.00 in0.0 mm
01:13 AM 57.5°F14.2°C 53.0°F11.7°C 85% 10.0 mph SSE16.1 kmh SSE 18.0 mph29.0 kmh 29.23 in989.8 mb 0.00 in0.0 mm 0.00 in0.0 mm 0.00 in0.0 mm
01:14 AM 57.5°F14.2°C 53.0°F11.7°C 85% 9.7 mph SSE15.6 kmh SSE 16.0 mph25.7 kmh 29.23 in989.8 mb 0.00 in0.0 mm 0.00 in0.0 mm 0.00 in0.0 mm
01:15 AM 57.5°F14.2°C 53.0°F11.7°C 85% 7.6 mph S12.2 kmh S 16.0 mph25.7 kmh 29.24 in990.2 mb 0.00 in0.0 mm 0.00 in0.0 mm 0.00 in0.0 mm
01:16 AM 57.5°F14.2°C 53.0°F11.7°C 85% 10.0 mph S16.1 kmh S 16.0 mph25.7 kmh 29.23 in989.8 mb 0.00 in0.0 mm 0.00 in0.0 mm 0.00 in0.0 mm
01:17 AM 57.5°F14.2°C 53.0°F11.7°C 85% 14.5 mph SSE23.3 kmh SSE 20.0 mph32.2 kmh 29.23 in989.8 mb 0.00 in0.0 mm 0.00 in0.0 mm 0.00 in0.0 mm
01:18 AM 57.5°F14.2°C 53.0°F11.7°C 85% 12.1 mph SSE19.5 kmh SSE 20.0 mph32.2 kmh 29.23 in989.8 mb 0.00 in0.0 mm 0.00 in0.0 mm 0.00 in0.0 mm
01:19 AM 57.6°F14.2°C 53.1°F11.7°C 85% 11.5 mph SSE18.5 kmh SSE 18.0 mph29.0 kmh 29.23 in989.8 mb 0.00 in0.0 mm 0.00 in0.0 mm 0.00 in0.0 mm
01:20 AM 57.6°F14.2°C 53.1°F11.7°C 85% 13.3 mph SSE21.4 kmh SSE 18.0 mph29.0 kmh 29.23 in989.8 mb 0.00 in0.0 mm 0.00 in0.0 mm 0.00 in0.0 mm
01:21 AM 57.6°F14.2°C 53.1°F11.7°C 85% 10.0 mph S16.1 kmh S 18.0 mph29.0 kmh 29.23 in989.8 mb 0.00 in0.0 mm 0.00 in0.0 mm 0.00 in0.0 mm
01:22 AM 57.6°F14.2°C 53.1°F11.7°C 85% 11.0 mph SSE17.7 kmh SSE 15.0 mph24.1 kmh 29.23 in989.8 mb 0.00 in0.0 mm 0.00 in0.0 mm 0.00 in0.0 mm
01:23 AM 57.6°F14.2°C 53.1°F11.7°C 85% 13.5 mph SSE21.7 kmh SSE 19.0 mph30.6 kmh 29.23 in989.8 mb 0.00 in0.0 mm 0.00 in0.0 mm 0.00 in0.0 mm
01:24 AM 57.6°F14.2°C 53.1°F11.7°C 85% 10.2 mph S16.4 kmh S 19.0 mph30.6 kmh 29.23 in989.8 mb 0.00 in0.0 mm 0.00 in0.0 mm 0.00 in0.0 mm
01:25 AM 57.6°F14.2°C 53.1°F11.7°C 85% 10.8 mph SSE17.4 kmh SSE 14.0 mph22.5 kmh 29.23 in989.8 mb 0.00 in0.0 mm 0.00 in0.0 mm 0.00 in0.0 mm
01:26 AM 57.6°F14.2°C 53.1°F11.7°C 85% 13.9 mph SSE22.4 kmh SSE 19.0 mph30.6 kmh 29.23 in989.8 mb 0.00 in0.0 mm 0.00 in0.0 mm 0.00 in0.0 mm
01:27 AM 57.6°F14.2°C 53.1°F11.7°C 85% 13.5 mph SSE21.7 kmh SSE 21.0 mph33.8 kmh 29.23 in989.8 mb 0.00 in0.0 mm 0.00 in0.0 mm 0.00 in0.0 mm
01:28 AM 57.6°F14.2°C 53.1°F11.7°C 85% 14.5 mph SSE23.3 kmh SSE 21.0 mph33.8 kmh 29.23 in989.8 mb 0.00 in0.0 mm 0.00 in0.0 mm 0.00 in0.0 mm
01:29 AM 57.7°F14.3°C 53.2°F11.8°C 85% 14.7 mph SSE23.7 kmh SSE 21.0 mph33.8 kmh 29.22 in989.5 mb 0.00 in0.0 mm 0.00 in0.0 mm 0.00 in0.0 mm
01:30 AM 57.7°F14.3°C 53.2°F11.8°C 85% 12.2 mph SSE19.6 kmh SSE 19.0 mph30.6 kmh 29.22 in989.5 mb 0.00 in0.0 mm 0.00 in0.0 mm 0.00 in0.0 mm
01:31 AM 57.6°F14.2°C 53.1°F11.7°C 85% 11.7 mph SSE18.8 kmh SSE 20.0 mph32.2 kmh 29.22 in989.5 mb 0.00 in0.0 mm 0.00 in0.0 mm 0.00 in0.0 mm
01:32 AM 57.7°F14.3°C 53.2°F11.8°C 85% 14.1 mph SSE22.7 kmh SSE 20.0 mph32.2 kmh 29.22 in989.5 mb 0.00 in0.0 mm 0.00 in0.0 mm 0.00 in0.0 mm
01:33 AM 57.7°F14.3°C 53.2°F11.8°C 85% 14.5 mph SSE23.3 kmh SSE 20.0 mph32.2 kmh 29.22 in989.5 mb 0.00 in0.0 mm 0.00 in0.0 mm 0.00 in0.0 mm
01:34 AM 57.7°F14.3°C 53.2°F11.8°C 85% 15.0 mph SSE24.1 kmh SSE 23.0 mph37.0 kmh 29.22 in989.5 mb 0.00 in0.0 mm 0.00 in0.0 mm 0.00 in0.0 mm
01:35 AM 57.7°F14.3°C 53.2°F11.8°C 85% 15.3 mph SSE24.6 kmh SSE 23.0 mph37.0 kmh 29.22 in989.5 mb 0.00 in0.0 mm 0.00 in0.0 mm 0.00 in0.0 mm
01:36 AM 57.7°F14.3°C 53.2°F11.8°C 85% 15.6 mph SSE25.1 kmh SSE 23.0 mph37.0 kmh 29.22 in989.5 mb 0.00 in0.0 mm 0.00 in0.0 mm 0.00 in0.0 mm
01:37 AM 57.7°F14.3°C 53.2°F11.8°C 85% 12.2 mph S19.6 kmh S 21.0 mph33.8 kmh 29.22 in989.5 mb 0.00 in0.0 mm 0.00 in0.0 mm 0.00 in0.0 mm
01:38 AM 57.8°F14.3°C 53.3°F11.8°C 85% 8.3 mph S13.4 kmh S 20.0 mph32.2 kmh 29.22 in989.5 mb 0.00 in0.0 mm 0.00 in0.0 mm 0.00 in0.0 mm
01:39 AM 57.7°F14.3°C 53.2°F11.8°C 85% 11.5 mph SSE18.5 kmh SSE 18.0 mph29.0 kmh 29.22 in989.5 mb 0.00 in0.0 mm 0.00 in0.0 mm 0.00 in0.0 mm
01:40 AM 57.7°F14.3°C 53.2°F11.8°C 85% 13.3 mph SSE21.4 kmh SSE 20.0 mph32.2 kmh 29.22 in989.5 mb 0.00 in0.0 mm 0.00 in0.0 mm 0.00 in0.0 mm
01:41 AM 57.7°F14.3°C 53.2°F11.8°C 85% 10.8 mph S17.4 kmh S 20.0 mph32.2 kmh 29.22 in989.5 mb 0.00 in0.0 mm 0.00 in0.0 mm 0.00 in0.0 mm
01:42 AM 57.8°F14.3°C 53.3°F11.8°C 85% 11.8 mph SSE19.0 kmh SSE 22.0 mph35.4 kmh 29.22 in989.5 mb 0.00 in0.0 mm 0.00 in0.0 mm 0.00 in0.0 mm
01:43 AM 57.8°F14.3°C 53.3°F11.8°C 85% 14.8 mph S23.8 kmh S 22.0 mph35.4 kmh 29.22 in989.5 mb 0.00 in0.0 mm 0.00 in0.0 mm 0.00 in0.0 mm
01:44 AM 57.8°F14.3°C 53.3°F11.8°C 85% 11.6 mph SSE18.7 kmh SSE 19.0 mph30.6 kmh 29.22 in989.5 mb 0.00 in0.0 mm 0.00 in0.0 mm 0.00 in0.0 mm
01:45 AM 57.8°F14.3°C 53.3°F11.8°C 85% 6.0 mph S9.7 kmh S 15.0 mph24.1 kmh 29.22 in989.5 mb 0.00 in0.0 mm 0.00 in0.0 mm 0.00 in0.0 mm
01:46 AM 57.7°F14.3°C 53.2°F11.8°C 85% 7.7 mph S12.4 kmh S 13.0 mph20.9 kmh 29.22 in989.5 mb 0.00 in0.0 mm 0.00 in0.0 mm 0.00 in0.0 mm
01:47 AM 57.7°F14.3°C 53.2°F11.8°C 85% 15.5 mph S24.9 kmh S 19.0 mph30.6 kmh 29.22 in989.5 mb 0.00 in0.0 mm 0.00 in0.0 mm 0.00 in0.0 mm
01:48 AM 57.8°F14.3°C 53.0°F11.7°C 84% 17.4 mph SSE28.0 kmh SSE 23.0 mph37.0 kmh 29.22 in989.5 mb 0.00 in0.0 mm 0.00 in0.0 mm 0.00 in0.0 mm
01:49 AM 57.8°F14.3°C 53.0°F11.7°C 84% 13.8 mph SSE22.2 kmh SSE 23.0 mph37.0 kmh 29.22 in989.5 mb 0.00 in0.0 mm 0.00 in0.0 mm 0.00 in0.0 mm
01:50 AM 57.8°F14.3°C 53.3°F11.8°C 85% 10.2 mph SSE16.4 kmh SSE 23.0 mph37.0 kmh 29.22 in989.5 mb 0.00 in0.0 mm 0.00 in0.0 mm 0.00 in0.0 mm
01:51 AM 57.8°F14.3°C 53.3°F11.8°C 85% 9.0 mph S14.5 kmh S 16.0 mph25.7 kmh 29.22 in989.5 mb 0.00 in0.0 mm 0.00 in0.0 mm 0.00 in0.0 mm
01:52 AM 57.8°F14.3°C 53.3°F11.8°C 85% 12.5 mph S20.1 kmh S 17.0 mph27.4 kmh 29.22 in989.5 mb 0.00 in0.0 mm 0.00 in0.0 mm 0.00 in0.0 mm
01:53 AM 57.7°F14.3°C 53.2°F11.8°C 85% 12.1 mph S19.5 kmh S 22.0 mph35.4 kmh 29.22 in989.5 mb 0.00 in0.0 mm 0.00 in0.0 mm 0.00 in0.0 mm
01:54 AM 57.7°F14.3°C 53.2°F11.8°C 85% 8.6 mph SSE13.8 kmh SSE 22.0 mph35.4 kmh 29.22 in989.5 mb 0.00 in0.0 mm 0.00 in0.0 mm 0.00 in0.0 mm
01:55 AM 57.7°F14.3°C 53.2°F11.8°C 85% 12.0 mph S19.3 kmh S 21.0 mph33.8 kmh 29.22 in989.5 mb 0.00 in0.0 mm 0.00 in0.0 mm 0.00 in0.0 mm
01:56 AM 57.7°F14.3°C 53.2°F11.8°C 85% 8.0 mph SSE12.9 kmh SSE 21.0 mph33.8 kmh 29.22 in989.5 mb 0.00 in0.0 mm 0.00 in0.0 mm 0.00 in0.0 mm
01:57 AM 57.7°F14.3°C 53.2°F11.8°C 85% 11.0 mph SSE17.7 kmh SSE 16.0 mph25.7 kmh 29.22 in989.5 mb 0.00 in0.0 mm 0.00 in0.0 mm 0.00 in0.0 mm
01:58 AM 57.7°F14.3°C 53.2°F11.8°C 85% 9.7 mph S15.6 kmh S 18.0 mph29.0 kmh 29.22 in989.5 mb 0.00 in0.0 mm 0.00 in0.0 mm 0.00 in0.0 mm
01:59 AM 57.7°F14.3°C 53.2°F11.8°C 85% 9.8 mph S15.8 kmh S 18.0 mph29.0 kmh 29.22 in989.5 mb 0.00 in0.0 mm 0.00 in0.0 mm 0.00 in0.0 mm
02:00 AM 57.6°F14.2°C 53.1°F11.7°C 85% 13.4 mph S21.6 kmh S 22.0 mph35.4 kmh 29.22 in989.5 mb 0.00 in0.0 mm 0.00 in0.0 mm 0.00 in0.0 mm
02:01 AM 57.7°F14.3°C 52.9°F11.6°C 84% 15.5 mph SSE24.9 kmh SSE 27.0 mph43.5 kmh 29.22 in989.5 mb 0.00 in0.0 mm 0.00 in0.0 mm 0.00 in0.0 mm
02:02 AM 57.7°F14.3°C 52.9°F11.6°C 84% 12.5 mph SSE20.1 kmh SSE 27.0 mph43.5 kmh 29.22 in989.5 mb 0.00 in0.0 mm 0.00 in0.0 mm 0.00 in0.0 mm
02:03 AM 57.7°F14.3°C 52.9°F11.6°C 84% 14.1 mph SSE22.7 kmh SSE 21.0 mph33.8 kmh 29.22 in989.5 mb 0.00 in0.0 mm 0.00 in0.0 mm 0.00 in0.0 mm
02:04 AM 57.7°F14.3°C 52.9°F11.6°C 84% 12.8 mph SSE20.6 kmh SSE 22.0 mph35.4 kmh 29.22 in989.5 mb 0.00 in0.0 mm 0.00 in0.0 mm 0.00 in0.0 mm
02:05 AM 57.7°F14.3°C 52.9°F11.6°C 84% 15.3 mph SSE24.6 kmh SSE 22.0 mph35.4 kmh 29.22 in989.5 mb 0.00 in0.0 mm 0.00 in0.0 mm 0.00 in0.0 mm
02:06 AM 57.7°F14.3°C 52.9°F11.6°C 84% 11.3 mph SSE18.2 kmh SSE 22.0 mph35.4 kmh 29.22 in989.5 mb 0.00 in0.0 mm 0.00 in0.0 mm 0.00 in0.0 mm
02:07 AM 57.8°F14.3°C 53.0°F11.7°C 84% 12.3 mph SSE19.8 kmh SSE 20.0 mph32.2 kmh 29.22 in989.5 mb 0.00 in0.0 mm 0.00 in0.0 mm 0.00 in0.0 mm
02:08 AM 57.8°F14.3°C 53.0°F11.7°C 84% 14.3 mph SSE23.0 kmh SSE 19.0 mph30.6 kmh 29.22 in989.5 mb 0.00 in0.0 mm 0.00 in0.0 mm 0.00 in0.0 mm
02:09 AM 57.8°F14.3°C 53.0°F11.7°C 84% 16.3 mph SSE26.2 kmh SSE 21.0 mph33.8 kmh 29.22 in989.5 mb 0.00 in0.0 mm 0.00 in0.0 mm 0.00 in0.0 mm
02:10 AM 57.7°F14.3°C 52.9°F11.6°C 84% 9.1 mph SSE14.6 kmh SSE 21.0 mph33.8 kmh 29.21 in989.2 mb 0.00 in0.0 mm 0.00 in0.0 mm 0.00 in0.0 mm
02:11 AM 57.7°F14.3°C 52.9°F11.6°C 84% 12.0 mph SSE19.3 kmh SSE 21.0 mph33.8 kmh 29.21 in989.2 mb 0.00 in0.0 mm 0.00 in0.0 mm 0.00 in0.0 mm
02:12 AM 57.7°F14.3°C 52.9°F11.6°C 84% 14.2 mph SSE22.9 kmh SSE 21.0 mph33.8 kmh 29.21 in989.2 mb 0.00 in0.0 mm 0.00 in0.0 mm 0.00 in0.0 mm
02:13 AM 57.7°F14.3°C 52.9°F11.6°C 84% 12.5 mph SSE20.1 kmh SSE 19.0 mph30.6 kmh 29.21 in989.2 mb 0.00 in0.0 mm 0.00 in0.0 mm 0.00 in0.0 mm
02:14 AM 57.6°F14.2°C 52.8°F11.6°C 84% 10.5 mph SSE16.9 kmh SSE 18.0 mph29.0 kmh 29.21 in989.2 mb 0.00 in0.0 mm 0.00 in0.0 mm 0.00 in0.0 mm
02:15 AM 57.6°F14.2°C 52.8°F11.6°C 84% 10.5 mph SSE16.9 kmh SSE 18.0 mph29.0 kmh 29.21 in989.2 mb 0.00 in0.0 mm 0.00 in0.0 mm 0.00 in0.0 mm
02:16 AM 57.7°F14.3°C 52.9°F11.6°C 84% 12.8 mph SSE20.6 kmh SSE 20.0 mph32.2 kmh 29.21 in989.2 mb 0.00 in0.0 mm 0.00 in0.0 mm 0.00 in0.0 mm
02:17 AM 57.6°F14.2°C 52.8°F11.6°C 84% 13.7 mph SSE22.0 kmh SSE 22.0 mph35.4 kmh 29.21 in989.2 mb 0.00 in0.0 mm 0.00 in0.0 mm 0.00 in0.0 mm
02:18 AM 57.6°F14.2°C 52.8°F11.6°C 84% 9.8 mph SSE15.8 kmh SSE 22.0 mph35.4 kmh 29.21 in989.2 mb 0.00 in0.0 mm 0.00 in0.0 mm 0.00 in0.0 mm
02:19 AM 57.6°F14.2°C 52.8°F11.6°C 84% 8.3 mph SSE13.4 kmh SSE 17.0 mph27.4 kmh 29.21 in989.2 mb 0.00 in0.0 mm 0.00 in0.0 mm 0.00 in0.0 mm
02:20 AM 57.6°F14.2°C 52.8°F11.6°C 84% 10.7 mph SSE17.2 kmh SSE 16.0 mph25.7 kmh 29.21 in989.2 mb 0.00 in0.0 mm 0.00 in0.0 mm 0.00 in0.0 mm
02:21 AM 57.5°F14.2°C 52.7°F11.5°C 84% 10.8 mph SSE17.4 kmh SSE 20.0 mph32.2 kmh 29.21 in989.2 mb 0.00 in0.0 mm 0.00 in0.0 mm 0.00 in0.0 mm
02:22 AM 57.6°F14.2°C 52.8°F11.6°C 84% 11.4 mph S18.3 kmh S 20.0 mph32.2 kmh 29.21 in989.2 mb 0.00 in0.0 mm 0.00 in0.0 mm 0.00 in0.0 mm
02:23 AM 57.6°F14.2°C 52.8°F11.6°C 84% 9.3 mph SSE15.0 kmh SSE 15.0 mph24.1 kmh 29.21 in989.2 mb 0.00 in0.0 mm 0.00 in0.0 mm 0.00 in0.0 mm
02:24 AM 57.5°F14.2°C 52.7°F11.5°C 84% 8.7 mph SSE14.0 kmh SSE 12.0 mph19.3 kmh 29.21 in989.2 mb 0.00 in0.0 mm 0.00 in0.0 mm 0.00 in0.0 mm
02:25 AM 57.5°F14.2°C 52.7°F11.5°C 84% 9.6 mph SSE15.4 kmh SSE 17.0 mph27.4 kmh 29.21 in989.2 mb 0.00 in0.0 mm 0.00 in0.0 mm 0.00 in0.0 mm
02:26 AM 57.5°F14.2°C 52.7°F11.5°C 84% 10.4 mph SSE16.7 kmh SSE 19.0 mph30.6 kmh 29.21 in989.2 mb 0.00 in0.0 mm 0.00 in0.0 mm 0.00 in0.0 mm
02:27 AM 57.5°F14.2°C 52.7°F11.5°C 84% 13.6 mph SSE21.9 kmh SSE 20.0 mph32.2 kmh 29.21 in989.2 mb 0.00 in0.0 mm 0.00 in0.0 mm 0.00 in0.0 mm
02:28 AM 57.5°F14.2°C 52.7°F11.5°C 84% 11.9 mph S19.2 kmh S 20.0 mph32.2 kmh 29.21 in989.2 mb 0.00 in0.0 mm 0.00 in0.0 mm 0.00 in0.0 mm
02:29 AM 57.5°F14.2°C 52.7°F11.5°C 84% 10.8 mph SSE17.4 kmh SSE 19.0 mph30.6 kmh 29.21 in989.2 mb 0.00 in0.0 mm 0.00 in0.0 mm 0.00 in0.0 mm
02:30 AM 57.5°F14.2°C 52.7°F11.5°C 84% 13.0 mph S20.9 kmh S 19.0 mph30.6 kmh 29.21 in989.2 mb 0.00 in0.0 mm 0.00 in0.0 mm 0.00 in0.0 mm
02:31 AM 57.5°F14.2°C 52.7°F11.5°C 84% 14.5 mph SSE23.3 kmh SSE 23.0 mph37.0 kmh 29.21 in989.2 mb 0.00 in0.0 mm 0.00 in0.0 mm 0.00 in0.0 mm
02:32 AM 57.5°F14.2°C 52.7°F11.5°C 84% 13.7 mph SSE22.0 kmh SSE 23.0 mph37.0 kmh 29.21 in989.2 mb 0.00 in0.0 mm 0.00 in0.0 mm 0.00 in0.0 mm
02:33 AM 57.5°F14.2°C 52.7°F11.5°C 84% 13.1 mph S21.1 kmh S 22.0 mph35.4 kmh 29.21 in989.2 mb 0.00 in0.0 mm 0.00 in0.0 mm 0.00 in0.0 mm
02:34 AM 57.5°F14.2°C 52.7°F11.5°C 84% 13.6 mph SSE21.9 kmh SSE 23.0 mph37.0 kmh 29.21 in989.2 mb 0.00 in0.0 mm 0.00 in0.0 mm 0.00 in0.0 mm
02:35 AM 57.6°F14.2°C 52.8°F11.6°C 84% 14.9 mph SSE24.0 kmh SSE 25.0 mph40.2 kmh 29.21 in989.2 mb 0.00 in0.0 mm 0.00 in0.0 mm 0.00 in0.0 mm
02:36 AM 57.5°F14.2°C 52.4°F11.3°C 83% 16.8 mph SSE27.0 kmh SSE 25.0 mph40.2 kmh 29.20 in988.8 mb 0.00 in0.0 mm 0.00 in0.0 mm 0.00 in0.0 mm
02:37 AM 57.5°F14.2°C 52.4°F11.3°C 83% 11.2 mph SSE18.0 kmh SSE 23.0 mph37.0 kmh 29.21 in989.2 mb 0.00 in0.0 mm 0.00 in0.0 mm 0.00 in0.0 mm
02:38 AM 57.6°F14.2°C 52.8°F11.6°C 84% 12.6 mph SSE20.3 kmh SSE 22.0 mph35.4 kmh 29.21 in989.2 mb 0.00 in0.0 mm 0.00 in0.0 mm 0.00 in0.0 mm
02:39 AM 57.6°F14.2°C 52.8°F11.6°C 84% 14.2 mph SSE22.9 kmh SSE 23.0 mph37.0 kmh 29.21 in989.2 mb 0.00 in0.0 mm 0.00 in0.0 mm 0.00 in0.0 mm
02:40 AM 57.5°F14.2°C 52.7°F11.5°C 84% 9.9 mph SE15.9 kmh SE 23.0 mph37.0 kmh 29.21 in989.2 mb 0.00 in0.0 mm 0.00 in0.0 mm 0.00 in0.0 mm
02:41 AM 57.5°F14.2°C 52.7°F11.5°C 84% 11.3 mph SSE18.2 kmh SSE 14.0 mph22.5 kmh 29.21 in989.2 mb 0.00 in0.0 mm 0.00 in0.0 mm 0.00 in0.0 mm
02:42 AM 57.5°F14.2°C 52.4°F11.3°C 83% 12.6 mph SSE20.3 kmh SSE 18.0 mph29.0 kmh 29.21 in989.2 mb 0.00 in0.0 mm 0.00 in0.0 mm 0.00 in0.0 mm
02:43 AM 57.6°F14.2°C 52.5°F11.4°C 83% 14.3 mph SSE23.0 kmh SSE 22.0 mph35.4 kmh 29.21 in989.2 mb 0.00 in0.0 mm 0.00 in0.0 mm 0.00 in0.0 mm
02:44 AM 57.6°F14.2°C 52.8°F11.6°C 84% 10.7 mph S17.2 kmh S 22.0 mph35.4 kmh 29.20 in988.8 mb 0.00 in0.0 mm 0.00 in0.0 mm 0.00 in0.0 mm
02:45 AM 57.6°F14.2°C 52.5°F11.4°C 83% 13.0 mph SSE20.9 kmh SSE 21.0 mph33.8 kmh 29.20 in988.8 mb 0.00 in0.0 mm 0.00 in0.0 mm 0.00 in0.0 mm
02:46 AM 57.6°F14.2°C 52.5°F11.4°C 83% 16.3 mph SSE26.2 kmh SSE 23.0 mph37.0 kmh 29.20 in988.8 mb 0.00 in0.0 mm 0.00 in0.0 mm 0.00 in0.0 mm
02:47 AM 57.6°F14.2°C 52.5°F11.4°C 83% 12.4 mph SSE20.0 kmh SSE 23.0 mph37.0 kmh 29.20 in988.8 mb 0.00 in0.0 mm 0.00 in0.0 mm 0.00 in0.0 mm
02:48 AM 57.6°F14.2°C 52.8°F11.6°C 84% 12.0 mph SSE19.3 kmh SSE 22.0 mph35.4 kmh 29.20 in988.8 mb 0.00 in0.0 mm 0.00 in0.0 mm 0.00 in0.0 mm
02:49 AM 57.5°F14.2°C 52.4°F11.3°C 83% 9.4 mph SSE15.1 kmh SSE 22.0 mph35.4 kmh 29.20 in988.8 mb 0.00 in0.0 mm 0.00 in0.0 mm 0.00 in0.0 mm
02:50 AM 57.5°F14.2°C 52.4°F11.3°C 83% 11.4 mph SE18.3 kmh SE 18.0 mph29.0 kmh 29.20 in988.8 mb 0.00 in0.0 mm 0.00 in0.0 mm 0.00 in0.0 mm
02:51 AM 57.5°F14.2°C 52.4°F11.3°C 83% 13.5 mph SSE21.7 kmh SSE 20.0 mph32.2 kmh 29.20 in988.8 mb 0.00 in0.0 mm 0.00 in0.0 mm 0.00 in0.0 mm
02:52 AM 57.5°F14.2°C 52.4°F11.3°C 83% 14.0 mph SSE22.5 kmh SSE 21.0 mph33.8 kmh 29.20 in988.8 mb 0.00 in0.0 mm 0.00 in0.0 mm 0.00 in0.0 mm
02:53 AM 57.6°F14.2°C 52.5°F11.4°C 83% 14.4 mph SSE23.2 kmh SSE 21.0 mph33.8 kmh 29.20 in988.8 mb 0.00 in0.0 mm 0.00 in0.0 mm 0.00 in0.0 mm
02:54 AM 57.5°F14.2°C 52.4°F11.3°C 83% 10.2 mph SSE16.4 kmh SSE 19.0 mph30.6 kmh 29.20 in988.8 mb 0.00 in0.0 mm 0.00 in0.0 mm 0.00 in0.0 mm
02:55 AM 57.5°F14.2°C 52.4°F11.3°C 83% 12.5 mph SSE20.1 kmh SSE 18.0 mph29.0 kmh 29.20 in988.8 mb 0.00 in0.0 mm 0.00 in0.0 mm 0.00 in0.0 mm
02:56 AM 57.5°F14.2°C 52.4°F11.3°C 83% 12.2 mph SSE19.6 kmh SSE 18.0 mph29.0 kmh 29.20 in988.8 mb 0.00 in0.0 mm 0.00 in0.0 mm 0.00 in0.0 mm
02:57 AM 57.5°F14.2°C 52.4°F11.3°C 83% 12.5 mph SSE20.1 kmh SSE 18.0 mph29.0 kmh 29.20 in988.8 mb 0.00 in0.0 mm 0.00 in0.0 mm 0.00 in0.0 mm
02:58 AM 57.5°F14.2°C 52.4°F11.3°C 83% 16.5 mph SSE26.6 kmh SSE 22.0 mph35.4 kmh 29.20 in988.8 mb 0.00 in0.0 mm 0.00 in0.0 mm 0.00 in0.0 mm
02:59 AM 57.5°F14.2°C 52.4°F11.3°C 83% 14.3 mph SSE23.0 kmh SSE 22.0 mph35.4 kmh 29.20 in988.8 mb 0.00 in0.0 mm 0.00 in0.0 mm 0.00 in0.0 mm
03:00 AM 57.5°F14.2°C 52.4°F11.3°C 83% 13.5 mph SSE21.7 kmh SSE 21.0 mph33.8 kmh 29.20 in988.8 mb 0.00 in0.0 mm 0.00 in0.0 mm 0.00 in0.0 mm
03:01 AM 57.5°F14.2°C 52.4°F11.3°C 83% 11.8 mph SSE19.0 kmh SSE 21.0 mph33.8 kmh 29.20 in988.8 mb 0.00 in0.0 mm 0.00 in0.0 mm 0.00 in0.0 mm
03:02 AM 57.5°F14.2°C 52.4°F11.3°C 83% 14.6 mph SSE23.5 kmh SSE 22.0 mph35.4 kmh 29.20 in988.8 mb 0.00 in0.0 mm 0.00 in0.0 mm 0.00 in0.0 mm
03:03 AM 57.5°F14.2°C 52.4°F11.3°C 83% 10.7 mph SE17.2 kmh SE 22.0 mph35.4 kmh 29.20 in988.8 mb 0.00 in0.0 mm 0.00 in0.0 mm 0.00 in0.0 mm
03:04 AM 57.5°F14.2°C 52.4°F11.3°C 83% 14.6 mph SSE23.5 kmh SSE 21.0 mph33.8 kmh 29.19 in988.5 mb 0.00 in0.0 mm 0.00 in0.0 mm 0.00 in0.0 mm
03:05 AM 57.5°F14.2°C 52.4°F11.3°C 83% 14.5 mph SE23.3 kmh SE 21.0 mph33.8 kmh 29.19 in988.5 mb 0.00 in0.0 mm 0.00 in0.0 mm 0.00 in0.0 mm
03:06 AM 57.4°F14.1°C 52.3°F11.3°C 83% 16.5 mph SE26.6 kmh SE 22.0 mph35.4 kmh 29.19 in988.5 mb 0.00 in0.0 mm 0.00 in0.0 mm 0.00 in0.0 mm
03:07 AM 57.4°F14.1°C 52.3°F11.3°C 83% 13.5 mph SSE21.7 kmh SSE 22.0 mph35.4 kmh 29.19 in988.5 mb 0.00 in0.0 mm 0.00 in0.0 mm 0.00 in0.0 mm
03:08 AM 57.4°F14.1°C 52.3°F11.3°C 83% 14.3 mph SSE23.0 kmh SSE 20.0 mph32.2 kmh 29.19 in988.5 mb 0.00 in0.0 mm 0.00 in0.0 mm 0.00 in0.0 mm
03:09 AM 57.4°F14.1°C 52.3°F11.3°C 83% 13.4 mph SSE21.6 kmh SSE 20.0 mph32.2 kmh 29.19 in988.5 mb 0.00 in0.0 mm 0.00 in0.0 mm 0.00 in0.0 mm
03:10 AM 57.3°F14.1°C 52.2°F11.2°C 83% 11.5 mph SSE18.5 kmh SSE 17.0 mph27.4 kmh 29.20 in988.8 mb 0.00 in0.0 mm 0.00 in0.0 mm 0.00 in0.0 mm
03:11 AM 57.3°F14.1°C 52.2°F11.2°C 83% 11.7 mph SSE18.8 kmh SSE 18.0 mph29.0 kmh 29.20 in988.8 mb 0.00 in0.0 mm 0.00 in0.0 mm 0.00 in0.0 mm
03:12 AM 57.3°F14.1°C 52.2°F11.2°C 83% 11.6 mph SSE18.7 kmh SSE 18.0 mph29.0 kmh 29.19 in988.5 mb 0.00 in0.0 mm 0.00 in0.0 mm 0.00 in0.0 mm
03:13 AM 57.3°F14.1°C 52.5°F11.4°C 84% 12.3 mph SSE19.8 kmh SSE 21.0 mph33.8 kmh 29.19 in988.5 mb 0.00 in0.0 mm 0.00 in0.0 mm 0.00 in0.0 mm
03:14 AM 57.2°F14.0°C 52.1°F11.2°C 83% 12.4 mph SE20.0 kmh SE 21.0 mph33.8 kmh 29.19 in988.5 mb 0.00 in0.0 mm 0.00 in0.0 mm 0.00 in0.0 mm
03:15 AM 57.3°F14.1°C 52.2°F11.2°C 83% 11.6 mph SSE18.7 kmh SSE 20.0 mph32.2 kmh 29.19 in988.5 mb 0.00 in0.0 mm 0.00 in0.0 mm 0.00 in0.0 mm
03:16 AM 57.3°F14.1°C 52.5°F11.4°C 84% 12.9 mph SSE20.8 kmh SSE 20.0 mph32.2 kmh 29.19 in988.5 mb 0.00 in0.0 mm 0.00 in0.0 mm 0.00 in0.0 mm
03:17 AM 57.2°F14.0°C 52.1°F11.2°C 83% 12.0 mph SE19.3 kmh SE 19.0 mph30.6 kmh 29.19 in988.5 mb 0.00 in0.0 mm 0.00 in0.0 mm 0.00 in0.0 mm
03:18 AM 57.3°F14.1°C 52.2°F11.2°C 83% 7.5 mph SSE12.1 kmh SSE 18.0 mph29.0 kmh 29.19 in988.5 mb 0.00 in0.0 mm 0.00 in0.0 mm 0.00 in0.0 mm
03:19 AM 57.2°F14.0°C 52.1°F11.2°C 83% 9.5 mph SSE15.3 kmh SSE 14.0 mph22.5 kmh 29.19 in988.5 mb 0.00 in0.0 mm 0.00 in0.0 mm 0.00 in0.0 mm
03:20 AM 57.2°F14.0°C 52.4°F11.3°C 84% 7.3 mph SE11.7 kmh SE 14.0 mph22.5 kmh 29.19 in988.5 mb 0.00 in0.0 mm 0.00 in0.0 mm 0.00 in0.0 mm
03:21 AM 57.2°F14.0°C 52.4°F11.3°C 84% 8.4 mph SSE13.5 kmh SSE 16.0 mph25.7 kmh 29.19 in988.5 mb 0.00 in0.0 mm 0.00 in0.0 mm 0.00 in0.0 mm
03:22 AM 57.2°F14.0°C 52.4°F11.3°C 84% 11.6 mph SSE18.7 kmh SSE 17.0 mph27.4 kmh 29.19 in988.5 mb 0.00 in0.0 mm 0.00 in0.0 mm 0.00 in0.0 mm
03:23 AM 57.2°F14.0°C 52.4°F11.3°C 84% 10.7 mph SE17.2 kmh SE 17.0 mph27.4 kmh 29.19 in988.5 mb 0.00 in0.0 mm 0.00 in0.0 mm 0.00 in0.0 mm
03:24 AM 57.2°F14.0°C 52.4°F11.3°C 84% 10.8 mph SE17.4 kmh SE 20.0 mph32.2 kmh 29.19 in988.5 mb 0.00 in0.0 mm 0.00 in0.0 mm 0.00 in0.0 mm
03:25 AM 57.2°F14.0°C 52.1°F11.2°C 83% 14.6 mph SE23.5 kmh SE 21.0 mph33.8 kmh 29.19 in988.5 mb 0.00 in0.0 mm 0.00 in0.0 mm 0.00 in0.0 mm
03:26 AM 57.2°F14.0°C 52.4°F11.3°C 84% 13.4 mph SE21.6 kmh SE 21.0 mph33.8 kmh 29.19 in988.5 mb 0.00 in0.0 mm 0.00 in0.0 mm 0.00 in0.0 mm
03:27 AM 57.2°F14.0°C 52.1°F11.2°C 83% 15.5 mph SSE24.9 kmh SSE 22.0 mph35.4 kmh 29.19 in988.5 mb 0.00 in0.0 mm 0.00 in0.0 mm 0.00 in0.0 mm
03:28 AM 57.2°F14.0°C 52.1°F11.2°C 83% 13.0 mph SE20.9 kmh SE 24.0 mph38.6 kmh 29.19 in988.5 mb 0.00 in0.0 mm 0.00 in0.0 mm 0.00 in0.0 mm
03:29 AM 57.2°F14.0°C 52.1°F11.2°C 83% 12.6 mph SE20.3 kmh SE 24.0 mph38.6 kmh 29.19 in988.5 mb 0.00 in0.0 mm 0.00 in0.0 mm 0.00 in0.0 mm
03:30 AM 57.3°F14.1°C 52.2°F11.2°C 83% 14.6 mph SSE23.5 kmh SSE 21.0 mph33.8 kmh 29.18 in988.1 mb 0.00 in0.0 mm 0.00 in0.0 mm 0.00 in0.0 mm
03:31 AM 57.3°F14.1°C 52.2°F11.2°C 83% 12.6 mph SSE20.3 kmh SSE 21.0 mph33.8 kmh 29.18 in988.1 mb 0.00 in0.0 mm 0.00 in0.0 mm 0.00 in0.0 mm
03:32 AM 57.3°F14.1°C 52.2°F11.2°C 83% 9.6 mph SSE15.4 kmh SSE 18.0 mph29.0 kmh 29.18 in988.1 mb 0.00 in0.0 mm 0.00 in0.0 mm 0.00 in0.0 mm
03:33 AM 57.3°F14.1°C 52.2°F11.2°C 83% 9.9 mph SSE15.9 kmh SSE 17.0 mph27.4 kmh 29.18 in988.1 mb 0.00 in0.0 mm 0.00 in0.0 mm 0.00 in0.0 mm
03:34 AM 57.3°F14.1°C 52.2°F11.2°C 83% 13.1 mph SSE21.1 kmh SSE 18.0 mph29.0 kmh 29.18 in988.1 mb 0.00 in0.0 mm 0.00 in0.0 mm 0.00 in0.0 mm
03:35 AM 57.3°F14.1°C 52.2°F11.2°C 83% 11.3 mph SSE18.2 kmh SSE 20.0 mph32.2 kmh 29.18 in988.1 mb 0.00 in0.0 mm 0.00 in0.0 mm 0.00 in0.0 mm
03:36 AM 57.3°F14.1°C 52.2°F11.2°C 83% 13.8 mph SSE22.2 kmh SSE 22.0 mph35.4 kmh 29.18 in988.1 mb 0.00 in0.0 mm 0.00 in0.0 mm 0.00 in0.0 mm
03:37 AM 57.3°F14.1°C 52.2°F11.2°C 83% 15.0 mph SSE24.1 kmh SSE 22.0 mph35.4 kmh 29.18 in988.1 mb 0.00 in0.0 mm 0.00 in0.0 mm 0.00 in0.0 mm
03:38 AM 57.3°F14.1°C 52.2°F11.2°C 83% 10.1 mph SSE16.3 kmh SSE 22.0 mph35.4 kmh 29.18 in988.1 mb 0.00 in0.0 mm 0.00 in0.0 mm 0.00 in0.0 mm
03:39 AM 57.3°F14.1°C 52.2°F11.2°C 83% 9.9 mph SSE15.9 kmh SSE 17.0 mph27.4 kmh 29.18 in988.1 mb 0.00 in0.0 mm 0.00 in0.0 mm 0.00 in0.0 mm
03:40 AM 57.3°F14.1°C 52.2°F11.2°C 83% 11.3 mph SSE18.2 kmh SSE 18.0 mph29.0 kmh 29.18 in988.1 mb 0.00 in0.0 mm 0.00 in0.0 mm 0.00 in0.0 mm
03:41 AM 57.3°F14.1°C 52.2°F11.2°C 83% 10.7 mph S17.2 kmh S 18.0 mph29.0 kmh 29.18 in988.1 mb 0.00 in0.0 mm 0.00 in0.0 mm 0.00 in0.0 mm
03:42 AM 57.3°F14.1°C 52.2°F11.2°C 83% 12.1 mph SE19.5 kmh SE 21.0 mph33.8 kmh 29.18 in988.1 mb 0.00 in0.0 mm 0.00 in0.0 mm 0.00 in0.0 mm
03:43 AM 57.3°F14.1°C 52.2°F11.2°C 83% 14.7 mph SSE23.7 kmh SSE 22.0 mph35.4 kmh 29.18 in988.1 mb 0.00 in0.0 mm 0.00 in0.0 mm 0.00 in0.0 mm
03:44 AM 57.3°F14.1°C 52.2°F11.2°C 83% 13.5 mph SSE21.7 kmh SSE 22.0 mph35.4 kmh 29.18 in988.1 mb 0.00 in0.0 mm 0.00 in0.0 mm 0.00 in0.0 mm
03:45 AM 57.4°F14.1°C 52.3°F11.3°C 83% 13.3 mph SSE21.4 kmh SSE 20.0 mph32.2 kmh 29.18 in988.1 mb 0.00 in0.0 mm 0.00 in0.0 mm 0.00 in0.0 mm
03:46 AM 57.4°F14.1°C 52.3°F11.3°C 83% 9.5 mph SSE15.3 kmh SSE 18.0 mph29.0 kmh 29.18 in988.1 mb 0.00 in0.0 mm 0.00 in0.0 mm 0.00 in0.0 mm
03:47 AM 57.4°F14.1°C 52.3°F11.3°C 83% 11.3 mph SSE18.2 kmh SSE 19.0 mph30.6 kmh 29.18 in988.1 mb 0.00 in0.0 mm 0.00 in0.0 mm 0.00 in0.0 mm
03:48 AM 57.4°F14.1°C 52.3°F11.3°C 83% 11.0 mph S17.7 kmh S 21.0 mph33.8 kmh 29.18 in988.1 mb 0.00 in0.0 mm 0.00 in0.0 mm 0.00 in0.0 mm
03:49 AM 57.4°F14.1°C 52.3°F11.3°C 83% 10.6 mph SSE17.1 kmh SSE 21.0 mph33.8 kmh 29.18 in988.1 mb 0.00 in0.0 mm 0.00 in0.0 mm 0.00 in0.0 mm
03:50 AM 57.5°F14.2°C 52.4°F11.3°C 83% 12.8 mph SSE20.6 kmh SSE 18.0 mph29.0 kmh 29.18 in988.1 mb 0.00 in0.0 mm 0.00 in0.0 mm 0.00 in0.0 mm
03:51 AM 57.4°F14.1°C 52.3°F11.3°C 83% 9.4 mph SSE15.1 kmh SSE 18.0 mph29.0 kmh 29.18 in988.1 mb 0.00 in0.0 mm 0.00 in0.0 mm 0.00 in0.0 mm
03:52 AM 57.4°F14.1°C 52.3°F11.3°C 83% 13.1 mph SSE21.1 kmh SSE 19.0 mph30.6 kmh 29.18 in988.1 mb 0.00 in0.0 mm 0.00 in0.0 mm 0.00 in0.0 mm
03:53 AM 57.5°F14.2°C 52.4°F11.3°C 83% 17.1 mph SSE27.5 kmh SSE 25.0 mph40.2 kmh 29.18 in988.1 mb 0.00 in0.0 mm 0.00 in0.0 mm 0.00 in0.0 mm
03:54 AM 57.5°F14.2°C 52.4°F11.3°C 83% 11.4 mph SSE18.3 kmh SSE 25.0 mph40.2 kmh 29.17 in987.8 mb 0.00 in0.0 mm 0.00 in0.0 mm 0.00 in0.0 mm
03:55 AM 57.4°F14.1°C 52.3°F11.3°C 83% 10.4 mph SSE16.7 kmh SSE 15.0 mph24.1 kmh 29.17 in987.8 mb 0.00 in0.0 mm 0.00 in0.0 mm 0.00 in0.0 mm
03:56 AM 57.4°F14.1°C 52.3°F11.3°C 83% 11.0 mph SSE17.7 kmh SSE 16.0 mph25.7 kmh 29.17 in987.8 mb 0.00 in0.0 mm 0.00 in0.0 mm 0.00 in0.0 mm
03:57 AM 57.4°F14.1°C 52.3°F11.3°C 83% 12.3 mph SSE19.8 kmh SSE 19.0 mph30.6 kmh 29.17 in987.8 mb 0.00 in0.0 mm 0.00 in0.0 mm 0.00 in0.0 mm
03:58 AM 57.5°F14.2°C 52.4°F11.3°C 83% 16.1 mph SSE25.9 kmh SSE 27.0 mph43.5 kmh 29.17 in987.8 mb 0.00 in0.0 mm 0.00 in0.0 mm 0.00 in0.0 mm
03:59 AM 57.5°F14.2°C 52.4°F11.3°C 83% 15.8 mph SSE25.4 kmh SSE 27.0 mph43.5 kmh 29.17 in987.8 mb 0.00 in0.0 mm 0.00 in0.0 mm 0.00 in0.0 mm
04:00 AM 57.5°F14.2°C 52.4°F11.3°C 83% 10.7 mph S17.2 kmh S 20.0 mph32.2 kmh 29.17 in987.8 mb 0.00 in0.0 mm 0.00 in0.0 mm 0.00 in0.0 mm
04:01 AM 57.5°F14.2°C 52.4°F11.3°C 83% 10.5 mph S16.9 kmh S 17.0 mph27.4 kmh 29.17 in987.8 mb 0.00 in0.0 mm 0.00 in0.0 mm 0.00 in0.0 mm
04:02 AM 57.5°F14.2°C 52.4°F11.3°C 83% 11.9 mph SSE19.2 kmh SSE 19.0 mph30.6 kmh 29.17 in987.8 mb 0.00 in0.0 mm 0.00 in0.0 mm 0.00 in0.0 mm
04:03 AM 57.5°F14.2°C 52.4°F11.3°C 83% 17.2 mph SSE27.7 kmh SSE 23.0 mph37.0 kmh 29.17 in987.8 mb 0.00 in0.0 mm 0.00 in0.0 mm 0.00 in0.0 mm
04:04 AM 57.5°F14.2°C 52.4°F11.3°C 83% 13.0 mph SSE20.9 kmh SSE 23.0 mph37.0 kmh 29.17 in987.8 mb 0.00 in0.0 mm 0.00 in0.0 mm 0.00 in0.0 mm
04:05 AM 57.5°F14.2°C 52.4°F11.3°C 83% 13.4 mph SSE21.6 kmh SSE 19.0 mph30.6 kmh 29.17 in987.8 mb 0.00 in0.0 mm 0.00 in0.0 mm 0.00 in0.0 mm
04:06 AM 57.5°F14.2°C 52.4°F11.3°C 83% 10.5 mph SSE16.9 kmh SSE 17.0 mph27.4 kmh 29.17 in987.8 mb 0.00 in0.0 mm 0.00 in0.0 mm 0.00 in0.0 mm
04:07 AM 57.5°F14.2°C 52.4°F11.3°C 83% 13.1 mph SE21.1 kmh SE 18.0 mph29.0 kmh 29.17 in987.8 mb 0.00 in0.0 mm 0.00 in0.0 mm 0.00 in0.0 mm
04:08 AM 57.4°F14.1°C 52.3°F11.3°C 83% 11.8 mph SSE19.0 kmh SSE 18.0 mph29.0 kmh 29.17 in987.8 mb 0.00 in0.0 mm 0.00 in0.0 mm 0.00 in0.0 mm
04:09 AM 57.4°F14.1°C 52.3°F11.3°C 83% 12.3 mph SSE19.8 kmh SSE 20.0 mph32.2 kmh 29.17 in987.8 mb 0.00 in0.0 mm 0.00 in0.0 mm 0.00 in0.0 mm
04:10 AM 57.4°F14.1°C 52.3°F11.3°C 83% 15.3 mph SE24.6 kmh SE 24.0 mph38.6 kmh 29.17 in987.8 mb 0.00 in0.0 mm 0.00 in0.0 mm 0.00 in0.0 mm
04:11 AM 57.4°F14.1°C 52.6°F11.4°C 84% 15.2 mph SSE24.5 kmh SSE 24.0 mph38.6 kmh 29.17 in987.8 mb 0.00 in0.0 mm 0.00 in0.0 mm 0.00 in0.0 mm
04:12 AM 57.4°F14.1°C 52.3°F11.3°C 83% 12.5 mph SSE20.1 kmh SSE 24.0 mph38.6 kmh 29.17 in987.8 mb 0.00 in0.0 mm 0.00 in0.0 mm 0.00 in0.0 mm
04:13 AM 57.4°F14.1°C 52.3°F11.3°C 83% 8.6 mph SSE13.8 kmh SSE 17.0 mph27.4 kmh 29.17 in987.8 mb 0.00 in0.0 mm 0.00 in0.0 mm 0.00 in0.0 mm
04:14 AM 57.4°F14.1°C 52.3°F11.3°C 83% 13.2 mph S21.2 kmh S 22.0 mph35.4 kmh 29.17 in987.8 mb 0.00 in0.0 mm 0.00 in0.0 mm 0.00 in0.0 mm
04:15 AM 57.4°F14.1°C 52.3°F11.3°C 83% 13.8 mph SSE22.2 kmh SSE 22.0 mph35.4 kmh 29.17 in987.8 mb 0.00 in0.0 mm 0.00 in0.0 mm 0.00 in0.0 mm
04:16 AM 57.4°F14.1°C 52.3°F11.3°C 83% 15.5 mph SE24.9 kmh SE 20.0 mph32.2 kmh 29.17 in987.8 mb 0.00 in0.0 mm 0.00 in0.0 mm 0.00 in0.0 mm
04:17 AM 57.4°F14.1°C 52.3°F11.3°C 83% 12.8 mph SSE20.6 kmh SSE 20.0 mph32.2 kmh 29.16 in987.5 mb 0.00 in0.0 mm 0.00 in0.0 mm 0.00 in0.0 mm
04:18 AM 57.4°F14.1°C 52.6°F11.4°C 84% 12.1 mph SSE19.5 kmh SSE 20.0 mph32.2 kmh 29.17 in987.8 mb 0.00 in0.0 mm 0.00 in0.0 mm 0.00 in0.0 mm
04:19 AM 57.3°F14.1°C 52.2°F11.2°C 83% 16.0 mph SSE25.7 kmh SSE 20.0 mph32.2 kmh 29.17 in987.8 mb 0.00 in0.0 mm 0.00 in0.0 mm 0.00 in0.0 mm
04:20 AM 57.3°F14.1°C 52.2°F11.2°C 83% 11.0 mph S17.7 kmh S 20.0 mph32.2 kmh 29.17 in987.8 mb 0.00 in0.0 mm 0.00 in0.0 mm 0.00 in0.0 mm
04:21 AM 57.4°F14.1°C 52.6°F11.4°C 84% 13.2 mph SE21.2 kmh SE 20.0 mph32.2 kmh 29.17 in987.8 mb 0.00 in0.0 mm 0.00 in0.0 mm 0.00 in0.0 mm
04:22 AM 57.3°F14.1°C 52.5°F11.4°C 84% 12.3 mph S19.8 kmh S 20.0 mph32.2 kmh 29.16 in987.5 mb 0.00 in0.0 mm 0.00 in0.0 mm 0.00 in0.0 mm
04:23 AM 57.3°F14.1°C 52.5°F11.4°C 84% 11.5 mph SSE18.5 kmh SSE 17.0 mph27.4 kmh 29.16 in987.5 mb 0.00 in0.0 mm 0.00 in0.0 mm 0.00 in0.0 mm
04:24 AM 57.3°F14.1°C 52.5°F11.4°C 84% 15.6 mph SSE25.1 kmh SSE 24.0 mph38.6 kmh 29.16 in987.5 mb 0.00 in0.0 mm 0.00 in0.0 mm 0.00 in0.0 mm
04:25 AM 57.3°F14.1°C 52.5°F11.4°C 84% 13.0 mph SSE20.9 kmh SSE 24.0 mph38.6 kmh 29.17 in987.8 mb 0.00 in0.0 mm 0.00 in0.0 mm 0.00 in0.0 mm
04:26 AM 57.3°F14.1°C 52.5°F11.4°C 84% 10.7 mph S17.2 kmh S 20.0 mph32.2 kmh 29.16 in987.5 mb 0.00 in0.0 mm 0.00 in0.0 mm 0.00 in0.0 mm
04:27 AM 57.3°F14.1°C 52.5°F11.4°C 84% 13.4 mph SSE21.6 kmh SSE 27.0 mph43.5 kmh 29.16 in987.5 mb 0.00 in0.0 mm 0.00 in0.0 mm 0.00 in0.0 mm
04:28 AM 57.3°F14.1°C 52.5°F11.4°C 84% 14.9 mph SSE24.0 kmh SSE 27.0 mph43.5 kmh 29.16 in987.5 mb 0.00 in0.0 mm 0.00 in0.0 mm 0.00 in0.0 mm
04:29 AM 57.3°F14.1°C 52.8°F11.6°C 85% 9.9 mph S15.9 kmh S 22.0 mph35.4 kmh 29.16 in987.5 mb 0.00 in0.0 mm 0.00 in0.0 mm 0.00 in0.0 mm
04:30 AM 57.2°F14.0°C 52.7°F11.5°C 85% 12.5 mph SSE20.1 kmh SSE 18.0 mph29.0 kmh 29.16 in987.5 mb 0.00 in0.0 mm 0.00 in0.0 mm 0.00 in0.0 mm
04:31 AM 57.1°F13.9°C 52.6°F11.4°C 85% 11.6 mph SSE18.7 kmh SSE 20.0 mph32.2 kmh 29.16 in987.5 mb 0.00 in0.0 mm 0.00 in0.0 mm 0.00 in0.0 mm
04:32 AM 57.1°F13.9°C 52.3°F11.3°C 84% 14.2 mph SSE22.9 kmh SSE 21.0 mph33.8 kmh 29.16 in987.5 mb 0.00 in0.0 mm 0.00 in0.0 mm 0.00 in0.0 mm
04:33 AM 57.1°F13.9°C 52.3°F11.3°C 84% 14.8 mph SSE23.8 kmh SSE 22.0 mph35.4 kmh 29.16 in987.5 mb 0.00 in0.0 mm 0.00 in0.0 mm 0.00 in0.0 mm
04:34 AM 57.1°F13.9°C 52.3°F11.3°C 84% 15.6 mph SSE25.1 kmh SSE 22.0 mph35.4 kmh 29.16 in987.5 mb 0.00 in0.0 mm 0.00 in0.0 mm 0.00 in0.0 mm
04:35 AM 57.1°F13.9°C 52.6°F11.4°C 85% 17.8 mph SSE28.6 kmh SSE 24.0 mph38.6 kmh 29.16 in987.5 mb 0.00 in0.0 mm 0.00 in0.0 mm 0.00 in0.0 mm
04:36 AM 57.1°F13.9°C 52.6°F11.4°C 85% 12.7 mph SSE20.4 kmh SSE 24.0 mph38.6 kmh 29.16 in987.5 mb 0.00 in0.0 mm 0.00 in0.0 mm 0.00 in0.0 mm
04:37 AM 57.1°F13.9°C 52.6°F11.4°C 85% 11.8 mph SSE19.0 kmh SSE 24.0 mph38.6 kmh 29.16 in987.5 mb 0.00 in0.0 mm 0.00 in0.0 mm 0.00 in0.0 mm
04:38 AM 57.1°F13.9°C 52.6°F11.4°C 85% 15.6 mph SSE25.1 kmh SSE 24.0 mph38.6 kmh 29.16 in987.5 mb 0.00 in0.0 mm 0.00 in0.0 mm 0.00 in0.0 mm
04:39 AM 57.0°F13.9°C 52.5°F11.4°C 85% 14.6 mph SSE23.5 kmh SSE 24.0 mph38.6 kmh 29.16 in987.5 mb 0.00 in0.0 mm 0.00 in0.0 mm 0.00 in0.0 mm
04:40 AM 57.0°F13.9°C 52.5°F11.4°C 85% 12.4 mph SSE20.0 kmh SSE 24.0 mph38.6 kmh 29.16 in987.5 mb 0.00 in0.0 mm 0.00 in0.0 mm 0.00 in0.0 mm
04:41 AM 57.0°F13.9°C 52.5°F11.4°C 85% 14.9 mph SSE24.0 kmh SSE 23.0 mph37.0 kmh 29.16 in987.5 mb 0.00 in0.0 mm 0.00 in0.0 mm 0.00 in0.0 mm
04:42 AM 57.1°F13.9°C 52.6°F11.4°C 85% 11.7 mph S18.8 kmh S 23.0 mph37.0 kmh 29.16 in987.5 mb 0.00 in0.0 mm 0.00 in0.0 mm 0.00 in0.0 mm
04:43 AM 57.1°F13.9°C 52.6°F11.4°C 85% 16.6 mph SSE26.7 kmh SSE 25.0 mph40.2 kmh 29.16 in987.5 mb 0.00 in0.0 mm 0.00 in0.0 mm 0.00 in0.0 mm
04:44 AM 57.0°F13.9°C 52.5°F11.4°C 85% 12.0 mph SSE19.3 kmh SSE 25.0 mph40.2 kmh 29.16 in987.5 mb 0.00 in0.0 mm 0.00 in0.0 mm 0.00 in0.0 mm
04:45 AM 57.0°F13.9°C 52.5°F11.4°C 85% 13.0 mph SSE20.9 kmh SSE 21.0 mph33.8 kmh 29.16 in987.5 mb 0.00 in0.0 mm 0.00 in0.0 mm 0.00 in0.0 mm
04:46 AM 57.0°F13.9°C 52.5°F11.4°C 85% 14.5 mph SSE23.3 kmh SSE 24.0 mph38.6 kmh 29.16 in987.5 mb 0.00 in0.0 mm 0.00 in0.0 mm 0.00 in0.0 mm
04:47 AM 57.0°F13.9°C 52.5°F11.4°C 85% 12.8 mph SSE20.6 kmh SSE 24.0 mph38.6 kmh 29.16 in987.5 mb 0.00 in0.0 mm 0.00 in0.0 mm 0.00 in0.0 mm
04:48 AM 57.0°F13.9°C 52.5°F11.4°C 85% 14.1 mph SSE22.7 kmh SSE 19.0 mph30.6 kmh 29.16 in987.5 mb 0.00 in0.0 mm 0.00 in0.0 mm 0.00 in0.0 mm
04:49 AM 56.9°F13.8°C 52.4°F11.3°C 85% 16.4 mph SSE26.4 kmh SSE 26.0 mph41.8 kmh 29.16 in987.5 mb 0.00 in0.0 mm 0.00 in0.0 mm 0.00 in0.0 mm
04:50 AM 56.9°F13.8°C 52.8°F11.6°C 86% 12.2 mph SSE19.6 kmh SSE 26.0 mph41.8 kmh 29.16 in987.5 mb 0.00 in0.0 mm 0.00 in0.0 mm 0.00 in0.0 mm
04:51 AM 56.9°F13.8°C 52.8°F11.6°C 86% 10.5 mph S16.9 kmh S 22.0 mph35.4 kmh 29.16 in987.5 mb 0.00 in0.0 mm 0.00 in0.0 mm 0.00 in0.0 mm
04:52 AM 56.9°F13.8°C 52.8°F11.6°C 86% 15.9 mph SSE25.6 kmh SSE 23.0 mph37.0 kmh 29.16 in987.5 mb 0.00 in0.0 mm 0.00 in0.0 mm 0.00 in0.0 mm
04:53 AM 56.8°F13.8°C 52.7°F11.5°C 86% 16.5 mph SSE26.6 kmh SSE 26.0 mph41.8 kmh 29.15 in987.1 mb 0.00 in0.0 mm 0.00 in0.0 mm 0.00 in0.0 mm
04:54 AM 56.7°F13.7°C 52.6°F11.4°C 86% 14.7 mph SSE23.7 kmh SSE 26.0 mph41.8 kmh 29.16 in987.5 mb 0.00 in0.0 mm 0.00 in0.0 mm 0.00 in0.0 mm
04:55 AM 56.8°F13.8°C 52.7°F11.5°C 86% 14.5 mph SSE23.3 kmh SSE 21.0 mph33.8 kmh 29.16 in987.5 mb 0.00 in0.0 mm 0.00 in0.0 mm 0.00 in0.0 mm
04:56 AM 56.8°F13.8°C 52.7°F11.5°C 86% 16.9 mph SSE27.2 kmh SSE 26.0 mph41.8 kmh 29.16 in987.5 mb 0.00 in0.0 mm 0.00 in0.0 mm 0.00 in0.0 mm
04:57 AM 56.7°F13.7°C 52.6°F11.4°C 86% 16.3 mph SSE26.2 kmh SSE 26.0 mph41.8 kmh 29.15 in987.1 mb 0.01 in0.3 mm 0.60 in15.2 mm 0.01 in0.3 mm
04:58 AM 56.7°F13.7°C 52.6°F11.4°C 86% 11.9 mph SSE19.2 kmh SSE 21.0 mph33.8 kmh 29.15 in987.1 mb 0.01 in0.3 mm 0.00 in0.0 mm 0.01 in0.3 mm
04:59 AM 56.7°F13.7°C 52.6°F11.4°C 86% 14.9 mph SSE24.0 kmh SSE 25.0 mph40.2 kmh 29.16 in987.5 mb 0.01 in0.3 mm 0.00 in0.0 mm 0.01 in0.3 mm
05:00 AM 56.7°F13.7°C 52.6°F11.4°C 86% 11.9 mph SSE19.2 kmh SSE 25.0 mph40.2 kmh 29.15 in987.1 mb 0.01 in0.3 mm 0.00 in0.0 mm 0.01 in0.3 mm
05:01 AM 56.6°F13.7°C 52.5°F11.4°C 86% 12.2 mph SSE19.6 kmh SSE 21.0 mph33.8 kmh 29.16 in987.5 mb 0.01 in0.3 mm 0.00 in0.0 mm 0.01 in0.3 mm
05:02 AM 56.6°F13.7°C 52.5°F11.4°C 86% 9.5 mph SSE15.3 kmh SSE 21.0 mph33.8 kmh 29.16 in987.5 mb 0.01 in0.3 mm 0.00 in0.0 mm 0.01 in0.3 mm
05:03 AM 56.6°F13.7°C 52.8°F11.6°C 87% 14.4 mph S23.2 kmh S 20.0 mph32.2 kmh 29.16 in987.5 mb 0.01 in0.3 mm 0.00 in0.0 mm 0.01 in0.3 mm
05:04 AM 56.6°F13.7°C 52.5°F11.4°C 86% 15.3 mph SSE24.6 kmh SSE 24.0 mph38.6 kmh 29.16 in987.5 mb 0.01 in0.3 mm 0.00 in0.0 mm 0.01 in0.3 mm
05:05 AM 56.5°F13.6°C 52.7°F11.5°C 87% 11.7 mph SSE18.8 kmh SSE 24.0 mph38.6 kmh 29.16 in987.5 mb 0.01 in0.3 mm 0.00 in0.0 mm 0.01 in0.3 mm
05:06 AM 56.5°F13.6°C 52.7°F11.5°C 87% 13.2 mph SSE21.2 kmh SSE 22.0 mph35.4 kmh 29.15 in987.1 mb 0.01 in0.3 mm 0.00 in0.0 mm 0.01 in0.3 mm
05:07 AM 56.5°F13.6°C 52.7°F11.5°C 87% 15.2 mph S24.5 kmh S 23.0 mph37.0 kmh 29.15 in987.1 mb 0.01 in0.3 mm 0.00 in0.0 mm 0.01 in0.3 mm
05:08 AM 56.4°F13.6°C 52.6°F11.4°C 87% 16.4 mph SSE26.4 kmh SSE 25.0 mph40.2 kmh 29.15 in987.1 mb 0.01 in0.3 mm 0.00 in0.0 mm 0.01 in0.3 mm
05:09 AM 56.4°F13.6°C 52.6°F11.4°C 87% 15.9 mph SSE25.6 kmh SSE 25.0 mph40.2 kmh 29.15 in987.1 mb 0.01 in0.3 mm 0.00 in0.0 mm 0.01 in0.3 mm
05:10 AM 56.3°F13.5°C 52.5°F11.4°C 87% 13.2 mph SSE21.2 kmh SSE 23.0 mph37.0 kmh 29.15 in987.1 mb 0.01 in0.3 mm 0.00 in0.0 mm 0.01 in0.3 mm
05:11 AM 56.3°F13.5°C 52.8°F11.6°C 88% 9.0 mph SSE14.5 kmh SSE 17.0 mph27.4 kmh 29.15 in987.1 mb 0.01 in0.3 mm 0.00 in0.0 mm 0.01 in0.3 mm
05:12 AM 56.3°F13.5°C 52.8°F11.6°C 88% 15.0 mph SSE24.1 kmh SSE 22.0 mph35.4 kmh 29.15 in987.1 mb 0.01 in0.3 mm 0.00 in0.0 mm 0.01 in0.3 mm
05:13 AM 56.2°F13.4°C 52.7°F11.5°C 88% 15.8 mph SSE25.4 kmh SSE 26.0 mph41.8 kmh 29.15 in987.1 mb 0.01 in0.3 mm 0.00 in0.0 mm 0.01 in0.3 mm
05:14 AM 56.2°F13.4°C 52.7°F11.5°C 88% 14.1 mph SSE22.7 kmh SSE 26.0 mph41.8 kmh 29.15 in987.1 mb 0.01 in0.3 mm 0.00 in0.0 mm 0.01 in0.3 mm
05:15 AM 56.1°F13.4°C 52.6°F11.4°C 88% 11.7 mph SSE18.8 kmh SSE 19.0 mph30.6 kmh 29.15 in987.1 mb 0.01 in0.3 mm 0.00 in0.0 mm 0.01 in0.3 mm
05:16 AM 56.1°F13.4°C 52.6°F11.4°C 88% 11.1 mph S17.9 kmh S 19.0 mph30.6 kmh 29.15 in987.1 mb 0.01 in0.3 mm 0.00 in0.0 mm 0.01 in0.3 mm
05:17 AM 56.1°F13.4°C 52.6°F11.4°C 88% 13.2 mph SSE21.2 kmh SSE 19.0 mph30.6 kmh 29.15 in987.1 mb 0.01 in0.3 mm 0.00 in0.0 mm 0.01 in0.3 mm
05:18 AM 56.0°F13.3°C 52.5°F11.4°C 88% 11.8 mph SSE19.0 kmh SSE 19.0 mph30.6 kmh 29.15 in987.1 mb 0.01 in0.3 mm 0.00 in0.0 mm 0.01 in0.3 mm
05:19 AM 56.0°F13.3°C 52.8°F11.6°C 89% 10.3 mph SSE16.6 kmh SSE 17.0 mph27.4 kmh 29.15 in987.1 mb 0.01 in0.3 mm 0.00 in0.0 mm 0.01 in0.3 mm
05:20 AM 56.0°F13.3°C 52.8°F11.6°C 89% 13.3 mph SSE21.4 kmh SSE 18.0 mph29.0 kmh 29.15 in987.1 mb 0.01 in0.3 mm 0.00 in0.0 mm 0.01 in0.3 mm
05:21 AM 56.0°F13.3°C 52.8°F11.6°C 89% 14.4 mph SSE23.2 kmh SSE 23.0 mph37.0 kmh 29.15 in987.1 mb 0.01 in0.3 mm 0.00 in0.0 mm 0.01 in0.3 mm
05:22 AM 56.0°F13.3°C 52.8°F11.6°C 89% 14.1 mph SSE22.7 kmh SSE 23.0 mph37.0 kmh 29.15 in987.1 mb 0.01 in0.3 mm 0.00 in0.0 mm 0.01 in0.3 mm
05:23 AM 55.9°F13.3°C 52.7°F11.5°C 89% 14.9 mph SSE24.0 kmh SSE 22.0 mph35.4 kmh 29.14 in986.8 mb 0.02 in0.5 mm 0.60 in15.2 mm 0.02 in0.5 mm
05:24 AM 55.9°F13.3°C 52.7°F11.5°C 89% 16.5 mph SSE26.6 kmh SSE 25.0 mph40.2 kmh 29.15 in987.1 mb 0.02 in0.5 mm 0.00 in0.0 mm 0.02 in0.5 mm
05:25 AM 55.9°F13.3°C 52.7°F11.5°C 89% 12.0 mph SSE19.3 kmh SSE 25.0 mph40.2 kmh 29.14 in986.8 mb 0.02 in0.5 mm 0.00 in0.0 mm 0.02 in0.5 mm
05:26 AM 55.9°F13.3°C 52.7°F11.5°C 89% 13.2 mph SSE21.2 kmh SSE 19.0 mph30.6 kmh 29.14 in986.8 mb 0.02 in0.5 mm 0.00 in0.0 mm 0.02 in0.5 mm
05:27 AM 55.8°F13.2°C 52.6°F11.4°C 89% 13.3 mph SSE21.4 kmh SSE 19.0 mph30.6 kmh 29.14 in986.8 mb 0.02 in0.5 mm 0.00 in0.0 mm 0.02 in0.5 mm
05:28 AM 55.8°F13.2°C 52.6°F11.4°C 89% 10.2 mph SSE16.4 kmh SSE 19.0 mph30.6 kmh 29.14 in986.8 mb 0.02 in0.5 mm 0.00 in0.0 mm 0.02 in0.5 mm
05:29 AM 55.7°F13.2°C 52.8°F11.6°C 90% 11.3 mph SSE18.2 kmh SSE 18.0 mph29.0 kmh 29.15 in987.1 mb 0.02 in0.5 mm 0.00 in0.0 mm 0.02 in0.5 mm
05:30 AM 55.7°F13.2°C 52.8°F11.6°C 90% 13.5 mph SSE21.7 kmh SSE 23.0 mph37.0 kmh 29.14 in986.8 mb 0.02 in0.5 mm 0.00 in0.0 mm 0.02 in0.5 mm
05:31 AM 55.7°F13.2°C 52.8°F11.6°C 90% 11.0 mph SSE17.7 kmh SSE 23.0 mph37.0 kmh 29.14 in986.8 mb 0.02 in0.5 mm 0.00 in0.0 mm 0.02 in0.5 mm
05:32 AM 55.7°F13.2°C 52.8°F11.6°C 90% 15.3 mph SSE24.6 kmh SSE 20.0 mph32.2 kmh 29.14 in986.8 mb 0.02 in0.5 mm 0.00 in0.0 mm 0.02 in0.5 mm
05:33 AM 55.7°F13.2°C 52.8°F11.6°C 90% 14.5 mph SSE23.3 kmh SSE 24.0 mph38.6 kmh 29.14 in986.8 mb 0.02 in0.5 mm 0.00 in0.0 mm 0.02 in0.5 mm
05:34 AM 55.7°F13.2°C 52.8°F11.6°C 90% 15.2 mph SSE24.5 kmh SSE 24.0 mph38.6 kmh 29.15 in987.1 mb 0.02 in0.5 mm 0.00 in0.0 mm 0.02 in0.5 mm
05:35 AM 55.7°F13.2°C 52.8°F11.6°C 90% 13.2 mph SSE21.2 kmh SSE 20.0 mph32.2 kmh 29.14 in986.8 mb 0.02 in0.5 mm 0.00 in0.0 mm 0.02 in0.5 mm
05:36 AM 55.7°F13.2°C 52.8°F11.6°C 90% 13.0 mph SSE20.9 kmh SSE 20.0 mph32.2 kmh 29.14 in986.8 mb 0.02 in0.5 mm 0.00 in0.0 mm 0.02 in0.5 mm
05:37 AM 55.7°F13.2°C 52.8°F11.6°C 90% 11.1 mph S17.9 kmh S 18.0 mph29.0 kmh 29.14 in986.8 mb 0.02 in0.5 mm 0.00 in0.0 mm 0.02 in0.5 mm
05:38 AM 55.6°F13.1°C 52.7°F11.5°C 90% 10.8 mph SSE17.4 kmh SSE 16.0 mph25.7 kmh 29.14 in986.8 mb 0.02 in0.5 mm 0.00 in0.0 mm 0.02 in0.5 mm
05:39 AM 55.6°F13.1°C 52.7°F11.5°C 90% 12.1 mph S19.5 kmh S 22.0 mph35.4 kmh 29.14 in986.8 mb 0.02 in0.5 mm 0.00 in0.0 mm 0.02 in0.5 mm
05:40 AM 55.6°F13.1°C 52.7°F11.5°C 90% 9.3 mph SSE15.0 kmh SSE 20.0 mph32.2 kmh 29.14 in986.8 mb 0.02 in0.5 mm 0.00 in0.0 mm 0.02 in0.5 mm
05:41 AM 55.5°F13.1°C 52.6°F11.4°C 90% 15.5 mph SE24.9 kmh SE 20.0 mph32.2 kmh 29.14 in986.8 mb 0.02 in0.5 mm 0.00 in0.0 mm 0.02 in0.5 mm
05:42 AM 55.6°F13.1°C 52.7°F11.5°C 90% 13.0 mph SE20.9 kmh SE 24.0 mph38.6 kmh 29.14 in986.8 mb 0.02 in0.5 mm 0.00 in0.0 mm 0.02 in0.5 mm
05:43 AM 55.5°F13.1°C 52.6°F11.4°C 90% 12.9 mph SE20.8 kmh SE 24.0 mph38.6 kmh 29.14 in986.8 mb 0.02 in0.5 mm 0.00 in0.0 mm 0.02 in0.5 mm
05:44 AM 55.5°F13.1°C 52.6°F11.4°C 90% 10.5 mph SSE16.9 kmh SSE 16.0 mph25.7 kmh 29.14 in986.8 mb 0.02 in0.5 mm 0.00 in0.0 mm 0.02 in0.5 mm
05:45 AM 55.5°F13.1°C 52.6°F11.4°C 90% 11.5 mph SSE18.5 kmh SSE 17.0 mph27.4 kmh 29.14 in986.8 mb 0.02 in0.5 mm 0.00 in0.0 mm 0.02 in0.5 mm
05:46 AM 55.4°F13.0°C 52.5°F11.4°C 90% 14.3 mph SSE23.0 kmh SSE 23.0 mph37.0 kmh 29.14 in986.8 mb 0.02 in0.5 mm 0.00 in0.0 mm 0.02 in0.5 mm
05:47 AM 55.5°F13.1°C 52.6°F11.4°C 90% 15.3 mph SSE24.6 kmh SSE 24.0 mph38.6 kmh 29.14 in986.8 mb 0.02 in0.5 mm 0.00 in0.0 mm 0.02 in0.5 mm
05:48 AM 55.5°F13.1°C 52.9°F11.6°C 91% 14.3 mph SSE23.0 kmh SSE 24.0 mph38.6 kmh 29.14 in986.8 mb 0.02 in0.5 mm 0.00 in0.0 mm 0.02 in0.5 mm
05:49 AM 55.5°F13.1°C 52.9°F11.6°C 91% 9.9 mph SE15.9 kmh SE 19.0 mph30.6 kmh 29.14 in986.8 mb 0.02 in0.5 mm 0.00 in0.0 mm 0.02 in0.5 mm
05:50 AM 55.4°F13.0°C 52.8°F11.6°C 91% 14.5 mph SE23.3 kmh SE 21.0 mph33.8 kmh 29.14 in986.8 mb 0.02 in0.5 mm 0.00 in0.0 mm 0.02 in0.5 mm
05:51 AM 55.4°F13.0°C 52.8°F11.6°C 91% 16.5 mph SE26.6 kmh SE 24.0 mph38.6 kmh 29.14 in986.8 mb 0.02 in0.5 mm 0.00 in0.0 mm 0.02 in0.5 mm
05:52 AM 55.4°F13.0°C 52.5°F11.4°C 90% 14.2 mph SSE22.9 kmh SSE 24.0 mph38.6 kmh 29.14 in986.8 mb 0.02 in0.5 mm 0.00 in0.0 mm 0.02 in0.5 mm
05:53 AM 55.4°F13.0°C 52.5°F11.4°C 90% 15.6 mph SSE25.1 kmh SSE 23.0 mph37.0 kmh 29.14 in986.8 mb 0.02 in0.5 mm 0.00 in0.0 mm 0.02 in0.5 mm
05:54 AM 55.4°F13.0°C 52.5°F11.4°C 90% 12.0 mph SSE19.3 kmh SSE 22.0 mph35.4 kmh 29.14 in986.8 mb 0.02 in0.5 mm 0.00 in0.0 mm 0.02 in0.5 mm
05:55 AM 55.4°F13.0°C 52.5°F11.4°C 90% 16.0 mph S25.7 kmh S 23.0 mph37.0 kmh 29.13 in986.5 mb 0.02 in0.5 mm 0.00 in0.0 mm 0.02 in0.5 mm
05:56 AM 55.5°F13.1°C 52.6°F11.4°C 90% 16.1 mph SSE25.9 kmh SSE 23.0 mph37.0 kmh 29.14 in986.8 mb 0.02 in0.5 mm 0.00 in0.0 mm 0.02 in0.5 mm
05:57 AM 55.4°F13.0°C 52.5°F11.4°C 90% 13.8 mph SSE22.2 kmh SSE 24.0 mph38.6 kmh 29.14 in986.8 mb 0.02 in0.5 mm 0.00 in0.0 mm 0.02 in0.5 mm
05:58 AM 55.5°F13.1°C 52.6°F11.4°C 90% 18.7 mph SSE30.1 kmh SSE 24.0 mph38.6 kmh 29.14 in986.8 mb 0.02 in0.5 mm 0.00 in0.0 mm 0.02 in0.5 mm
05:59 AM 55.5°F13.1°C 52.6°F11.4°C 90% 18.9 mph SSE30.4 kmh SSE 26.0 mph41.8 kmh 29.14 in986.8 mb 0.02 in0.5 mm 0.00 in0.0 mm 0.02 in0.5 mm
06:00 AM 55.5°F13.1°C 52.6°F11.4°C 90% 14.9 mph SSE24.0 kmh SSE 26.0 mph41.8 kmh 29.14 in986.8 mb 0.02 in0.5 mm 0.00 in0.0 mm 0.02 in0.5 mm
06:01 AM 55.5°F13.1°C 52.6°F11.4°C 90% 13.9 mph SSE22.4 kmh SSE 23.0 mph37.0 kmh 29.14 in986.8 mb 0.02 in0.5 mm 0.00 in0.0 mm 0.02 in0.5 mm
06:02 AM 55.5°F13.1°C 52.6°F11.4°C 90% 13.1 mph SSE21.1 kmh SSE 22.0 mph35.4 kmh 29.14 in986.8 mb 0.02 in0.5 mm 0.00 in0.0 mm 0.02 in0.5 mm
06:03 AM 55.5°F13.1°C 52.6°F11.4°C 90% 12.4 mph SSE20.0 kmh SSE 22.0 mph35.4 kmh 29.14 in986.8 mb 0.02 in0.5 mm 0.00 in0.0 mm 0.02 in0.5 mm
06:04 AM 55.5°F13.1°C 52.6°F11.4°C 90% 12.6 mph SSE20.3 kmh SSE 18.0 mph29.0 kmh 29.14 in986.8 mb 0.02 in0.5 mm 0.00 in0.0 mm 0.02 in0.5 mm
06:05 AM 55.5°F13.1°C 52.6°F11.4°C 90% 10.4 mph SSE16.7 kmh SSE 21.0 mph33.8 kmh 29.14 in986.8 mb 0.02 in0.5 mm 0.00 in0.0 mm 0.02 in0.5 mm
06:06 AM 55.5°F13.1°C 52.6°F11.4°C 90% 20.3 mph SSE32.7 kmh SSE 29.0 mph46.7 kmh 29.14 in986.8 mb 0.02 in0.5 mm 0.00 in0.0 mm 0.02 in0.5 mm
06:07 AM 55.5°F13.1°C 52.6°F11.4°C 90% 15.9 mph SSE25.6 kmh SSE 29.0 mph46.7 kmh 29.14 in986.8 mb 0.02 in0.5 mm 0.00 in0.0 mm 0.02 in0.5 mm
06:08 AM 55.5°F13.1°C 52.6°F11.4°C 90% 19.5 mph SSE31.4 kmh SSE 29.0 mph46.7 kmh 29.13 in986.5 mb 0.02 in0.5 mm 0.00 in0.0 mm 0.02 in0.5 mm
06:09 AM 55.6°F13.1°C 52.7°F11.5°C 90% 14.0 mph SSE22.5 kmh SSE 29.0 mph46.7 kmh 29.14 in986.8 mb 0.02 in0.5 mm 0.00 in0.0 mm 0.02 in0.5 mm
06:10 AM 55.6°F13.1°C 52.7°F11.5°C 90% 16.1 mph SSE25.9 kmh SSE 24.0 mph38.6 kmh 29.14 in986.8 mb 0.02 in0.5 mm 0.00 in0.0 mm 0.02 in0.5 mm
06:11 AM 55.6°F13.1°C 52.7°F11.5°C 90% 10.9 mph SSE17.5 kmh SSE 24.0 mph38.6 kmh 29.14 in986.8 mb 0.02 in0.5 mm 0.00 in0.0 mm 0.02 in0.5 mm
06:12 AM 55.7°F13.2°C 52.8°F11.6°C 90% 10.7 mph S17.2 kmh S 15.0 mph24.1 kmh 29.14 in986.8 mb 0.02 in0.5 mm 0.00 in0.0 mm 0.02 in0.5 mm
06:13 AM 55.7°F13.2°C 52.8°F11.6°C 90% 15.2 mph SSE24.5 kmh SSE 24.0 mph38.6 kmh 29.14 in986.8 mb 0.02 in0.5 mm 0.00 in0.0 mm 0.02 in0.5 mm
06:14 AM 55.6°F13.1°C 52.7°F11.5°C 90% 15.3 mph SSE24.6 kmh SSE 26.0 mph41.8 kmh 29.14 in986.8 mb 0.02 in0.5 mm 0.00 in0.0 mm 0.02 in0.5 mm
06:15 AM 55.7°F13.2°C 52.8°F11.6°C 90% 17.7 mph SSE28.5 kmh SSE 31.0 mph49.9 kmh 29.14 in986.8 mb 0.02 in0.5 mm 0.00 in0.0 mm 0.02 in0.5 mm
06:16 AM 55.7°F13.2°C 52.5°F11.4°C 89% 15.1 mph SSE24.3 kmh SSE 31.0 mph49.9 kmh 29.14 in986.8 mb 0.02 in0.5 mm 0.00 in0.0 mm 0.02 in0.5 mm
06:17 AM 55.7°F13.2°C 52.5°F11.4°C 89% 16.2 mph SSE26.1 kmh SSE 26.0 mph41.8 kmh 29.14 in986.8 mb 0.02 in0.5 mm 0.00 in0.0 mm 0.02 in0.5 mm
06:18 AM 55.7°F13.2°C 52.5°F11.4°C 89% 14.2 mph SSE22.9 kmh SSE 26.0 mph41.8 kmh 29.14 in986.8 mb 0.02 in0.5 mm 0.00 in0.0 mm 0.02 in0.5 mm
06:19 AM 55.7°F13.2°C 52.8°F11.6°C 90% 14.2 mph SSE22.9 kmh SSE 22.0 mph35.4 kmh 29.14 in986.8 mb 0.02 in0.5 mm 0.00 in0.0 mm 0.02 in0.5 mm
06:20 AM 55.7°F13.2°C 52.5°F11.4°C 89% 15.3 mph SE24.6 kmh SE 23.0 mph37.0 kmh 29.14 in986.8 mb 0.02 in0.5 mm 0.00 in0.0 mm 0.02 in0.5 mm
06:21 AM 55.7°F13.2°C 52.5°F11.4°C 89% 12.4 mph SSE20.0 kmh SSE 23.0 mph37.0 kmh 29.14 in986.8 mb 0.02 in0.5 mm 0.00 in0.0 mm 0.02 in0.5 mm
06:22 AM 55.8°F13.2°C 52.6°F11.4°C 89% 14.5 mph S23.3 kmh S 24.0 mph38.6 kmh 29.14 in986.8 mb 0.02 in0.5 mm 0.00 in0.0 mm 0.02 in0.5 mm
06:23 AM 55.7°F13.2°C 52.5°F11.4°C 89% 13.7 mph S22.0 kmh S 24.0 mph38.6 kmh 29.14 in986.8 mb 0.01 in0.3 mm 0.00 in0.0 mm 0.02 in0.5 mm
06:24 AM 55.8°F13.2°C 52.6°F11.4°C 89% 17.2 mph SSE27.7 kmh SSE 26.0 mph41.8 kmh 29.14 in986.8 mb 0.01 in0.3 mm 0.00 in0.0 mm 0.02 in0.5 mm
06:25 AM 55.8°F13.2°C 52.6°F11.4°C 89% 11.8 mph SSE19.0 kmh SSE 26.0 mph41.8 kmh 29.14 in986.8 mb 0.01 in0.3 mm 0.00 in0.0 mm 0.02 in0.5 mm
06:26 AM 55.8°F13.2°C 52.6°F11.4°C 89% 13.9 mph SSE22.4 kmh SSE 20.0 mph32.2 kmh 29.14 in986.8 mb 0.01 in0.3 mm 0.00 in0.0 mm 0.02 in0.5 mm
06:27 AM 55.8°F13.2°C 52.9°F11.6°C 90% 10.2 mph SSE16.4 kmh SSE 20.0 mph32.2 kmh 29.14 in986.8 mb 0.01 in0.3 mm 0.00 in0.0 mm 0.02 in0.5 mm
06:28 AM 55.8°F13.2°C 52.6°F11.4°C 89% 11.3 mph SSE18.2 kmh SSE 21.0 mph33.8 kmh 29.14 in986.8 mb 0.01 in0.3 mm 0.00 in0.0 mm 0.02 in0.5 mm
06:29 AM 55.8°F13.2°C 52.6°F11.4°C 89% 13.5 mph S21.7 kmh S 21.0 mph33.8 kmh 29.14 in986.8 mb 0.01 in0.3 mm 0.00 in0.0 mm 0.02 in0.5 mm
06:30 AM 55.8°F13.2°C 52.6°F11.4°C 89% 14.5 mph SSE23.3 kmh SSE 20.0 mph32.2 kmh 29.14 in986.8 mb 0.01 in0.3 mm 0.00 in0.0 mm 0.02 in0.5 mm
06:31 AM 55.8°F13.2°C 52.9°F11.6°C 90% 12.9 mph SSE20.8 kmh SSE 19.0 mph30.6 kmh 29.14 in986.8 mb 0.01 in0.3 mm 0.00 in0.0 mm 0.02 in0.5 mm
06:32 AM 55.8°F13.2°C 52.6°F11.4°C 89% 17.2 mph SSE27.7 kmh SSE 21.0 mph33.8 kmh 29.14 in986.8 mb 0.01 in0.3 mm 0.00 in0.0 mm 0.02 in0.5 mm
06:33 AM 55.9°F13.3°C 52.7°F11.5°C 89% 12.7 mph SSE20.4 kmh SSE 21.0 mph33.8 kmh 29.14 in986.8 mb 0.01 in0.3 mm 0.00 in0.0 mm 0.02 in0.5 mm
06:34 AM 55.9°F13.3°C 52.7°F11.5°C 89% 10.4 mph S16.7 kmh S 19.0 mph30.6 kmh 29.14 in986.8 mb 0.01 in0.3 mm 0.00 in0.0 mm 0.02 in0.5 mm
06:35 AM 55.8°F13.2°C 52.6°F11.4°C 89% 13.5 mph S21.7 kmh S 19.0 mph30.6 kmh 29.14 in986.8 mb 0.01 in0.3 mm 0.00 in0.0 mm 0.02 in0.5 mm
06:36 AM 55.8°F13.2°C 52.6°F11.4°C 89% 20.1 mph S32.3 kmh S 29.0 mph46.7 kmh 29.14 in986.8 mb 0.01 in0.3 mm 0.00 in0.0 mm 0.02 in0.5 mm
06:37 AM 55.8°F13.2°C 52.6°F11.4°C 89% 14.4 mph S23.2 kmh S 30.0 mph48.3 kmh 29.14 in986.8 mb 0.01 in0.3 mm 0.00 in0.0 mm 0.02 in0.5 mm
06:38 AM 55.9°F13.3°C 52.7°F11.5°C 89% 16.0 mph S25.7 kmh S 30.0 mph48.3 kmh 29.14 in986.8 mb 0.01 in0.3 mm 0.00 in0.0 mm 0.02 in0.5 mm
06:39 AM 55.9°F13.3°C 52.7°F11.5°C 89% 15.4 mph SSE24.8 kmh SSE 23.0 mph37.0 kmh 29.14 in986.8 mb 0.01 in0.3 mm 0.00 in0.0 mm 0.02 in0.5 mm
06:40 AM 55.9°F13.3°C 52.4°F11.3°C 88% 13.7 mph S22.0 kmh S 23.0 mph37.0 kmh 29.14 in986.8 mb 0.01 in0.3 mm 0.00 in0.0 mm 0.02 in0.5 mm
06:41 AM 55.9°F13.3°C 52.7°F11.5°C 89% 14.0 mph S22.5 kmh S 20.0 mph32.2 kmh 29.14 in986.8 mb 0.01 in0.3 mm 0.00 in0.0 mm 0.02 in0.5 mm
06:42 AM 55.9°F13.3°C 52.7°F11.5°C 89% 11.0 mph S17.7 kmh S 24.0 mph38.6 kmh 29.14 in986.8 mb 0.01 in0.3 mm 0.00 in0.0 mm 0.02 in0.5 mm
06:43 AM 55.9°F13.3°C 52.7°F11.5°C 89% 14.5 mph S23.3 kmh S 25.0 mph40.2 kmh 29.14 in986.8 mb 0.01 in0.3 mm 0.00 in0.0 mm 0.02 in0.5 mm
06:44 AM 55.9°F13.3°C 52.7°F11.5°C 89% 12.9 mph SSE20.8 kmh SSE 25.0 mph40.2 kmh 29.14 in986.8 mb 0.01 in0.3 mm 0.00 in0.0 mm 0.02 in0.5 mm
06:45 AM 55.9°F13.3°C 52.7°F11.5°C 89% 13.5 mph SSE21.7 kmh SSE 23.0 mph37.0 kmh 29.14 in986.8 mb 0.00 in0.0 mm 0.00 in0.0 mm 0.02 in0.5 mm
06:46 AM 55.9°F13.3°C 52.7°F11.5°C 89% 14.9 mph SSE24.0 kmh SSE 26.0 mph41.8 kmh 29.14 in986.8 mb 0.00 in0.0 mm 0.00 in0.0 mm 0.02 in0.5 mm
06:47 AM 56.0°F13.3°C 52.8°F11.6°C 89% 14.7 mph S23.7 kmh S 26.0 mph41.8 kmh 29.14 in986.8 mb 0.00 in0.0 mm 0.00 in0.0 mm 0.02 in0.5 mm
06:48 AM 56.0°F13.3°C 52.5°F11.4°C 88% 15.5 mph S24.9 kmh S 25.0 mph40.2 kmh 29.15 in987.1 mb 0.00 in0.0 mm 0.00 in0.0 mm 0.02 in0.5 mm
06:49 AM 56.0°F13.3°C 52.8°F11.6°C 89% 12.4 mph S20.0 kmh S 25.0 mph40.2 kmh 29.15 in987.1 mb 0.00 in0.0 mm 0.00 in0.0 mm 0.02 in0.5 mm
06:50 AM 56.0°F13.3°C 52.8°F11.6°C 89% 13.3 mph SSE21.4 kmh SSE 21.0 mph33.8 kmh 29.15 in987.1 mb 0.00 in0.0 mm 0.00 in0.0 mm 0.02 in0.5 mm
06:51 AM 56.0°F13.3°C 52.8°F11.6°C 89% 15.2 mph SSE24.5 kmh SSE 22.0 mph35.4 kmh 29.14 in986.8 mb 0.00 in0.0 mm 0.00 in0.0 mm 0.02 in0.5 mm
06:52 AM 55.9°F13.3°C 52.7°F11.5°C 89% 12.5 mph SSE20.1 kmh SSE 22.0 mph35.4 kmh 29.14 in986.8 mb 0.00 in0.0 mm 0.00 in0.0 mm 0.02 in0.5 mm
06:53 AM 55.9°F13.3°C 52.7°F11.5°C 89% 14.0 mph S22.5 kmh S 20.0 mph32.2 kmh 29.14 in986.8 mb 0.01 in0.3 mm 0.60 in15.2 mm 0.03 in0.8 mm
06:54 AM 55.9°F13.3°C 52.7°F11.5°C 89% 10.2 mph S16.4 kmh S 20.0 mph32.2 kmh 29.15 in987.1 mb 0.01 in0.3 mm 0.00 in0.0 mm 0.03 in0.8 mm
06:55 AM 55.8°F13.2°C 52.6°F11.4°C 89% 10.3 mph S16.6 kmh S 14.0 mph22.5 kmh 29.14 in986.8 mb 0.01 in0.3 mm 0.00 in0.0 mm 0.03 in0.8 mm
06:56 AM 55.8°F13.2°C 52.9°F11.6°C 90% 11.5 mph S18.5 kmh S 25.0 mph40.2 kmh 29.14 in986.8 mb 0.02 in0.5 mm 0.60 in15.2 mm 0.04 in1.0 mm
06:57 AM 55.7°F13.2°C 52.8°F11.6°C 90% 14.5 mph SE23.3 kmh SE 25.0 mph40.2 kmh 29.14 in986.8 mb 0.02 in0.5 mm 0.00 in0.0 mm 0.04 in1.0 mm
06:58 AM 55.7°F13.2°C 52.8°F11.6°C 90% 14.3 mph S23.0 kmh S 24.0 mph38.6 kmh 29.14 in986.8 mb 0.02 in0.5 mm 0.00 in0.0 mm 0.04 in1.0 mm
06:59 AM 55.7°F13.2°C 52.8°F11.6°C 90% 11.8 mph S19.0 kmh S 19.0 mph30.6 kmh 29.14 in986.8 mb 0.02 in0.5 mm 0.00 in0.0 mm 0.04 in1.0 mm
07:00 AM 55.6°F13.1°C 52.7°F11.5°C 90% 12.1 mph SSE19.5 kmh SSE 24.0 mph38.6 kmh 29.14 in986.8 mb 0.02 in0.5 mm 0.00 in0.0 mm 0.05 in1.3 mm
07:01 AM 55.6°F13.1°C 52.7°F11.5°C 90% 12.9 mph S20.8 kmh S 24.0 mph38.6 kmh 29.14 in986.8 mb 0.03 in0.8 mm 0.60 in15.2 mm 0.06 in1.5 mm
07:02 AM 55.6°F13.1°C 52.7°F11.5°C 90% 13.5 mph SSE21.7 kmh SSE 22.0 mph35.4 kmh 29.14 in986.8 mb 0.04 in1.0 mm 0.60 in15.2 mm 0.06 in1.5 mm
07:03 AM 55.5°F13.1°C 52.6°F11.4°C 90% 12.3 mph S19.8 kmh S 20.0 mph32.2 kmh 29.14 in986.8 mb 0.05 in1.3 mm 0.60 in15.2 mm 0.07 in1.8 mm
07:04 AM 55.4°F13.0°C 52.5°F11.4°C 90% 13.5 mph S21.7 kmh S 20.0 mph32.2 kmh 29.14 in986.8 mb 0.06 in1.5 mm 0.60 in15.2 mm 0.08 in2.0 mm
07:05 AM 55.5°F13.1°C 52.9°F11.6°C 91% 11.3 mph S18.2 kmh S 20.0 mph32.2 kmh 29.14 in986.8 mb 0.06 in1.5 mm 0.00 in0.0 mm 0.08 in2.0 mm
07:06 AM 55.4°F13.0°C 52.8°F11.6°C 91% 10.0 mph SSE16.1 kmh SSE 17.0 mph27.4 kmh 29.14 in986.8 mb 0.06 in1.5 mm 0.00 in0.0 mm 0.08 in2.0 mm
07:07 AM 55.4°F13.0°C 52.8°F11.6°C 91% 13.3 mph S21.4 kmh S 17.0 mph27.4 kmh 29.14 in986.8 mb 0.06 in1.5 mm 0.00 in0.0 mm 0.08 in2.0 mm
07:08 AM 55.4°F13.0°C 52.8°F11.6°C 91% 15.6 mph SSE25.1 kmh SSE 20.0 mph32.2 kmh 29.14 in986.8 mb 0.06 in1.5 mm 0.00 in0.0 mm 0.08 in2.0 mm
07:09 AM 55.3°F12.9°C 52.7°F11.5°C 91% 13.5 mph SSE21.7 kmh SSE 24.0 mph38.6 kmh 29.14 in986.8 mb 0.06 in1.5 mm 0.00 in0.0 mm 0.08 in2.0 mm
07:10 AM 55.3°F12.9°C 52.7°F11.5°C 91% 13.1 mph S21.1 kmh S 24.0 mph38.6 kmh 29.14 in986.8 mb 0.06 in1.5 mm 0.00 in0.0 mm 0.08 in2.0 mm
07:11 AM 55.3°F12.9°C 52.7°F11.5°C 91% 15.5 mph S24.9 kmh S 22.0 mph35.4 kmh 29.14 in986.8 mb 0.06 in1.5 mm 0.00 in0.0 mm 0.08 in2.0 mm
07:12 AM 55.3°F12.9°C 52.7°F11.5°C 91% 13.9 mph S22.4 kmh S 21.0 mph33.8 kmh 29.15 in987.1 mb 0.06 in1.5 mm 0.00 in0.0 mm 0.08 in2.0 mm
07:13 AM 55.3°F12.9°C 52.7°F11.5°C 91% 15.6 mph S25.1 kmh S 23.0 mph37.0 kmh 29.14 in986.8 mb 0.06 in1.5 mm 0.00 in0.0 mm 0.08 in2.0 mm
07:14 AM 55.3°F12.9°C 52.7°F11.5°C 91% 11.0 mph S17.7 kmh S 23.0 mph37.0 kmh 29.14 in986.8 mb 0.06 in1.5 mm 0.00 in0.0 mm 0.08 in2.0 mm
07:15 AM 55.3°F12.9°C 52.7°F11.5°C 91% 13.9 mph SSE22.4 kmh SSE 21.0 mph33.8 kmh 29.14 in986.8 mb 0.06 in1.5 mm 0.00 in0.0 mm 0.08 in2.0 mm
07:16 AM 55.3°F12.9°C 53.0°F11.7°C 92% 11.9 mph S19.2 kmh S 18.0 mph29.0 kmh 29.14 in986.8 mb 0.06 in1.5 mm 0.00 in0.0 mm 0.09 in2.3 mm
07:17 AM 55.3°F12.9°C 52.7°F11.5°C 91% 12.4 mph SSE20.0 kmh SSE 16.0 mph25.7 kmh 29.14 in986.8 mb 0.06 in1.5 mm 0.00 in0.0 mm 0.09 in2.3 mm
07:18 AM 55.3°F12.9°C 52.7°F11.5°C 91% 14.1 mph SSE22.7 kmh SSE 24.0 mph38.6 kmh 29.14 in986.8 mb 0.06 in1.5 mm 0.00 in0.0 mm 0.09 in2.3 mm
07:19 AM 55.3°F12.9°C 52.7°F11.5°C 91% 15.0 mph S24.1 kmh S 28.0 mph45.1 kmh 29.14 in986.8 mb 0.06 in1.5 mm 0.00 in0.0 mm 0.09 in2.3 mm
07:20 AM 55.3°F12.9°C 52.7°F11.5°C 91% 9.8 mph SSE15.8 kmh SSE 28.0 mph45.1 kmh 29.14 in986.8 mb 0.06 in1.5 mm 0.00 in0.0 mm 0.09 in2.3 mm
07:21 AM 55.4°F13.0°C 52.8°F11.6°C 91% 14.2 mph S22.9 kmh S 23.0 mph37.0 kmh 29.14 in986.8 mb 0.06 in1.5 mm 0.00 in0.0 mm 0.09 in2.3 mm
07:22 AM 55.3°F12.9°C 52.7°F11.5°C 91% 16.4 mph S26.4 kmh S 23.0 mph37.0 kmh 29.14 in986.8 mb 0.06 in1.5 mm 0.00 in0.0 mm 0.09 in2.3 mm
07:23 AM 55.3°F12.9°C 52.7°F11.5°C 91% 13.6 mph S21.9 kmh S 24.0 mph38.6 kmh 29.14 in986.8 mb 0.06 in1.5 mm 0.00 in0.0 mm 0.09 in2.3 mm
07:24 AM 55.3°F12.9°C 52.7°F11.5°C 91% 15.5 mph S24.9 kmh S 24.0 mph38.6 kmh 29.14 in986.8 mb 0.06 in1.5 mm 0.00 in0.0 mm 0.09 in2.3 mm
07:25 AM 55.4°F13.0°C 53.1°F11.7°C 92% 10.7 mph SSE17.2 kmh SSE 20.0 mph32.2 kmh 29.14 in986.8 mb 0.06 in1.5 mm 0.00 in0.0 mm 0.09 in2.3 mm
07:26 AM 55.3°F12.9°C 53.0°F11.7°C 92% 12.1 mph S19.5 kmh S 19.0 mph30.6 kmh 29.15 in987.1 mb 0.06 in1.5 mm 0.00 in0.0 mm 0.09 in2.3 mm
07:27 AM 55.3°F12.9°C 52.7°F11.5°C 91% 10.6 mph SSE17.1 kmh SSE 18.0 mph29.0 kmh 29.14 in986.8 mb 0.06 in1.5 mm 0.00 in0.0 mm 0.09 in2.3 mm
07:28 AM 55.4°F13.0°C 53.1°F11.7°C 92% 14.2 mph S22.9 kmh S 21.0 mph33.8 kmh 29.14 in986.8 mb 0.06 in1.5 mm 0.00 in0.0 mm 0.09 in2.3 mm
07:29 AM 55.3°F12.9°C 52.7°F11.5°C 91% 10.7 mph SSE17.2 kmh SSE 21.0 mph33.8 kmh 29.15 in987.1 mb 0.06 in1.5 mm 0.00 in0.0 mm 0.09 in2.3 mm
07:30 AM 55.3°F12.9°C 53.0°F11.7°C 92% 13.1 mph SSE21.1 kmh SSE 19.0 mph30.6 kmh 29.14 in986.8 mb 0.06 in1.5 mm 0.00 in0.0 mm 0.09 in2.3 mm
07:31 AM 55.3°F12.9°C 52.7°F11.5°C 91% 11.9 mph S19.2 kmh S 21.0 mph33.8 kmh 29.15 in987.1 mb 0.06 in1.5 mm 0.00 in0.0 mm 0.09 in2.3 mm
07:32 AM 55.3°F12.9°C 53.0°F11.7°C 92% 16.2 mph S26.1 kmh S 21.0 mph33.8 kmh 29.14 in986.8 mb 0.06 in1.5 mm 0.00 in0.0 mm 0.09 in2.3 mm
07:33 AM 55.4°F13.0°C 53.1°F11.7°C 92% 11.3 mph SSE18.2 kmh SSE 19.0 mph30.6 kmh 29.14 in986.8 mb 0.06 in1.5 mm 0.00 in0.0 mm 0.09 in2.3 mm
07:34 AM 55.4°F13.0°C 53.1°F11.7°C 92% 11.9 mph S19.2 kmh S 16.0 mph25.7 kmh 29.15 in987.1 mb 0.06 in1.5 mm 0.00 in0.0 mm 0.09 in2.3 mm
07:35 AM 55.4°F13.0°C 53.1°F11.7°C 92% 13.6 mph SSE21.9 kmh SSE 22.0 mph35.4 kmh 29.15 in987.1 mb 0.06 in1.5 mm 0.00 in0.0 mm 0.09 in2.3 mm
07:36 AM 55.4°F13.0°C 53.1°F11.7°C 92% 11.3 mph S18.2 kmh S 23.0 mph37.0 kmh 29.15 in987.1 mb 0.06 in1.5 mm 0.00 in0.0 mm 0.09 in2.3 mm
07:37 AM 55.4°F13.0°C 52.8°F11.6°C 91% 14.2 mph S22.9 kmh S 23.0 mph37.0 kmh 29.15 in987.1 mb 0.06 in1.5 mm 0.00 in0.0 mm 0.09 in2.3 mm
07:38 AM 55.4°F13.0°C 52.8°F11.6°C 91% 14.6 mph S23.5 kmh S 27.0 mph43.5 kmh 29.15 in987.1 mb 0.06 in1.5 mm 0.00 in0.0 mm 0.09 in2.3 mm
07:39 AM 55.4°F13.0°C 52.8°F11.6°C 91% 11.6 mph S18.7 kmh S 27.0 mph43.5 kmh 29.15 in987.1 mb 0.06 in1.5 mm 0.00 in0.0 mm 0.09 in2.3 mm
07:40 AM 55.5°F13.1°C 52.9°F11.6°C 91% 10.2 mph S16.4 kmh S 19.0 mph30.6 kmh 29.15 in987.1 mb 0.06 in1.5 mm 0.00 in0.0 mm 0.09 in2.3 mm
07:41 AM 55.5°F13.1°C 52.9°F11.6°C 91% 12.7 mph SSE20.4 kmh SSE 18.0 mph29.0 kmh 29.15 in987.1 mb 0.06 in1.5 mm 0.00 in0.0 mm 0.09 in2.3 mm
07:42 AM 55.4°F13.0°C 52.8°F11.6°C 91% 11.3 mph S18.2 kmh S 18.0 mph29.0 kmh 29.15 in987.1 mb 0.06 in1.5 mm 0.00 in0.0 mm 0.09 in2.3 mm
07:43 AM 55.4°F13.0°C 52.8°F11.6°C 91% 9.8 mph S15.8 kmh S 17.0 mph27.4 kmh 29.15 in987.1 mb 0.06 in1.5 mm 0.00 in0.0 mm 0.09 in2.3 mm
07:44 AM 55.5°F13.1°C 52.9°F11.6°C 91% 9.3 mph S15.0 kmh S 16.0 mph25.7 kmh 29.15 in987.1 mb 0.06 in1.5 mm 0.00 in0.0 mm 0.09 in2.3 mm
07:45 AM 55.4°F13.0°C 52.8°F11.6°C 91% 11.1 mph S17.9 kmh S 18.0 mph29.0 kmh 29.15 in987.1 mb 0.06 in1.5 mm 0.00 in0.0 mm 0.09 in2.3 mm
07:46 AM 55.5°F13.1°C 52.9°F11.6°C 91% 12.5 mph S20.1 kmh S 18.0 mph29.0 kmh 29.15 in987.1 mb 0.06 in1.5 mm 0.00 in0.0 mm 0.09 in2.3 mm
07:47 AM 55.5°F13.1°C 52.9°F11.6°C 91% 10.7 mph S17.2 kmh S 16.0 mph25.7 kmh 29.15 in987.1 mb 0.06 in1.5 mm 0.00 in0.0 mm 0.09 in2.3 mm
07:48 AM 55.5°F13.1°C 52.9°F11.6°C 91% 10.0 mph S16.1 kmh S 16.0 mph25.7 kmh 29.15 in987.1 mb 0.06 in1.5 mm 0.00 in0.0 mm 0.09 in2.3 mm
07:49 AM 55.5°F13.1°C 52.9°F11.6°C 91% 10.0 mph S16.1 kmh S 16.0 mph25.7 kmh 29.15 in987.1 mb 0.06 in1.5 mm 0.00 in0.0 mm 0.09 in2.3 mm
07:50 AM 55.5°F13.1°C 52.9°F11.6°C 91% 7.9 mph S12.7 kmh S 13.0 mph20.9 kmh 29.15 in987.1 mb 0.06 in1.5 mm 0.00 in0.0 mm 0.09 in2.3 mm
07:51 AM 55.5°F13.1°C 52.9°F11.6°C 91% 10.1 mph S16.3 kmh S 15.0 mph24.1 kmh 29.15 in987.1 mb 0.06 in1.5 mm 0.00 in0.0 mm 0.09 in2.3 mm
07:52 AM 55.5°F13.1°C 52.9°F11.6°C 91% 9.9 mph S15.9 kmh S 19.0 mph30.6 kmh 29.15 in987.1 mb 0.06 in1.5 mm 0.00 in0.0 mm 0.09 in2.3 mm
07:53 AM 55.4°F13.0°C 52.8°F11.6°C 91% 12.2 mph S19.6 kmh S 19.0 mph30.6 kmh 29.15 in987.1 mb 0.06 in1.5 mm 0.00 in0.0 mm 0.09 in2.3 mm
07:54 AM 55.5°F13.1°C 52.9°F11.6°C 91% 15.0 mph S24.1 kmh S 20.0 mph32.2 kmh 29.15 in987.1 mb 0.06 in1.5 mm 0.00 in0.0 mm 0.09 in2.3 mm
07:55 AM 55.5°F13.1°C 52.9°F11.6°C 91% 14.7 mph S23.7 kmh S 21.0 mph33.8 kmh 29.15 in987.1 mb 0.06 in1.5 mm 0.00 in0.0 mm 0.09 in2.3 mm
07:56 AM 55.4°F13.0°C 52.8°F11.6°C 91% 13.5 mph S21.7 kmh S 22.0 mph35.4 kmh 29.15 in987.1 mb 0.06 in1.5 mm 0.00 in0.0 mm 0.09 in2.3 mm
07:57 AM 55.4°F13.0°C 52.8°F11.6°C 91% 14.2 mph S22.9 kmh S 22.0 mph35.4 kmh 29.16 in987.5 mb 0.06 in1.5 mm 0.00 in0.0 mm 0.09 in2.3 mm
07:58 AM 55.4°F13.0°C 52.8°F11.6°C 91% 12.8 mph S20.6 kmh S 20.0 mph32.2 kmh 29.16 in987.5 mb 0.06 in1.5 mm 0.00 in0.0 mm 0.09 in2.3 mm
07:59 AM 55.4°F13.0°C 52.8°F11.6°C 91% 12.6 mph S20.3 kmh S 20.0 mph32.2 kmh 29.15 in987.1 mb 0.06 in1.5 mm 0.00 in0.0 mm 0.09 in2.3 mm
08:00 AM 55.4°F13.0°C 53.1°F11.7°C 92% 13.2 mph S21.2 kmh S 22.0 mph35.4 kmh 29.15 in987.1 mb 0.05 in1.3 mm 0.00 in0.0 mm 0.09 in2.3 mm
08:01 AM 55.4°F13.0°C 53.1°F11.7°C 92% 12.3 mph S19.8 kmh S 22.0 mph35.4 kmh 29.15 in987.1 mb 0.05 in1.3 mm 0.00 in0.0 mm 0.10 in2.5 mm
08:02 AM 55.4°F13.0°C 52.8°F11.6°C 91% 8.7 mph S14.0 kmh S 18.0 mph29.0 kmh 29.15 in987.1 mb 0.04 in1.0 mm 0.00 in0.0 mm 0.10 in2.5 mm
08:03 AM 55.4°F13.0°C 53.1°F11.7°C 92% 10.5 mph S16.9 kmh S 16.0 mph25.7 kmh 29.15 in987.1 mb 0.03 in0.8 mm 0.00 in0.0 mm 0.10 in2.5 mm
08:04 AM 55.4°F13.0°C 53.1°F11.7°C 92% 10.0 mph S16.1 kmh S 16.0 mph25.7 kmh 29.16 in987.5 mb 0.02 in0.5 mm 0.00 in0.0 mm 0.10 in2.5 mm
08:05 AM 55.5°F13.1°C 53.2°F11.8°C 92% 11.9 mph S19.2 kmh S 18.0 mph29.0 kmh 29.15 in987.1 mb 0.02 in0.5 mm 0.00 in0.0 mm 0.10 in2.5 mm
08:06 AM 55.5°F13.1°C 53.2°F11.8°C 92% 10.4 mph S16.7 kmh S 18.0 mph29.0 kmh 29.15 in987.1 mb 0.02 in0.5 mm 0.00 in0.0 mm 0.10 in2.5 mm
08:07 AM 55.4°F13.0°C 53.1°F11.7°C 92% 13.9 mph S22.4 kmh S 21.0 mph33.8 kmh 29.15 in987.1 mb 0.02 in0.5 mm 0.00 in0.0 mm 0.10 in2.5 mm
08:08 AM 55.5°F13.1°C 53.2°F11.8°C 92% 13.4 mph S21.6 kmh S 21.0 mph33.8 kmh 29.15 in987.1 mb 0.02 in0.5 mm 0.00 in0.0 mm 0.10 in2.5 mm
08:09 AM 55.5°F13.1°C 52.9°F11.6°C 91% 13.6 mph S21.9 kmh S 20.0 mph32.2 kmh 29.15 in987.1 mb 0.02 in0.5 mm 0.00 in0.0 mm 0.10 in2.5 mm
08:10 AM 55.5°F13.1°C 52.9°F11.6°C 91% 14.5 mph S23.3 kmh S 23.0 mph37.0 kmh 29.16 in987.5 mb 0.02 in0.5 mm 0.00 in0.0 mm 0.10 in2.5 mm
08:11 AM 55.5°F13.1°C 52.9°F11.6°C 91% 10.6 mph S17.1 kmh S 23.0 mph37.0 kmh 29.15 in987.1 mb 0.03 in0.8 mm 0.60 in15.2 mm 0.11 in2.8 mm
08:12 AM 55.6°F13.1°C 53.0°F11.7°C 91% 12.4 mph S20.0 kmh S 22.0 mph35.4 kmh 29.16 in987.5 mb 0.03 in0.8 mm 0.00 in0.0 mm 0.11 in2.8 mm
08:13 AM 55.7°F13.2°C 53.1°F11.7°C 91% 15.5 mph S24.9 kmh S 22.0 mph35.4 kmh 29.16 in987.5 mb 0.03 in0.8 mm 0.00 in0.0 mm 0.11 in2.8 mm
08:14 AM 55.7°F13.2°C 53.1°F11.7°C 91% 12.8 mph S20.6 kmh S 21.0 mph33.8 kmh 29.15 in987.1 mb 0.03 in0.8 mm 0.00 in0.0 mm 0.11 in2.8 mm
08:15 AM 55.8°F13.2°C 53.2°F11.8°C 91% 10.6 mph S17.1 kmh S 19.0 mph30.6 kmh 29.15 in987.1 mb 0.03 in0.8 mm 0.00 in0.0 mm 0.11 in2.8 mm
08:16 AM 55.8°F13.2°C 53.2°F11.8°C 91% 8.9 mph S14.3 kmh S 14.0 mph22.5 kmh 29.15 in987.1 mb 0.02 in0.5 mm 0.00 in0.0 mm 0.11 in2.8 mm
08:17 AM 55.9°F13.3°C 53.3°F11.8°C 91% 10.8 mph S17.4 kmh S 17.0 mph27.4 kmh 29.15 in987.1 mb 0.02 in0.5 mm 0.00 in0.0 mm 0.11 in2.8 mm
08:18 AM 55.8°F13.2°C 53.2°F11.8°C 91% 14.0 mph S22.5 kmh S 20.0 mph32.2 kmh 29.15 in987.1 mb 0.02 in0.5 mm 0.00 in0.0 mm 0.11 in2.8 mm
08:19 AM 56.0°F13.3°C 53.4°F11.9°C 91% 12.3 mph S19.8 kmh S 20.0 mph32.2 kmh 29.15 in987.1 mb 0.02 in0.5 mm 0.00 in0.0 mm 0.11 in2.8 mm
08:20 AM 56.0°F13.3°C 53.4°F11.9°C 91% 13.5 mph S21.7 kmh S 21.0 mph33.8 kmh 29.15 in987.1 mb 0.02 in0.5 mm 0.00 in0.0 mm 0.11 in2.8 mm
08:21 AM 56.0°F13.3°C 53.4°F11.9°C 91% 9.2 mph S14.8 kmh S 21.0 mph33.8 kmh 29.15 in987.1 mb 0.02 in0.5 mm 0.00 in0.0 mm 0.11 in2.8 mm
08:22 AM 56.0°F13.3°C 53.4°F11.9°C 91% 13.9 mph S22.4 kmh S 21.0 mph33.8 kmh 29.15 in987.1 mb 0.02 in0.5 mm 0.00 in0.0 mm 0.11 in2.8 mm
08:23 AM 56.0°F13.3°C 53.4°F11.9°C 91% 11.5 mph S18.5 kmh S 21.0 mph33.8 kmh 29.15 in987.1 mb 0.02 in0.5 mm 0.00 in0.0 mm 0.11 in2.8 mm
08:24 AM 56.0°F13.3°C 53.4°F11.9°C 91% 13.0 mph S20.9 kmh S 21.0 mph33.8 kmh 29.15 in987.1 mb 0.02 in0.5 mm 0.00 in0.0 mm 0.11 in2.8 mm
08:25 AM 56.1°F13.4°C 53.5°F11.9°C 91% 12.0 mph S19.3 kmh S 21.0 mph33.8 kmh 29.15 in987.1 mb 0.02 in0.5 mm 0.00 in0.0 mm 0.11 in2.8 mm
08:26 AM 56.0°F13.3°C 53.4°F11.9°C 91% 10.6 mph S17.1 kmh S 17.0 mph27.4 kmh 29.15 in987.1 mb 0.02 in0.5 mm 0.00 in0.0 mm 0.11 in2.8 mm
08:27 AM 56.0°F13.3°C 53.4°F11.9°C 91% 11.0 mph S17.7 kmh S 17.0 mph27.4 kmh 29.15 in987.1 mb 0.02 in0.5 mm 0.00 in0.0 mm 0.11 in2.8 mm
08:28 AM 56.1°F13.4°C 53.5°F11.9°C 91% 10.4 mph S16.7 kmh S 16.0 mph25.7 kmh 29.15 in987.1 mb 0.02 in0.5 mm 0.00 in0.0 mm 0.11 in2.8 mm
08:29 AM 56.1°F13.4°C 53.5°F11.9°C 91% 12.2 mph S19.6 kmh S 19.0 mph30.6 kmh 29.15 in987.1 mb 0.02 in0.5 mm 0.00 in0.0 mm 0.11 in2.8 mm
08:30 AM 56.1°F13.4°C 53.2°F11.8°C 90% 11.2 mph S18.0 kmh S 19.0 mph30.6 kmh 29.15 in987.1 mb 0.02 in0.5 mm 0.00 in0.0 mm 0.11 in2.8 mm
08:31 AM 56.1°F13.4°C 53.5°F11.9°C 91% 9.5 mph S15.3 kmh S 16.0 mph25.7 kmh 29.15 in987.1 mb 0.02 in0.5 mm 0.00 in0.0 mm 0.11 in2.8 mm
08:32 AM 56.1°F13.4°C 53.5°F11.9°C 91% 10.4 mph S16.7 kmh S 14.0 mph22.5 kmh 29.15 in987.1 mb 0.02 in0.5 mm 0.00 in0.0 mm 0.11 in2.8 mm
08:33 AM 56.2°F13.4°C 53.6°F12.0°C 91% 10.1 mph S16.3 kmh S 14.0 mph22.5 kmh 29.15 in987.1 mb 0.02 in0.5 mm 0.00 in0.0 mm 0.11 in2.8 mm
08:34 AM 56.2°F13.4°C 53.3°F11.8°C 90% 12.0 mph S19.3 kmh S 17.0 mph27.4 kmh 29.15 in987.1 mb 0.02 in0.5 mm 0.00 in0.0 mm 0.11 in2.8 mm
08:35 AM 56.2°F13.4°C 53.6°F12.0°C 91% 9.5 mph S15.3 kmh S 17.0 mph27.4 kmh 29.15 in987.1 mb 0.02 in0.5 mm 0.00 in0.0 mm 0.11 in2.8 mm
08:36 AM 56.3°F13.5°C 53.4°F11.9°C 90% 12.4 mph S20.0 kmh S 23.0 mph37.0 kmh 29.15 in987.1 mb 0.02 in0.5 mm 0.00 in0.0 mm 0.11 in2.8 mm
08:37 AM 56.3°F13.5°C 53.4°F11.9°C 90% 13.0 mph S20.9 kmh S 23.0 mph37.0 kmh 29.15 in987.1 mb 0.02 in0.5 mm 0.00 in0.0 mm 0.11 in2.8 mm
08:38 AM 56.4°F13.6°C 53.5°F11.9°C 90% 11.1 mph SSE17.9 kmh SSE 18.0 mph29.0 kmh 29.15 in987.1 mb 0.02 in0.5 mm 0.00 in0.0 mm 0.11 in2.8 mm
08:39 AM 56.3°F13.5°C 53.4°F11.9°C 90% 11.0 mph S17.7 kmh S 19.0 mph30.6 kmh 29.15 in987.1 mb 0.02 in0.5 mm 0.00 in0.0 mm 0.11 in2.8 mm
08:40 AM 56.4°F13.6°C 53.5°F11.9°C 90% 9.6 mph S15.4 kmh S 19.0 mph30.6 kmh 29.16 in987.5 mb 0.02 in0.5 mm 0.00 in0.0 mm 0.11 in2.8 mm
08:41 AM 56.4°F13.6°C 53.5°F11.9°C 90% 12.4 mph S20.0 kmh S 16.0 mph25.7 kmh 29.16 in987.5 mb 0.02 in0.5 mm 0.00 in0.0 mm 0.11 in2.8 mm
08:42 AM 56.4°F13.6°C 53.5°F11.9°C 90% 14.3 mph S23.0 kmh S 21.0 mph33.8 kmh 29.16 in987.5 mb 0.02 in0.5 mm 0.00 in0.0 mm 0.11 in2.8 mm
08:43 AM 56.5°F13.6°C 53.6°F12.0°C 90% 12.1 mph S19.5 kmh S 21.0 mph33.8 kmh 29.16 in987.5 mb 0.02 in0.5 mm 0.00 in0.0 mm 0.11 in2.8 mm
08:44 AM 56.4°F13.6°C 53.5°F11.9°C 90% 14.8 mph S23.8 kmh S 20.0 mph32.2 kmh 29.16 in987.5 mb 0.02 in0.5 mm 0.00 in0.0 mm 0.11 in2.8 mm
08:45 AM 56.5°F13.6°C 53.6°F12.0°C 90% 12.8 mph S20.6 kmh S 24.0 mph38.6 kmh 29.16 in987.5 mb 0.02 in0.5 mm 0.00 in0.0 mm 0.11 in2.8 mm
08:46 AM 56.5°F13.6°C 53.6°F12.0°C 90% 15.4 mph SSE24.8 kmh SSE 24.0 mph38.6 kmh 29.16 in987.5 mb 0.02 in0.5 mm 0.00 in0.0 mm 0.11 in2.8 mm
08:47 AM 56.5°F13.6°C 53.3°F11.8°C 89% 14.2 mph S22.9 kmh S 20.0 mph32.2 kmh 29.16 in987.5 mb 0.02 in0.5 mm 0.00 in0.0 mm 0.11 in2.8 mm
08:48 AM 56.5°F13.6°C 53.6°F12.0°C 90% 8.1 mph S13.0 kmh S 20.0 mph32.2 kmh 29.16 in987.5 mb 0.02 in0.5 mm 0.00 in0.0 mm 0.11 in2.8 mm
08:49 AM 56.5°F13.6°C 53.6°F12.0°C 90% 14.5 mph S23.3 kmh S 20.0 mph32.2 kmh 29.16 in987.5 mb 0.02 in0.5 mm 0.00 in0.0 mm 0.11 in2.8 mm
08:50 AM 56.5°F13.6°C 53.3°F11.8°C 89% 12.9 mph S20.8 kmh S 24.0 mph38.6 kmh 29.16 in987.5 mb 0.02 in0.5 mm 0.00 in0.0 mm 0.11 in2.8 mm
08:51 AM 56.5°F13.6°C 53.3°F11.8°C 89% 13.4 mph S21.6 kmh S 24.0 mph38.6 kmh 29.16 in987.5 mb 0.02 in0.5 mm 0.00 in0.0 mm 0.11 in2.8 mm
08:52 AM 56.5°F13.6°C 53.6°F12.0°C 90% 10.6 mph S17.1 kmh S 18.0 mph29.0 kmh 29.16 in987.5 mb 0.02 in0.5 mm 0.00 in0.0 mm 0.11 in2.8 mm
08:53 AM 56.6°F13.7°C 53.7°F12.1°C 90% 12.6 mph S20.3 kmh S 20.0 mph32.2 kmh 29.16 in987.5 mb 0.02 in0.5 mm 0.00 in0.0 mm 0.11 in2.8 mm
08:54 AM 56.5°F13.6°C 53.3°F11.8°C 89% 13.9 mph S22.4 kmh S 21.0 mph33.8 kmh 29.16 in987.5 mb 0.02 in0.5 mm 0.00 in0.0 mm 0.11 in2.8 mm
08:55 AM 56.6°F13.7°C 53.4°F11.9°C 89% 12.2 mph S19.6 kmh S 21.0 mph33.8 kmh 29.16 in987.5 mb 0.02 in0.5 mm 0.00 in0.0 mm 0.11 in2.8 mm
08:56 AM 56.6°F13.7°C 53.4°F11.9°C 89% 12.1 mph S19.5 kmh S 21.0 mph33.8 kmh 29.16 in987.5 mb 0.02 in0.5 mm 0.00 in0.0 mm 0.11 in2.8 mm
08:57 AM 56.5°F13.6°C 53.3°F11.8°C 89% 11.8 mph S19.0 kmh S 16.0 mph25.7 kmh 29.16 in987.5 mb 0.02 in0.5 mm 0.00 in0.0 mm 0.11 in2.8 mm
08:58 AM 56.5°F13.6°C 53.3°F11.8°C 89% 13.5 mph SSE21.7 kmh SSE 18.0 mph29.0 kmh 29.16 in987.5 mb 0.02 in0.5 mm 0.00 in0.0 mm 0.11 in2.8 mm
08:59 AM 56.5°F13.6°C 53.6°F12.0°C 90% 11.1 mph S17.9 kmh S 19.0 mph30.6 kmh 29.16 in987.5 mb 0.02 in0.5 mm 0.00 in0.0 mm 0.11 in2.8 mm
09:00 AM 56.5°F13.6°C 53.3°F11.8°C 89% 15.3 mph S24.6 kmh S 21.0 mph33.8 kmh 29.16 in987.5 mb 0.02 in0.5 mm 0.00 in0.0 mm 0.11 in2.8 mm
09:01 AM 56.5°F13.6°C 53.3°F11.8°C 89% 12.4 mph S20.0 kmh S 21.0 mph33.8 kmh 29.16 in987.5 mb 0.01 in0.3 mm 0.00 in0.0 mm 0.11 in2.8 mm
09:02 AM 56.5°F13.6°C 53.3°F11.8°C 89% 12.8 mph S20.6 kmh S 19.0 mph30.6 kmh 29.17 in987.8 mb 0.01 in0.3 mm 0.00 in0.0 mm 0.11 in2.8 mm
09:03 AM 56.5°F13.6°C 53.3°F11.8°C 89% 12.4 mph S20.0 kmh S 19.0 mph30.6 kmh 29.16 in987.5 mb 0.01 in0.3 mm 0.00 in0.0 mm 0.11 in2.8 mm
09:04 AM 56.5°F13.6°C 53.6°F12.0°C 90% 10.6 mph S17.1 kmh S 19.0 mph30.6 kmh 29.17 in987.8 mb 0.01 in0.3 mm 0.00 in0.0 mm 0.11 in2.8 mm
09:05 AM 56.5°F13.6°C 53.3°F11.8°C 89% 17.2 mph S27.7 kmh S 22.0 mph35.4 kmh 29.17 in987.8 mb 0.01 in0.3 mm 0.00 in0.0 mm 0.11 in2.8 mm
09:06 AM 56.5°F13.6°C 53.3°F11.8°C 89% 14.1 mph S22.7 kmh S 22.0 mph35.4 kmh 29.16 in987.5 mb 0.01 in0.3 mm 0.00 in0.0 mm 0.11 in2.8 mm
09:07 AM 56.6°F13.7°C 53.4°F11.9°C 89% 13.1 mph S21.1 kmh S 21.0 mph33.8 kmh 29.17 in987.8 mb 0.01 in0.3 mm 0.00 in0.0 mm 0.11 in2.8 mm
09:08 AM 56.6°F13.7°C 53.4°F11.9°C 89% 12.1 mph SSE19.5 kmh SSE 21.0 mph33.8 kmh 29.17 in987.8 mb 0.01 in0.3 mm 0.00 in0.0 mm 0.11 in2.8 mm
09:09 AM 56.6°F13.7°C 53.4°F11.9°C 89% 13.5 mph S21.7 kmh S 22.0 mph35.4 kmh 29.17 in987.8 mb 0.01 in0.3 mm 0.00 in0.0 mm 0.11 in2.8 mm
09:10 AM 56.6°F13.7°C 53.4°F11.9°C 89% 16.4 mph S26.4 kmh S 22.0 mph35.4 kmh 29.17 in987.8 mb 0.01 in0.3 mm 0.00 in0.0 mm 0.11 in2.8 mm
09:11 AM 56.6°F13.7°C 53.1°F11.7°C 88% 12.8 mph S20.6 kmh S 22.0 mph35.4 kmh 29.17 in987.8 mb 0.00 in0.0 mm 0.00 in0.0 mm 0.11 in2.8 mm
09:12 AM 56.6°F13.7°C 53.4°F11.9°C 89% 11.6 mph S18.7 kmh S 17.0 mph27.4 kmh 29.17 in987.8 mb 0.00 in0.0 mm 0.00 in0.0 mm 0.11 in2.8 mm
09:13 AM 56.6°F13.7°C 53.4°F11.9°C 89% 11.2 mph S18.0 kmh S 16.0 mph25.7 kmh 29.17 in987.8 mb 0.00 in0.0 mm 0.00 in0.0 mm 0.11 in2.8 mm
09:14 AM 56.6°F13.7°C 53.4°F11.9°C 89% 12.7 mph S20.4 kmh S 19.0 mph30.6 kmh 29.17 in987.8 mb 0.00 in0.0 mm 0.00 in0.0 mm 0.11 in2.8 mm
09:15 AM 56.6°F13.7°C 53.4°F11.9°C 89% 9.6 mph S15.4 kmh S 19.0 mph30.6 kmh 29.17 in987.8 mb 0.00 in0.0 mm 0.00 in0.0 mm 0.11 in2.8 mm
09:16 AM 56.7°F13.7°C 53.5°F11.9°C 89% 10.9 mph S17.5 kmh S 17.0 mph27.4 kmh 29.17 in987.8 mb 0.00 in0.0 mm 0.00 in0.0 mm 0.11 in2.8 mm
09:17 AM 56.7°F13.7°C 53.5°F11.9°C 89% 14.2 mph S22.9 kmh S 21.0 mph33.8 kmh 29.17 in987.8 mb 0.00 in0.0 mm 0.00 in0.0 mm 0.11 in2.8 mm
09:18 AM 56.7°F13.7°C 53.5°F11.9°C 89% 13.9 mph S22.4 kmh S 21.0 mph33.8 kmh 29.17 in987.8 mb 0.00 in0.0 mm 0.00 in0.0 mm 0.11 in2.8 mm
09:19 AM 56.7°F13.7°C 53.5°F11.9°C 89% 11.9 mph S19.2 kmh S 20.0 mph32.2 kmh 29.17 in987.8 mb 0.00 in0.0 mm 0.00 in0.0 mm 0.11 in2.8 mm
09:20 AM 56.8°F13.8°C 53.6°F12.0°C 89% 10.5 mph S16.9 kmh S 20.0 mph32.2 kmh 29.17 in987.8 mb 0.00 in0.0 mm 0.00 in0.0 mm 0.11 in2.8 mm
09:21 AM 56.8°F13.8°C 53.6°F12.0°C 89% 13.3 mph S21.4 kmh S 21.0 mph33.8 kmh 29.17 in987.8 mb 0.00 in0.0 mm 0.00 in0.0 mm 0.11 in2.8 mm
09:22 AM 56.8°F13.8°C 53.3°F11.8°C 88% 16.8 mph S27.0 kmh S 24.0 mph38.6 kmh 29.17 in987.8 mb 0.00 in0.0 mm 0.00 in0.0 mm 0.11 in2.8 mm
09:23 AM 56.8°F13.8°C 53.6°F12.0°C 89% 12.3 mph S19.8 kmh S 24.0 mph38.6 kmh 29.17 in987.8 mb 0.00 in0.0 mm 0.00 in0.0 mm 0.11 in2.8 mm
09:24 AM 56.8°F13.8°C 53.6°F12.0°C 89% 15.3 mph S24.6 kmh S 25.0 mph40.2 kmh 29.17 in987.8 mb 0.00 in0.0 mm 0.00 in0.0 mm 0.11 in2.8 mm
09:25 AM 56.8°F13.8°C 53.6°F12.0°C 89% 16.6 mph SSE26.7 kmh SSE 25.0 mph40.2 kmh 29.17 in987.8 mb 0.00 in0.0 mm 0.00 in0.0 mm 0.11 in2.8 mm
09:26 AM 56.8°F13.8°C 53.6°F12.0°C 89% 13.4 mph S21.6 kmh S 26.0 mph41.8 kmh 29.17 in987.8 mb 0.00 in0.0 mm 0.00 in0.0 mm 0.11 in2.8 mm
09:27 AM 56.8°F13.8°C 53.6°F12.0°C 89% 13.7 mph S22.0 kmh S 26.0 mph41.8 kmh 29.17 in987.8 mb 0.00 in0.0 mm 0.00 in0.0 mm 0.11 in2.8 mm
09:28 AM 56.7°F13.7°C 53.5°F11.9°C 89% 12.8 mph S20.6 kmh S 19.0 mph30.6 kmh 29.17 in987.8 mb 0.00 in0.0 mm 0.00 in0.0 mm 0.11 in2.8 mm
09:29 AM 56.7°F13.7°C 53.5°F11.9°C 89% 12.1 mph S19.5 kmh S 18.0 mph29.0 kmh 29.17 in987.8 mb 0.00 in0.0 mm 0.00 in0.0 mm 0.11 in2.8 mm
09:30 AM 56.6°F13.7°C 53.4°F11.9°C 89% 11.8 mph S19.0 kmh S 19.0 mph30.6 kmh 29.17 in987.8 mb 0.00 in0.0 mm 0.00 in0.0 mm 0.11 in2.8 mm
09:31 AM 56.7°F13.7°C 53.5°F11.9°C 89% 10.9 mph S17.5 kmh S 19.0 mph30.6 kmh 29.17 in987.8 mb 0.00 in0.0 mm 0.00 in0.0 mm 0.11 in2.8 mm
09:32 AM 56.6°F13.7°C 53.4°F11.9°C 89% 11.5 mph S18.5 kmh S 18.0 mph29.0 kmh 29.17 in987.8 mb 0.00 in0.0 mm 0.00 in0.0 mm 0.11 in2.8 mm
09:33 AM 56.6°F13.7°C 53.4°F11.9°C 89% 15.6 mph S25.1 kmh S 23.0 mph37.0 kmh 29.17 in987.8 mb 0.00 in0.0 mm 0.00 in0.0 mm 0.11 in2.8 mm
09:34 AM 56.6°F13.7°C 53.7°F12.1°C 90% 13.7 mph S22.0 kmh S 23.0 mph37.0 kmh 29.17 in987.8 mb 0.00 in0.0 mm 0.00 in0.0 mm 0.11 in2.8 mm
09:35 AM 56.5°F13.6°C 53.6°F12.0°C 90% 10.4 mph S16.7 kmh S 17.0 mph27.4 kmh 29.17 in987.8 mb 0.00 in0.0 mm 0.00 in0.0 mm 0.11 in2.8 mm
09:36 AM 56.5°F13.6°C 53.6°F12.0°C 90% 11.5 mph SSE18.5 kmh SSE 16.0 mph25.7 kmh 29.17 in987.8 mb 0.00 in0.0 mm 0.00 in0.0 mm 0.11 in2.8 mm
09:37 AM 56.5°F13.6°C 53.6°F12.0°C 90% 12.2 mph S19.6 kmh S 19.0 mph30.6 kmh 29.17 in987.8 mb 0.00 in0.0 mm 0.00 in0.0 mm 0.11 in2.8 mm
09:38 AM 56.5°F13.6°C 53.6°F12.0°C 90% 11.0 mph S17.7 kmh S 19.0 mph30.6 kmh 29.17 in987.8 mb 0.00 in0.0 mm 0.00 in0.0 mm 0.11 in2.8 mm
09:39 AM 56.4°F13.6°C 53.5°F11.9°C 90% 11.8 mph S19.0 kmh S 18.0 mph29.0 kmh 29.17 in987.8 mb 0.00 in0.0 mm 0.00 in0.0 mm 0.11 in2.8 mm
09:40 AM 56.5°F13.6°C 53.6°F12.0°C 90% 11.8 mph S19.0 kmh S 18.0 mph29.0 kmh 29.17 in987.8 mb 0.00 in0.0 mm 0.00 in0.0 mm 0.11 in2.8 mm
09:41 AM 56.5°F13.6°C 53.6°F12.0°C 90% 11.9 mph S19.2 kmh S 17.0 mph27.4 kmh 29.17 in987.8 mb 0.00 in0.0 mm 0.00 in0.0 mm 0.11 in2.8 mm
09:42 AM 56.4°F13.6°C 53.2°F11.8°C 89% 11.1 mph S17.9 kmh S 18.0 mph29.0 kmh 29.17 in987.8 mb 0.00 in0.0 mm 0.00 in0.0 mm 0.11 in2.8 mm
09:43 AM 56.5°F13.6°C 53.0°F11.7°C 88% 12.4 mph S20.0 kmh S 18.0 mph29.0 kmh 29.17 in987.8 mb 0.00 in0.0 mm 0.00 in0.0 mm 0.11 in2.8 mm
09:44 AM 56.5°F13.6°C 52.7°F11.5°C 87% 15.1 mph S24.3 kmh S 20.0 mph32.2 kmh 29.17 in987.8 mb 0.00 in0.0 mm 0.00 in0.0 mm 0.11 in2.8 mm
09:45 AM 56.5°F13.6°C 52.7°F11.5°C 87% 11.8 mph S19.0 kmh S 20.0 mph32.2 kmh 29.17 in987.8 mb 0.00 in0.0 mm 0.00 in0.0 mm 0.11 in2.8 mm
09:46 AM 56.6°F13.7°C 53.1°F11.7°C 88% 11.6 mph S18.7 kmh S 15.0 mph24.1 kmh 29.17 in987.8 mb 0.00 in0.0 mm 0.00 in0.0 mm 0.11 in2.8 mm
09:47 AM 56.5°F13.6°C 52.7°F11.5°C 87% 12.5 mph S20.1 kmh S 16.0 mph25.7 kmh 29.17 in987.8 mb 0.00 in0.0 mm 0.00 in0.0 mm 0.11 in2.8 mm
09:48 AM 56.6°F13.7°C 53.1°F11.7°C 88% 9.0 mph S14.5 kmh S 16.0 mph25.7 kmh 29.17 in987.8 mb 0.00 in0.0 mm 0.00 in0.0 mm 0.11 in2.8 mm
09:49 AM 56.7°F13.7°C 53.2°F11.8°C 88% 10.3 mph S16.6 kmh S 14.0 mph22.5 kmh 29.17 in987.8 mb 0.00 in0.0 mm 0.00 in0.0 mm 0.11 in2.8 mm
09:50 AM 56.7°F13.7°C 53.2°F11.8°C 88% 11.9 mph S19.2 kmh S 18.0 mph29.0 kmh 29.17 in987.8 mb 0.00 in0.0 mm 0.00 in0.0 mm 0.11 in2.8 mm
09:51 AM 56.7°F13.7°C 53.2°F11.8°C 88% 6.5 mph SSE10.5 kmh SSE 18.0 mph29.0 kmh 29.17 in987.8 mb 0.00 in0.0 mm 0.00 in0.0 mm 0.11 in2.8 mm
09:52 AM 56.7°F13.7°C 53.5°F11.9°C 89% 8.0 mph S12.9 kmh S 11.0 mph17.7 kmh 29.17 in987.8 mb 0.00 in0.0 mm 0.00 in0.0 mm 0.11 in2.8 mm
09:53 AM 56.7°F13.7°C 53.5°F11.9°C 89% 11.3 mph S18.2 kmh S 17.0 mph27.4 kmh 29.17 in987.8 mb 0.00 in0.0 mm 0.00 in0.0 mm 0.11 in2.8 mm
09:54 AM 56.7°F13.7°C 53.5°F11.9°C 89% 9.1 mph S14.6 kmh S 17.0 mph27.4 kmh 29.17 in987.8 mb 0.00 in0.0 mm 0.00 in0.0 mm 0.11 in2.8 mm
09:55 AM 56.7°F13.7°C 53.2°F11.8°C 88% 11.0 mph S17.7 kmh S 17.0 mph27.4 kmh 29.17 in987.8 mb 0.00 in0.0 mm 0.00 in0.0 mm 0.11 in2.8 mm
09:56 AM 56.8°F13.8°C 53.6°F12.0°C 89% 7.2 mph S11.6 kmh S 15.0 mph24.1 kmh 29.17 in987.8 mb 0.00 in0.0 mm 0.00 in0.0 mm 0.11 in2.8 mm
09:57 AM 56.7°F13.7°C 52.9°F11.6°C 87% 11.6 mph SSE18.7 kmh SSE 16.0 mph25.7 kmh 29.17 in987.8 mb 0.00 in0.0 mm 0.00 in0.0 mm 0.11 in2.8 mm
09:58 AM 56.8°F13.8°C 53.3°F11.8°C 88% 7.6 mph S12.2 kmh S 16.0 mph25.7 kmh 29.17 in987.8 mb 0.00 in0.0 mm 0.00 in0.0 mm 0.11 in2.8 mm
09:59 AM 56.8°F13.8°C 53.3°F11.8°C 88% 10.4 mph S16.7 kmh S 16.0 mph25.7 kmh 29.17 in987.8 mb 0.00 in0.0 mm 0.00 in0.0 mm 0.11 in2.8 mm
10:00 AM 56.8°F13.8°C 53.0°F11.7°C 87% 8.8 mph SSE14.2 kmh SSE 16.0 mph25.7 kmh 29.17 in987.8 mb 0.00 in0.0 mm 0.00 in0.0 mm 0.11 in2.8 mm
10:01 AM 56.9°F13.8°C 53.1°F11.7°C 87% 10.7 mph SSE17.2 kmh SSE 15.0 mph24.1 kmh 29.17 in987.8 mb 0.00 in0.0 mm 0.00 in0.0 mm 0.11 in2.8 mm
10:02 AM 56.9°F13.8°C 53.1°F11.7°C 87% 10.3 mph SSE16.6 kmh SSE 15.0 mph24.1 kmh 29.17 in987.8 mb 0.00 in0.0 mm 0.00 in0.0 mm 0.11 in2.8 mm
10:03 AM 56.9°F13.8°C 53.1°F11.7°C 87% 11.6 mph S18.7 kmh S 15.0 mph24.1 kmh 29.17 in987.8 mb 0.00 in0.0 mm 0.00 in0.0 mm 0.11 in2.8 mm
10:04 AM 57.0°F13.9°C 53.2°F11.8°C 87% 10.7 mph SSE17.2 kmh SSE 16.0 mph25.7 kmh 29.17 in987.8 mb 0.00 in0.0 mm 0.00 in0.0 mm 0.11 in2.8 mm
10:05 AM 57.0°F13.9°C 53.5°F11.9°C 88% 11.1 mph SSE17.9 kmh SSE 16.0 mph25.7 kmh 29.17 in987.8 mb 0.00 in0.0 mm 0.00 in0.0 mm 0.11 in2.8 mm
10:06 AM 57.1°F13.9°C 53.6°F12.0°C 88% 7.5 mph SSE12.1 kmh SSE 14.0 mph22.5 kmh 29.16 in987.5 mb 0.00 in0.0 mm 0.00 in0.0 mm 0.11 in2.8 mm
10:07 AM 57.1°F13.9°C 53.6°F12.0°C 88% 8.6 mph SSE13.8 kmh SSE 13.0 mph20.9 kmh 29.16 in987.5 mb 0.00 in0.0 mm 0.00 in0.0 mm 0.11 in2.8 mm
10:08 AM 57.1°F13.9°C 53.6°F12.0°C 88% 9.1 mph SSE14.6 kmh SSE 14.0 mph22.5 kmh 29.16 in987.5 mb 0.00 in0.0 mm 0.00 in0.0 mm 0.11 in2.8 mm
10:09 AM 57.1°F13.9°C 53.6°F12.0°C 88% 8.4 mph SSE13.5 kmh SSE 14.0 mph22.5 kmh 29.16 in987.5 mb 0.00 in0.0 mm 0.00 in0.0 mm 0.11 in2.8 mm
10:10 AM 57.1°F13.9°C 53.9°F12.2°C 89% 10.5 mph SSE16.9 kmh SSE 14.0 mph22.5 kmh 29.16 in987.5 mb 0.00 in0.0 mm 0.00 in0.0 mm 0.11 in2.8 mm
10:11 AM 57.1°F13.9°C 53.9°F12.2°C 89% 11.8 mph SE19.0 kmh SE 16.0 mph25.7 kmh 29.16 in987.5 mb 0.00 in0.0 mm 0.00 in0.0 mm 0.11 in2.8 mm
10:12 AM 57.2°F14.0°C 54.0°F12.2°C 89% 10.2 mph SSE16.4 kmh SSE 16.0 mph25.7 kmh 29.17 in987.8 mb 0.00 in0.0 mm 0.00 in0.0 mm 0.11 in2.8 mm
10:13 AM 57.2°F14.0°C 53.7°F12.1°C 88% 8.9 mph S14.3 kmh S 16.0 mph25.7 kmh 29.17 in987.8 mb 0.00 in0.0 mm 0.00 in0.0 mm 0.11 in2.8 mm
10:14 AM 57.2°F14.0°C 53.7°F12.1°C 88% 9.2 mph SSE14.8 kmh SSE 16.0 mph25.7 kmh 29.17 in987.8 mb 0.00 in0.0 mm 0.00 in0.0 mm 0.11 in2.8 mm
10:15 AM 57.2°F14.0°C 53.7°F12.1°C 88% 10.2 mph S16.4 kmh S 16.0 mph25.7 kmh 29.17 in987.8 mb 0.00 in0.0 mm 0.00 in0.0 mm 0.11 in2.8 mm
10:16 AM 57.2°F14.0°C 53.7°F12.1°C 88% 8.1 mph S13.0 kmh S 15.0 mph24.1 kmh 29.17 in987.8 mb 0.00 in0.0 mm 0.00 in0.0 mm 0.11 in2.8 mm
10:17 AM 57.3°F14.1°C 53.8°F12.1°C 88% 11.2 mph S18.0 kmh S 18.0 mph29.0 kmh 29.17 in987.8 mb 0.00 in0.0 mm 0.00 in0.0 mm 0.11 in2.8 mm
10:18 AM 57.3°F14.1°C 53.8°F12.1°C 88% 8.5 mph S13.7 kmh S 18.0 mph29.0 kmh 29.17 in987.8 mb 0.00 in0.0 mm 0.00 in0.0 mm 0.11 in2.8 mm
10:19 AM 57.3°F14.1°C 53.8°F12.1°C 88% 7.9 mph S12.7 kmh S 16.0 mph25.7 kmh 29.17 in987.8 mb 0.00 in0.0 mm 0.00 in0.0 mm 0.11 in2.8 mm
10:20 AM 57.3°F14.1°C 53.8°F12.1°C 88% 11.8 mph S19.0 kmh S 16.0 mph25.7 kmh 29.17 in987.8 mb 0.00 in0.0 mm 0.00 in0.0 mm 0.11 in2.8 mm
10:21 AM 57.3°F14.1°C 53.5°F11.9°C 87% 11.2 mph S18.0 kmh S 16.0 mph25.7 kmh 29.17 in987.8 mb 0.00 in0.0 mm 0.00 in0.0 mm 0.11 in2.8 mm
10:22 AM 57.3°F14.1°C 53.5°F11.9°C 87% 7.7 mph S12.4 kmh S 15.0 mph24.1 kmh 29.17 in987.8 mb 0.00 in0.0 mm 0.00 in0.0 mm 0.11 in2.8 mm
10:23 AM 57.4°F14.1°C 53.9°F12.2°C 88% 9.6 mph S15.4 kmh S 13.0 mph20.9 kmh 29.17 in987.8 mb 0.00 in0.0 mm 0.00 in0.0 mm 0.11 in2.8 mm
10:24 AM 57.4°F14.1°C 53.9°F12.2°C 88% 10.1 mph S16.3 kmh S 18.0 mph29.0 kmh 29.17 in987.8 mb 0.00 in0.0 mm 0.00 in0.0 mm 0.11 in2.8 mm
10:25 AM 57.3°F14.1°C 53.8°F12.1°C 88% 8.4 mph S13.5 kmh S 18.0 mph29.0 kmh 29.17 in987.8 mb 0.00 in0.0 mm 0.00 in0.0 mm 0.11 in2.8 mm
10:26 AM 57.4°F14.1°C 53.9°F12.2°C 88% 8.0 mph SSE12.9 kmh SSE 14.0 mph22.5 kmh 29.17 in987.8 mb 0.00 in0.0 mm 0.00 in0.0 mm 0.11 in2.8 mm
10:27 AM 57.3°F14.1°C 53.5°F11.9°C 87% 10.1 mph S16.3 kmh S 14.0 mph22.5 kmh 29.17 in987.8 mb 0.00 in0.0 mm 0.00 in0.0 mm 0.11 in2.8 mm
10:28 AM 57.3°F14.1°C 53.5°F11.9°C 87% 8.7 mph SSE14.0 kmh SSE 17.0 mph27.4 kmh 29.17 in987.8 mb 0.00 in0.0 mm 0.00 in0.0 mm 0.11 in2.8 mm
10:29 AM 57.3°F14.1°C 53.5°F11.9°C 87% 10.9 mph SSE17.5 kmh SSE 17.0 mph27.4 kmh 29.17 in987.8 mb 0.00 in0.0 mm 0.00 in0.0 mm 0.11 in2.8 mm
10:30 AM 57.3°F14.1°C 53.8°F12.1°C 88% 11.1 mph SE17.9 kmh SE 16.0 mph25.7 kmh 29.17 in987.8 mb 0.00 in0.0 mm 0.00 in0.0 mm 0.11 in2.8 mm
10:31 AM 57.3°F14.1°C 53.8°F12.1°C 88% 10.7 mph SSE17.2 kmh SSE 17.0 mph27.4 kmh 29.17 in987.8 mb 0.00 in0.0 mm 0.00 in0.0 mm 0.11 in2.8 mm
10:32 AM 57.3°F14.1°C 53.8°F12.1°C 88% 10.1 mph SSE16.3 kmh SSE 17.0 mph27.4 kmh 29.17 in987.8 mb 0.00 in0.0 mm 0.00 in0.0 mm 0.11 in2.8 mm
10:33 AM 57.3°F14.1°C 53.5°F11.9°C 87% 10.8 mph SSE17.4 kmh SSE 15.0 mph24.1 kmh 29.17 in987.8 mb 0.00 in0.0 mm 0.00 in0.0 mm 0.11 in2.8 mm
10:34 AM 57.3°F14.1°C 53.5°F11.9°C 87% 10.8 mph SSE17.4 kmh SSE 17.0 mph27.4 kmh 29.18 in988.1 mb 0.00 in0.0 mm 0.00 in0.0 mm 0.11 in2.8 mm
10:35 AM 57.3°F14.1°C 53.5°F11.9°C 87% 10.6 mph SSE17.1 kmh SSE 17.0 mph27.4 kmh 29.17 in987.8 mb 0.00 in0.0 mm 0.00 in0.0 mm 0.11 in2.8 mm
10:36 AM 57.3°F14.1°C 53.5°F11.9°C 87% 10.3 mph SSE16.6 kmh SSE 16.0 mph25.7 kmh 29.18 in988.1 mb 0.00 in0.0 mm 0.00 in0.0 mm 0.11 in2.8 mm
10:37 AM 57.3°F14.1°C 53.5°F11.9°C 87% 11.7 mph SSE18.8 kmh SSE 17.0 mph27.4 kmh 29.18 in988.1 mb 0.00 in0.0 mm 0.00 in0.0 mm 0.11 in2.8 mm
10:38 AM 57.3°F14.1°C 53.5°F11.9°C 87% 12.0 mph SSE19.3 kmh SSE 17.0 mph27.4 kmh 29.18 in988.1 mb 0.00 in0.0 mm 0.00 in0.0 mm 0.11 in2.8 mm
10:39 AM 57.3°F14.1°C 53.5°F11.9°C 87% 11.4 mph S18.3 kmh S 18.0 mph29.0 kmh 29.18 in988.1 mb 0.00 in0.0 mm 0.00 in0.0 mm 0.11 in2.8 mm
10:40 AM 57.4°F14.1°C 53.6°F12.0°C 87% 10.4 mph S16.7 kmh S 18.0 mph29.0 kmh 29.18 in988.1 mb 0.00 in0.0 mm 0.00 in0.0 mm 0.11 in2.8 mm
10:41 AM 57.4°F14.1°C 53.9°F12.2°C 88% 8.9 mph S14.3 kmh S 15.0 mph24.1 kmh 29.18 in988.1 mb 0.00 in0.0 mm 0.00 in0.0 mm 0.11 in2.8 mm
10:42 AM 57.5°F14.2°C 54.0°F12.2°C 88% 7.9 mph S12.7 kmh S 16.0 mph25.7 kmh 29.18 in988.1 mb 0.00 in0.0 mm 0.00 in0.0 mm 0.11 in2.8 mm
10:43 AM 57.5°F14.2°C 54.0°F12.2°C 88% 9.9 mph S15.9 kmh S 16.0 mph25.7 kmh 29.18 in988.1 mb 0.00 in0.0 mm 0.00 in0.0 mm 0.11 in2.8 mm
10:44 AM 57.5°F14.2°C 54.0°F12.2°C 88% 8.7 mph S14.0 kmh S 15.0 mph24.1 kmh 29.18 in988.1 mb 0.00 in0.0 mm 0.00 in0.0 mm 0.11 in2.8 mm
10:45 AM 57.5°F14.2°C 53.7°F12.1°C 87% 6.2 mph S10.0 kmh S 12.0 mph19.3 kmh 29.18 in988.1 mb 0.00 in0.0 mm 0.00 in0.0 mm 0.11 in2.8 mm
10:46 AM 57.6°F14.2°C 54.1°F12.3°C 88% 6.1 mph S9.8 kmh S 11.0 mph17.7 kmh 29.18 in988.1 mb 0.00 in0.0 mm 0.00 in0.0 mm 0.11 in2.8 mm
10:47 AM 57.6°F14.2°C 54.1°F12.3°C 88% 7.1 mph S11.4 kmh S 11.0 mph17.7 kmh 29.18 in988.1 mb 0.00 in0.0 mm 0.00 in0.0 mm 0.11 in2.8 mm
10:48 AM 57.6°F14.2°C 53.8°F12.1°C 87% 8.1 mph S13.0 kmh S 10.0 mph16.1 kmh 29.18 in988.1 mb 0.00 in0.0 mm 0.00 in0.0 mm 0.11 in2.8 mm
10:49 AM 57.7°F14.3°C 53.9°F12.2°C 87% 7.4 mph S11.9 kmh S 11.0 mph17.7 kmh 29.18 in988.1 mb 0.00 in0.0 mm 0.00 in0.0 mm 0.11 in2.8 mm
10:50 AM 57.7°F14.3°C 53.9°F12.2°C 87% 7.4 mph S11.9 kmh S 12.0 mph19.3 kmh 29.18 in988.1 mb 0.00 in0.0 mm 0.00 in0.0 mm 0.11 in2.8 mm
10:51 AM 57.7°F14.3°C 53.9°F12.2°C 87% 8.0 mph S12.9 kmh S 13.0 mph20.9 kmh 29.18 in988.1 mb 0.00 in0.0 mm 0.00 in0.0 mm 0.11 in2.8 mm
10:52 AM 57.7°F14.3°C 53.5°F11.9°C 86% 5.5 mph S8.9 kmh S 13.0 mph20.9 kmh 29.18 in988.1 mb 0.00 in0.0 mm 0.00 in0.0 mm 0.11 in2.8 mm
10:53 AM 57.8°F14.3°C 54.0°F12.2°C 87% 7.5 mph S12.1 kmh S 12.0 mph19.3 kmh 29.18 in988.1 mb 0.00 in0.0 mm 0.00 in0.0 mm 0.11 in2.8 mm
10:54 AM 57.8°F14.3°C 54.0°F12.2°C 87% 8.9 mph S14.3 kmh S 14.0 mph22.5 kmh 29.18 in988.1 mb 0.00 in0.0 mm 0.00 in0.0 mm 0.11 in2.8 mm
10:55 AM 57.8°F14.3°C 53.6°F12.0°C 86% 13.4 mph SSE21.6 kmh SSE 20.0 mph32.2 kmh 29.18 in988.1 mb 0.00 in0.0 mm 0.00 in0.0 mm 0.11 in2.8 mm
10:56 AM 57.8°F14.3°C 53.6°F12.0°C 86% 12.4 mph S20.0 kmh S 20.0 mph32.2 kmh 29.18 in988.1 mb 0.00 in0.0 mm 0.00 in0.0 mm 0.11 in2.8 mm
10:57 AM 57.8°F14.3°C 53.6°F12.0°C 86% 12.5 mph S20.1 kmh S 20.0 mph32.2 kmh 29.18 in988.1 mb 0.00 in0.0 mm 0.00 in0.0 mm 0.11 in2.8 mm
10:58 AM 57.9°F14.4°C 53.7°F12.1°C 86% 10.6 mph S17.1 kmh S 17.0 mph27.4 kmh 29.18 in988.1 mb 0.00 in0.0 mm 0.00 in0.0 mm 0.11 in2.8 mm
10:59 AM 57.9°F14.4°C 53.7°F12.1°C 86% 10.9 mph S17.5 kmh S 16.0 mph25.7 kmh 29.18 in988.1 mb 0.00 in0.0 mm 0.00 in0.0 mm 0.11 in2.8 mm
11:00 AM 57.9°F14.4°C 53.7°F12.1°C 86% 7.9 mph S12.7 kmh S 15.0 mph24.1 kmh 29.18 in988.1 mb 0.00 in0.0 mm 0.00 in0.0 mm 0.11 in2.8 mm
11:01 AM 58.0°F14.4°C 53.8°F12.1°C 86% 11.7 mph S18.8 kmh S 17.0 mph27.4 kmh 29.19 in988.5 mb 0.00 in0.0 mm 0.00 in0.0 mm 0.11 in2.8 mm
11:02 AM 58.1°F14.5°C 53.9°F12.2°C 86% 14.8 mph S23.8 kmh S 18.0 mph29.0 kmh 29.18 in988.1 mb 0.00 in0.0 mm 0.00 in0.0 mm 0.11 in2.8 mm
11:03 AM 58.1°F14.5°C 53.6°F12.0°C 85% 11.2 mph S18.0 kmh S 18.0 mph29.0 kmh 29.18 in988.1 mb 0.00 in0.0 mm 0.00 in0.0 mm 0.11 in2.8 mm
11:04 AM 58.1°F14.5°C 53.9°F12.2°C 86% 9.7 mph S15.6 kmh S 16.0 mph25.7 kmh 29.18 in988.1 mb 0.00 in0.0 mm 0.00 in0.0 mm 0.11 in2.8 mm
11:05 AM 58.2°F14.6°C 53.7°F12.1°C 85% 9.3 mph S15.0 kmh S 12.0 mph19.3 kmh 29.18 in988.1 mb 0.00 in0.0 mm 0.00 in0.0 mm 0.11 in2.8 mm
11:06 AM 58.3°F14.6°C 54.1°F12.3°C 86% 8.5 mph S13.7 kmh S 12.0 mph19.3 kmh 29.18 in988.1 mb 0.00 in0.0 mm 0.00 in0.0 mm 0.11 in2.8 mm
11:07 AM 58.3°F14.6°C 53.8°F12.1°C 85% 13.0 mph SSW20.9 kmh SSW 19.0 mph30.6 kmh 29.18 in988.1 mb 0.00 in0.0 mm 0.00 in0.0 mm 0.11 in2.8 mm
11:08 AM 58.4°F14.7°C 53.9°F12.2°C 85% 9.5 mph S15.3 kmh S 19.0 mph30.6 kmh 29.19 in988.5 mb 0.00 in0.0 mm 0.00 in0.0 mm 0.11 in2.8 mm
11:09 AM 58.4°F14.7°C 53.9°F12.2°C 85% 11.6 mph S18.7 kmh S 18.0 mph29.0 kmh 29.18 in988.1 mb 0.00 in0.0 mm 0.00 in0.0 mm 0.11 in2.8 mm
11:10 AM 58.4°F14.7°C 53.6°F12.0°C 84% 12.1 mph S19.5 kmh S 18.0 mph29.0 kmh 29.19 in988.5 mb 0.00 in0.0 mm 0.00 in0.0 mm 0.11 in2.8 mm
11:11 AM 58.4°F14.7°C 53.6°F12.0°C 84% 11.8 mph S19.0 kmh S 18.0 mph29.0 kmh 29.19 in988.5 mb 0.00 in0.0 mm 0.00 in0.0 mm 0.11 in2.8 mm
11:12 AM 58.3°F14.6°C 53.2°F11.8°C 83% 14.3 mph S23.0 kmh S 21.0 mph33.8 kmh 29.19 in988.5 mb 0.00 in0.0 mm 0.00 in0.0 mm 0.11 in2.8 mm
11:13 AM 58.3°F14.6°C 53.5°F11.9°C 84% 10.2 mph S16.4 kmh S 21.0 mph33.8 kmh 29.19 in988.5 mb 0.00 in0.0 mm 0.00 in0.0 mm 0.11 in2.8 mm
11:14 AM 58.3°F14.6°C 53.8°F12.1°C 85% 7.8 mph S12.6 kmh S 17.0 mph27.4 kmh 29.19 in988.5 mb 0.00 in0.0 mm 0.00 in0.0 mm 0.11 in2.8 mm
11:15 AM 58.3°F14.6°C 53.5°F11.9°C 84% 11.1 mph S17.9 kmh S 15.0 mph24.1 kmh 29.19 in988.5 mb 0.00 in0.0 mm 0.00 in0.0 mm 0.11 in2.8 mm
11:16 AM 58.3°F14.6°C 53.5°F11.9°C 84% 10.2 mph S16.4 kmh S 15.0 mph24.1 kmh 29.19 in988.5 mb 0.00 in0.0 mm 0.00 in0.0 mm 0.11 in2.8 mm
11:17 AM 58.3°F14.6°C 53.5°F11.9°C 84% 5.8 mph S9.3 kmh S 12.0 mph19.3 kmh 29.19 in988.5 mb 0.00 in0.0 mm 0.00 in0.0 mm 0.11 in2.8 mm
11:18 AM 58.3°F14.6°C 53.5°F11.9°C 84% 10.3 mph S16.6 kmh S 16.0 mph25.7 kmh 29.19 in988.5 mb 0.00 in0.0 mm 0.00 in0.0 mm 0.11 in2.8 mm
11:19 AM 58.3°F14.6°C 53.2°F11.8°C 83% 11.0 mph S17.7 kmh S 19.0 mph30.6 kmh 29.19 in988.5 mb 0.00 in0.0 mm 0.00 in0.0 mm 0.11 in2.8 mm
11:20 AM 58.3°F14.6°C 53.2°F11.8°C 83% 10.6 mph S17.1 kmh S 19.0 mph30.6 kmh 29.19 in988.5 mb 0.00 in0.0 mm 0.00 in0.0 mm 0.11 in2.8 mm
11:21 AM 58.3°F14.6°C 52.8°F11.6°C 82% 11.5 mph S18.5 kmh S 17.0 mph27.4 kmh 29.19 in988.5 mb 0.00 in0.0 mm 0.00 in0.0 mm 0.11 in2.8 mm
11:22 AM 58.3°F14.6°C 53.2°F11.8°C 83% 9.1 mph S14.6 kmh S 16.0 mph25.7 kmh 29.19 in988.5 mb 0.00 in0.0 mm 0.00 in0.0 mm 0.11 in2.8 mm
11:23 AM 58.4°F14.7°C 53.3°F11.8°C 83% 10.4 mph S16.7 kmh S 15.0 mph24.1 kmh 29.19 in988.5 mb 0.00 in0.0 mm 0.00 in0.0 mm 0.11 in2.8 mm
11:24 AM 58.4°F14.7°C 52.9°F11.6°C 82% 10.4 mph S16.7 kmh S 15.0 mph24.1 kmh 29.19 in988.5 mb 0.00 in0.0 mm 0.00 in0.0 mm 0.11 in2.8 mm
11:25 AM 58.4°F14.7°C 52.9°F11.6°C 82% 9.7 mph S15.6 kmh S 15.0 mph24.1 kmh 29.19 in988.5 mb 0.00 in0.0 mm 0.00 in0.0 mm 0.11 in2.8 mm
11:26 AM 58.4°F14.7°C 53.3°F11.8°C 83% 10.1 mph S16.3 kmh S 15.0 mph24.1 kmh 29.19 in988.5 mb 0.00 in0.0 mm 0.00 in0.0 mm 0.11 in2.8 mm
11:27 AM 58.5°F14.7°C 53.4°F11.9°C 83% 11.2 mph S18.0 kmh S 14.0 mph22.5 kmh 29.19 in988.5 mb 0.00 in0.0 mm 0.00 in0.0 mm 0.11 in2.8 mm
11:28 AM 58.5°F14.7°C 53.4°F11.9°C 83% 10.4 mph S16.7 kmh S 14.0 mph22.5 kmh 29.19 in988.5 mb 0.00 in0.0 mm 0.00 in0.0 mm 0.11 in2.8 mm
11:29 AM 58.6°F14.8°C 53.5°F11.9°C 83% 8.7 mph S14.0 kmh S 12.0 mph19.3 kmh 29.19 in988.5 mb 0.00 in0.0 mm 0.00 in0.0 mm 0.11 in2.8 mm
11:30 AM 58.6°F14.8°C 53.5°F11.9°C 83% 5.8 mph S9.3 kmh S 12.0 mph19.3 kmh 29.19 in988.5 mb 0.00 in0.0 mm 0.00 in0.0 mm 0.11 in2.8 mm
11:31 AM 58.7°F14.8°C 53.9°F12.2°C 84% 7.9 mph S12.7 kmh S 13.0 mph20.9 kmh 29.19 in988.5 mb 0.00 in0.0 mm 0.00 in0.0 mm 0.11 in2.8 mm
11:32 AM 58.7°F14.8°C 53.5°F11.9°C 83% 9.6 mph S15.4 kmh S 14.0 mph22.5 kmh 29.19 in988.5 mb 0.00 in0.0 mm 0.00 in0.0 mm 0.11 in2.8 mm
11:33 AM 58.8°F14.9°C 53.6°F12.0°C 83% 13.7 mph S22.0 kmh S 19.0 mph30.6 kmh 29.19 in988.5 mb 0.00 in0.0 mm 0.00 in0.0 mm 0.11 in2.8 mm
11:34 AM 58.8°F14.9°C 53.0°F11.7°C 81% 14.0 mph S22.5 kmh S 21.0 mph33.8 kmh 29.19 in988.5 mb 0.00 in0.0 mm 0.00 in0.0 mm 0.11 in2.8 mm
11:35 AM 58.8°F14.9°C 53.0°F11.7°C 81% 13.0 mph S20.9 kmh S 21.0 mph33.8 kmh 29.19 in988.5 mb 0.00 in0.0 mm 0.00 in0.0 mm 0.11 in2.8 mm
11:36 AM 58.8°F14.9°C 53.3°F11.8°C 82% 10.0 mph S16.1 kmh S 18.0 mph29.0 kmh 29.19 in988.5 mb 0.00 in0.0 mm 0.00 in0.0 mm 0.11 in2.8 mm
11:37 AM 58.8°F14.9°C 53.6°F12.0°C 83% 10.9 mph S17.5 kmh S 18.0 mph29.0 kmh 29.19 in988.5 mb 0.00 in0.0 mm 0.00 in0.0 mm 0.11 in2.8 mm
11:38 AM 58.8°F14.9°C 53.3°F11.8°C 82% 11.5 mph S18.5 kmh S 16.0 mph25.7 kmh 29.19 in988.5 mb 0.00 in0.0 mm 0.00 in0.0 mm 0.11 in2.8 mm
11:39 AM 58.8°F14.9°C 53.3°F11.8°C 82% 13.4 mph S21.6 kmh S 17.0 mph27.4 kmh 29.19 in988.5 mb 0.00 in0.0 mm 0.00 in0.0 mm 0.11 in2.8 mm
11:40 AM 58.8°F14.9°C 53.3°F11.8°C 82% 13.4 mph S21.6 kmh S 20.0 mph32.2 kmh 29.19 in988.5 mb 0.00 in0.0 mm 0.00 in0.0 mm 0.11 in2.8 mm
11:41 AM 58.7°F14.8°C 53.2°F11.8°C 82% 11.4 mph S18.3 kmh S 20.0 mph32.2 kmh 29.19 in988.5 mb 0.00 in0.0 mm 0.00 in0.0 mm 0.11 in2.8 mm
11:42 AM 58.7°F14.8°C 53.5°F11.9°C 83% 10.4 mph S16.7 kmh S 17.0 mph27.4 kmh 29.19 in988.5 mb 0.00 in0.0 mm 0.00 in0.0 mm 0.11 in2.8 mm
11:43 AM 58.7°F14.8°C 53.2°F11.8°C 82% 13.3 mph S21.4 kmh S 21.0 mph33.8 kmh 29.19 in988.5 mb 0.00 in0.0 mm 0.00 in0.0 mm 0.11 in2.8 mm
11:44 AM 58.7°F14.8°C 53.2°F11.8°C 82% 10.7 mph S17.2 kmh S 21.0 mph33.8 kmh 29.19 in988.5 mb 0.00 in0.0 mm 0.00 in0.0 mm 0.11 in2.8 mm
11:45 AM 58.7°F14.8°C 53.5°F11.9°C 83% 10.5 mph S16.9 kmh S 20.0 mph32.2 kmh 29.19 in988.5 mb 0.00 in0.0 mm 0.00 in0.0 mm 0.11 in2.8 mm
11:46 AM 58.7°F14.8°C 53.5°F11.9°C 83% 12.9 mph S20.8 kmh S 20.0 mph32.2 kmh 29.19 in988.5 mb 0.00 in0.0 mm 0.00 in0.0 mm 0.11 in2.8 mm
11:47 AM 58.6°F14.8°C 53.1°F11.7°C 82% 11.9 mph S19.2 kmh S 17.0 mph27.4 kmh 29.19 in988.5 mb 0.00 in0.0 mm 0.00 in0.0 mm 0.11 in2.8 mm
11:48 AM 58.7°F14.8°C 53.2°F11.8°C 82% 10.6 mph S17.1 kmh S 15.0 mph24.1 kmh 29.19 in988.5 mb 0.00 in0.0 mm 0.00 in0.0 mm 0.11 in2.8 mm
11:49 AM 58.6°F14.8°C 53.1°F11.7°C 82% 9.1 mph SSW14.6 kmh SSW 14.0 mph22.5 kmh 29.19 in988.5 mb 0.00 in0.0 mm 0.00 in0.0 mm 0.11 in2.8 mm
11:50 AM 58.6°F14.8°C 53.5°F11.9°C 83% 12.8 mph SSW20.6 kmh SSW 16.0 mph25.7 kmh 29.19 in988.5 mb 0.00 in0.0 mm 0.00 in0.0 mm 0.11 in2.8 mm
11:51 AM 58.7°F14.8°C 53.2°F11.8°C 82% 15.7 mph SSW25.3 kmh SSW 21.0 mph33.8 kmh 29.19 in988.5 mb 0.00 in0.0 mm 0.00 in0.0 mm 0.11 in2.8 mm
11:52 AM 58.6°F14.8°C 52.8°F11.6°C 81% 11.7 mph S18.8 kmh S 21.0 mph33.8 kmh 29.19 in988.5 mb 0.00 in0.0 mm 0.00 in0.0 mm 0.11 in2.8 mm
11:53 AM 58.7°F14.8°C 52.9°F11.6°C 81% 13.8 mph S22.2 kmh S 19.0 mph30.6 kmh 29.19 in988.5 mb 0.00 in0.0 mm 0.00 in0.0 mm 0.11 in2.8 mm
11:54 AM 58.7°F14.8°C 53.2°F11.8°C 82% 11.3 mph S18.2 kmh S 19.0 mph30.6 kmh 29.19 in988.5 mb 0.00 in0.0 mm 0.00 in0.0 mm 0.11 in2.8 mm
11:55 AM 58.8°F14.9°C 53.3°F11.8°C 82% 11.8 mph S19.0 kmh S 16.0 mph25.7 kmh 29.19 in988.5 mb 0.00 in0.0 mm 0.00 in0.0 mm 0.11 in2.8 mm
11:56 AM 58.8°F14.9°C 53.0°F11.7°C 81% 13.3 mph SSW21.4 kmh SSW 18.0 mph29.0 kmh 29.19 in988.5 mb 0.00 in0.0 mm 0.00 in0.0 mm 0.11 in2.8 mm
11:57 AM 58.9°F14.9°C 53.4°F11.9°C 82% 9.9 mph SSW15.9 kmh SSW 18.0 mph29.0 kmh 29.19 in988.5 mb 0.00 in0.0 mm 0.00 in0.0 mm 0.11 in2.8 mm
11:58 AM 58.9°F14.9°C 53.1°F11.7°C 81% 9.9 mph S15.9 kmh S 18.0 mph29.0 kmh 29.19 in988.5 mb 0.00 in0.0 mm 0.00 in0.0 mm 0.11 in2.8 mm
11:59 AM 59.0°F15.0°C 53.5°F11.9°C 82% 8.3 mph SSW13.4 kmh SSW 18.0 mph29.0 kmh 29.19 in988.5 mb 0.00 in0.0 mm 0.00 in0.0 mm 0.11 in2.8 mm
12:00 PM 59.1°F15.1°C 53.6°F12.0°C 82% 12.8 mph SSW20.6 kmh SSW 17.0 mph27.4 kmh 29.19 in988.5 mb 0.00 in0.0 mm 0.00 in0.0 mm 0.11 in2.8 mm
12:01 PM 59.1°F15.1°C 53.3°F11.8°C 81% 12.3 mph S19.8 kmh S 17.0 mph27.4 kmh 29.19 in988.5 mb 0.00 in0.0 mm 0.00 in0.0 mm 0.11 in2.8 mm
12:02 PM 59.2°F15.1°C 53.4°F11.9°C 81% 9.4 mph S15.1 kmh S 17.0 mph27.4 kmh 29.20 in988.8 mb 0.00 in0.0 mm 0.00 in0.0 mm 0.11 in2.8 mm
12:03 PM 59.3°F15.2°C 53.5°F11.9°C 81% 11.9 mph S19.2 kmh S 17.0 mph27.4 kmh 29.19 in988.5 mb 0.00 in0.0 mm 0.00 in0.0 mm 0.11 in2.8 mm
12:04 PM 59.3°F15.2°C 53.5°F11.9°C 81% 11.8 mph S19.0 kmh S 18.0 mph29.0 kmh 29.19 in988.5 mb 0.00 in0.0 mm 0.00 in0.0 mm 0.11 in2.8 mm
12:05 PM 59.4°F15.2°C 53.6°F12.0°C 81% 11.1 mph S17.9 kmh S 18.0 mph29.0 kmh 29.19 in988.5 mb 0.00 in0.0 mm 0.00 in0.0 mm 0.11 in2.8 mm
12:06 PM 59.5°F15.3°C 53.7°F12.1°C 81% 9.1 mph SSW14.6 kmh SSW 14.0 mph22.5 kmh 29.19 in988.5 mb 0.00 in0.0 mm 0.00 in0.0 mm 0.11 in2.8 mm
12:07 PM 59.6°F15.3°C 53.8°F12.1°C 81% 12.9 mph SSW20.8 kmh SSW 16.0 mph25.7 kmh 29.19 in988.5 mb 0.00 in0.0 mm 0.00 in0.0 mm 0.11 in2.8 mm
12:08 PM 59.6°F15.3°C 53.4°F11.9°C 80% 11.8 mph SSW19.0 kmh SSW 16.0 mph25.7 kmh 29.19 in988.5 mb 0.00 in0.0 mm 0.00 in0.0 mm 0.11 in2.8 mm
12:09 PM 59.7°F15.4°C 53.9°F12.2°C 81% 11.0 mph S17.7 kmh S 15.0 mph24.1 kmh 29.19 in988.5 mb 0.00 in0.0 mm 0.00 in0.0 mm 0.11 in2.8 mm
12:10 PM 59.8°F15.4°C 54.0°F12.2°C 81% 10.2 mph S16.4 kmh S 13.0 mph20.9 kmh 29.19 in988.5 mb 0.00 in0.0 mm 0.00 in0.0 mm 0.11 in2.8 mm
12:11 PM 59.9°F15.5°C 54.1°F12.3°C 81% 10.1 mph SSW16.3 kmh SSW 15.0 mph24.1 kmh 29.19 in988.5 mb 0.00 in0.0 mm 0.00 in0.0 mm 0.11 in2.8 mm
12:12 PM 60.0°F15.6°C 54.1°F12.3°C 81% 8.9 mph SSW14.3 kmh SSW 15.0 mph24.1 kmh 29.19 in988.5 mb 0.00 in0.0 mm 0.00 in0.0 mm 0.11 in2.8 mm
12:13 PM 60.1°F15.6°C 54.2°F12.3°C 81% 9.0 mph S14.5 kmh S 12.0 mph19.3 kmh 29.19 in988.5 mb 0.00 in0.0 mm 0.00 in0.0 mm 0.11 in2.8 mm
12:14 PM 60.2°F15.7°C 54.3°F12.4°C 81% 11.2 mph S18.0 kmh S 16.0 mph25.7 kmh 29.19 in988.5 mb 0.00 in0.0 mm 0.00 in0.0 mm 0.11 in2.8 mm
12:15 PM 60.1°F15.6°C 53.9°F12.2°C 80% 11.9 mph SSW19.2 kmh SSW 16.0 mph25.7 kmh 29.19 in988.5 mb 0.00 in0.0 mm 0.00 in0.0 mm 0.11 in2.8 mm
12:16 PM 60.1°F15.6°C 53.9°F12.2°C 80% 9.9 mph S15.9 kmh S 15.0 mph24.1 kmh 29.19 in988.5 mb 0.00 in0.0 mm 0.00 in0.0 mm 0.11 in2.8 mm
12:17 PM 60.1°F15.6°C 53.9°F12.2°C 80% 9.4 mph S15.1 kmh S 15.0 mph24.1 kmh 29.19 in988.5 mb 0.00 in0.0 mm 0.00 in0.0 mm 0.11 in2.8 mm
12:18 PM 60.1°F15.6°C 54.2°F12.3°C 81% 7.2 mph S11.6 kmh S 15.0 mph24.1 kmh 29.19 in988.5 mb 0.00 in0.0 mm 0.00 in0.0 mm 0.11 in2.8 mm
12:19 PM 60.1°F15.6°C 54.2°F12.3°C 81% 14.3 mph S23.0 kmh S 19.0 mph30.6 kmh 29.19 in988.5 mb 0.00 in0.0 mm 0.00 in0.0 mm 0.11 in2.8 mm
12:20 PM 60.2°F15.7°C 53.7°F12.1°C 79% 12.5 mph S20.1 kmh S 19.0 mph30.6 kmh 29.19 in988.5 mb 0.00 in0.0 mm 0.00 in0.0 mm 0.11 in2.8 mm
12:21 PM 60.2°F15.7°C 53.7°F12.1°C 79% 10.8 mph SW17.4 kmh SW 18.0 mph29.0 kmh 29.20 in988.8 mb 0.00 in0.0 mm 0.00 in0.0 mm 0.11 in2.8 mm
12:22 PM 60.2°F15.7°C 54.0°F12.2°C 80% 9.7 mph SSW15.6 kmh SSW 16.0 mph25.7 kmh 29.20 in988.8 mb 0.00 in0.0 mm 0.00 in0.0 mm 0.11 in2.8 mm
12:23 PM 60.2°F15.7°C 53.7°F12.1°C 79% 12.3 mph SSW19.8 kmh SSW 17.0 mph27.4 kmh 29.20 in988.8 mb 0.00 in0.0 mm 0.00 in0.0 mm 0.11 in2.8 mm
12:24 PM 60.4°F15.8°C 54.2°F12.3°C 80% 10.2 mph S16.4 kmh S 17.0 mph27.4 kmh 29.20 in988.8 mb 0.00 in0.0 mm 0.00 in0.0 mm 0.11 in2.8 mm
12:25 PM 60.5°F15.8°C 54.3°F12.4°C 80% 10.7 mph SSW17.2 kmh SSW 18.0 mph29.0 kmh 29.20 in988.8 mb 0.00 in0.0 mm 0.00 in0.0 mm 0.11 in2.8 mm
12:26 PM 60.7°F15.9°C 54.1°F12.3°C 79% 11.7 mph SSW18.8 kmh SSW 18.0 mph29.0 kmh 29.20 in988.8 mb 0.00 in0.0 mm 0.00 in0.0 mm 0.11 in2.8 mm
12:27 PM 60.8°F16.0°C 54.2°F12.3°C 79% 12.1 mph SSW19.5 kmh SSW 16.0 mph25.7 kmh 29.20 in988.8 mb 0.00 in0.0 mm 0.00 in0.0 mm 0.11 in2.8 mm
12:28 PM 60.9°F16.1°C 54.3°F12.4°C 79% 11.9 mph S19.2 kmh S 17.0 mph27.4 kmh 29.20 in988.8 mb 0.00 in0.0 mm 0.00 in0.0 mm 0.11 in2.8 mm
12:29 PM 60.9°F16.1°C 54.3°F12.4°C 79% 12.3 mph SSW19.8 kmh SSW 19.0 mph30.6 kmh 29.20 in988.8 mb 0.00 in0.0 mm 0.00 in0.0 mm 0.11 in2.8 mm
12:30 PM 60.8°F16.0°C 54.2°F12.3°C 79% 10.7 mph SSW17.2 kmh SSW 19.0 mph30.6 kmh 29.20 in988.8 mb 0.00 in0.0 mm 0.00 in0.0 mm 0.11 in2.8 mm
12:31 PM 60.8°F16.0°C 54.2°F12.3°C 79% 10.9 mph S17.5 kmh S 16.0 mph25.7 kmh 29.20 in988.8 mb 0.00 in0.0 mm 0.00 in0.0 mm 0.11 in2.8 mm
12:32 PM 60.7°F15.9°C 53.8°F12.1°C 78% 10.9 mph SSW17.5 kmh SSW 16.0 mph25.7 kmh 29.20 in988.8 mb 0.00 in0.0 mm 0.00 in0.0 mm 0.11 in2.8 mm
12:33 PM 60.6°F15.9°C 53.7°F12.1°C 78% 12.4 mph S20.0 kmh S 16.0 mph25.7 kmh 29.20 in988.8 mb 0.00 in0.0 mm 0.00 in0.0 mm 0.11 in2.8 mm
12:34 PM 60.7°F15.9°C 53.8°F12.1°C 78% 14.2 mph S22.9 kmh S 21.0 mph33.8 kmh 29.20 in988.8 mb 0.00 in0.0 mm 0.00 in0.0 mm 0.11 in2.8 mm
12:35 PM 60.7°F15.9°C 54.1°F12.3°C 79% 11.9 mph S19.2 kmh S 21.0 mph33.8 kmh 29.20 in988.8 mb 0.00 in0.0 mm 0.00 in0.0 mm 0.11 in2.8 mm
12:36 PM 60.7°F15.9°C 53.8°F12.1°C 78% 12.6 mph S20.3 kmh S 18.0 mph29.0 kmh 29.20 in988.8 mb 0.00 in0.0 mm 0.00 in0.0 mm 0.11 in2.8 mm
12:37 PM 60.8°F16.0°C 53.9°F12.2°C 78% 13.5 mph S21.7 kmh S 21.0 mph33.8 kmh 29.20 in988.8 mb 0.00 in0.0 mm 0.00 in0.0 mm 0.11 in2.8 mm
12:38 PM 60.9°F16.1°C 54.0°F12.2°C 78% 10.4 mph S16.7 kmh S 21.0 mph33.8 kmh 29.20 in988.8 mb 0.00 in0.0 mm 0.00 in0.0 mm 0.11 in2.8 mm
12:39 PM 61.0°F16.1°C 54.1°F12.3°C 78% 12.5 mph S20.1 kmh S 19.0 mph30.6 kmh 29.20 in988.8 mb 0.00 in0.0 mm 0.00 in0.0 mm 0.11 in2.8 mm
12:40 PM 61.1°F16.2°C 54.5°F12.5°C 79% 9.4 mph S15.1 kmh S 19.0 mph30.6 kmh 29.20 in988.8 mb 0.00 in0.0 mm 0.00 in0.0 mm 0.11 in2.8 mm
12:41 PM 61.3°F16.3°C 54.7°F12.6°C 79% 10.4 mph SSW16.7 kmh SSW 15.0 mph24.1 kmh 29.20 in988.8 mb 0.00 in0.0 mm 0.00 in0.0 mm 0.11 in2.8 mm
12:42 PM 61.3°F16.3°C 54.0°F12.2°C 77% 10.3 mph SSW16.6 kmh SSW 15.0 mph24.1 kmh 29.20 in988.8 mb 0.00 in0.0 mm 0.00 in0.0 mm 0.11 in2.8 mm
12:43 PM 61.5°F16.4°C 54.2°F12.3°C 77% 10.3 mph S16.6 kmh S 15.0 mph24.1 kmh 29.20 in988.8 mb 0.00 in0.0 mm 0.00 in0.0 mm 0.11 in2.8 mm
12:44 PM 61.5°F16.4°C 53.9°F12.2°C 76% 11.2 mph S18.0 kmh S 17.0 mph27.4 kmh 29.20 in988.8 mb 0.00 in0.0 mm 0.00 in0.0 mm 0.11 in2.8 mm
12:45 PM 61.6°F16.4°C 54.7°F12.6°C 78% 8.7 mph S14.0 kmh S 17.0 mph27.4 kmh 29.20 in988.8 mb 0.00 in0.0 mm 0.00 in0.0 mm 0.11 in2.8 mm
12:46 PM 61.8°F16.6°C 54.5°F12.5°C 77% 8.6 mph S13.8 kmh S 17.0 mph27.4 kmh 29.20 in988.8 mb 0.00 in0.0 mm 0.00 in0.0 mm 0.11 in2.8 mm
12:47 PM 61.8°F16.6°C 54.2°F12.3°C 76% 11.0 mph S17.7 kmh S 21.0 mph33.8 kmh 29.20 in988.8 mb 0.00 in0.0 mm 0.00 in0.0 mm 0.11 in2.8 mm
12:48 PM 61.8°F16.6°C 53.8°F12.1°C 75% 12.4 mph S20.0 kmh S 21.0 mph33.8 kmh 29.20 in988.8 mb 0.00 in0.0 mm 0.00 in0.0 mm 0.11 in2.8 mm
12:49 PM 61.7°F16.5°C 53.3°F11.8°C 74% 12.0 mph S19.3 kmh S 17.0 mph27.4 kmh 29.20 in988.8 mb 0.00 in0.0 mm 0.00 in0.0 mm 0.11 in2.8 mm
12:50 PM 61.6°F16.4°C 54.0°F12.2°C 76% 8.4 mph S13.5 kmh S 17.0 mph27.4 kmh 29.20 in988.8 mb 0.00 in0.0 mm 0.00 in0.0 mm 0.11 in2.8 mm
12:51 PM 61.6°F16.4°C 53.6°F12.0°C 75% 13.4 mph S21.6 kmh S 16.0 mph25.7 kmh 29.20 in988.8 mb 0.00 in0.0 mm 0.00 in0.0 mm 0.11 in2.8 mm
12:52 PM 61.6°F16.4°C 53.2°F11.8°C 74% 12.4 mph SSW20.0 kmh SSW 16.0 mph25.7 kmh 29.20 in988.8 mb 0.00 in0.0 mm 0.00 in0.0 mm 0.11 in2.8 mm
12:53 PM 61.5°F16.4°C 53.5°F11.9°C 75% 10.9 mph SSW17.5 kmh SSW 15.0 mph24.1 kmh 29.20 in988.8 mb 0.00 in0.0 mm 0.00 in0.0 mm 0.11 in2.8 mm
12:54 PM 61.6°F16.4°C 54.0°F12.2°C 76% 11.0 mph SSW17.7 kmh SSW 16.0 mph25.7 kmh 29.20 in988.8 mb 0.00 in0.0 mm 0.00 in0.0 mm 0.11 in2.8 mm
12:55 PM 61.5°F16.4°C 53.5°F11.9°C 75% 12.5 mph S20.1 kmh S 19.0 mph30.6 kmh 29.20 in988.8 mb 0.00 in0.0 mm 0.00 in0.0 mm 0.11 in2.8 mm
12:56 PM 61.4°F16.3°C 53.8°F12.1°C 76% 9.6 mph S15.4 kmh S 19.0 mph30.6 kmh 29.20 in988.8 mb 0.00 in0.0 mm 0.00 in0.0 mm 0.11 in2.8 mm
12:57 PM 61.3°F16.3°C 53.7°F12.1°C 76% 10.4 mph SSW16.7 kmh SSW 14.0 mph22.5 kmh 29.20 in988.8 mb 0.00 in0.0 mm 0.00 in0.0 mm 0.11 in2.8 mm
12:58 PM 61.2°F16.2°C 53.6°F12.0°C 76% 9.8 mph S15.8 kmh S 14.0 mph22.5 kmh 29.20 in988.8 mb 0.00 in0.0 mm 0.00 in0.0 mm 0.11 in2.8 mm
12:59 PM 61.2°F16.2°C 53.9°F12.2°C 77% 11.4 mph SSW18.3 kmh SSW 15.0 mph24.1 kmh 29.20 in988.8 mb 0.00 in0.0 mm 0.00 in0.0 mm 0.11 in2.8 mm
01:00 PM 61.2°F16.2°C 53.9°F12.2°C 77% 11.3 mph SSW18.2 kmh SSW 15.0 mph24.1 kmh 29.20 in988.8 mb 0.00 in0.0 mm 0.00 in0.0 mm 0.11 in2.8 mm
01:01 PM 61.2°F16.2°C 53.9°F12.2°C 77% 10.1 mph S16.3 kmh S 16.0 mph25.7 kmh 29.20 in988.8 mb 0.00 in0.0 mm 0.00 in0.0 mm 0.11 in2.8 mm
01:02 PM 61.1°F16.2°C 53.5°F11.9°C 76% 10.7 mph S17.2 kmh S 16.0 mph25.7 kmh 29.20 in988.8 mb 0.00 in0.0 mm 0.00 in0.0 mm 0.11 in2.8 mm
01:03 PM 61.1°F16.2°C 53.5°F11.9°C 76% 11.5 mph S18.5 kmh S 19.0 mph30.6 kmh 29.20 in988.8 mb 0.00 in0.0 mm 0.00 in0.0 mm 0.11 in2.8 mm
01:04 PM 61.0°F16.1°C 53.0°F11.7°C 75% 12.4 mph S20.0 kmh S 20.0 mph32.2 kmh 29.20 in988.8 mb 0.00 in0.0 mm 0.00 in0.0 mm 0.11 in2.8 mm
01:05 PM 60.9°F16.1°C 53.3°F11.8°C 76% 9.5 mph S15.3 kmh S 20.0 mph32.2 kmh 29.20 in988.8 mb 0.00 in0.0 mm 0.00 in0.0 mm 0.11 in2.8 mm
01:06 PM 60.9°F16.1°C 53.3°F11.8°C 76% 7.9 mph S12.7 kmh S 15.0 mph24.1 kmh 29.20 in988.8 mb 0.00 in0.0 mm 0.00 in0.0 mm 0.11 in2.8 mm
01:07 PM 61.0°F16.1°C 54.1°F12.3°C 78% 7.8 mph SSW12.6 kmh SSW 12.0 mph19.3 kmh 29.20 in988.8 mb 0.00 in0.0 mm 0.00 in0.0 mm 0.11 in2.8 mm
01:08 PM 61.0°F16.1°C 53.7°F12.1°C 77% 8.6 mph SSW13.8 kmh SSW 12.0 mph19.3 kmh 29.20 in988.8 mb 0.00 in0.0 mm 0.00 in0.0 mm 0.11 in2.8 mm
01:09 PM 60.9°F16.1°C 53.6°F12.0°C 77% 8.2 mph S13.2 kmh S 12.0 mph19.3 kmh 29.20 in988.8 mb 0.00 in0.0 mm 0.00 in0.0 mm 0.11 in2.8 mm
01:10 PM 61.0°F16.1°C 53.7°F12.1°C 77% 10.2 mph S16.4 kmh S 15.0 mph24.1 kmh 29.20 in988.8 mb 0.00 in0.0 mm 0.00 in0.0 mm 0.11 in2.8 mm
01:11 PM 61.0°F16.1°C 53.7°F12.1°C 77% 10.8 mph S17.4 kmh S 16.0 mph25.7 kmh 29.20 in988.8 mb 0.00 in0.0 mm 0.00 in0.0 mm 0.11 in2.8 mm
01:12 PM 60.9°F16.1°C 53.3°F11.8°C 76% 14.1 mph S22.7 kmh S 22.0 mph35.4 kmh 29.20 in988.8 mb 0.00 in0.0 mm 0.00 in0.0 mm 0.11 in2.8 mm
01:13 PM 60.9°F16.1°C 52.9°F11.6°C 75% 10.4 mph S16.7 kmh S 22.0 mph35.4 kmh 29.20 in988.8 mb 0.00 in0.0 mm 0.00 in0.0 mm 0.11 in2.8 mm
01:14 PM 60.9°F16.1°C 52.9°F11.6°C 75% 9.5 mph S15.3 kmh S 17.0 mph27.4 kmh 29.20 in988.8 mb 0.00 in0.0 mm 0.00 in0.0 mm 0.11 in2.8 mm
01:15 PM 60.9°F16.1°C 52.6°F11.4°C 74% 13.0 mph S20.9 kmh S 20.0 mph32.2 kmh 29.20 in988.8 mb 0.00 in0.0 mm 0.00 in0.0 mm 0.11 in2.8 mm
01:16 PM 60.9°F16.1°C 52.6°F11.4°C 74% 10.4 mph SSW16.7 kmh SSW 20.0 mph32.2 kmh 29.20 in988.8 mb 0.00 in0.0 mm 0.00 in0.0 mm 0.11 in2.8 mm
01:17 PM 61.0°F16.1°C 52.7°F11.5°C 74% 12.4 mph SSW20.0 kmh SSW 17.0 mph27.4 kmh 29.20 in988.8 mb 0.00 in0.0 mm 0.00 in0.0 mm 0.11 in2.8 mm
01:18 PM 61.0°F16.1°C 52.3°F11.3°C 73% 12.6 mph SSW20.3 kmh SSW 19.0 mph30.6 kmh 29.20 in988.8 mb 0.00 in0.0 mm 0.00 in0.0 mm 0.11 in2.8 mm
01:19 PM 61.0°F16.1°C 52.3°F11.3°C 73% 12.2 mph SSW19.6 kmh SSW 19.0 mph30.6 kmh 29.20 in988.8 mb 0.00 in0.0 mm 0.00 in0.0 mm 0.11 in2.8 mm
01:20 PM 61.0°F16.1°C 52.7°F11.5°C 74% 13.7 mph SSW22.0 kmh SSW 19.0 mph30.6 kmh 29.20 in988.8 mb 0.00 in0.0 mm 0.00 in0.0 mm 0.11 in2.8 mm
01:21 PM 61.1°F16.2°C 52.7°F11.5°C 74% 13.2 mph SSW21.2 kmh SSW 21.0 mph33.8 kmh 29.20 in988.8 mb 0.00 in0.0 mm 0.00 in0.0 mm 0.11 in2.8 mm
01:22 PM 61.2°F16.2°C 53.2°F11.8°C 75% 11.3 mph S18.2 kmh S 21.0 mph33.8 kmh 29.20 in988.8 mb 0.00 in0.0 mm 0.00 in0.0 mm 0.11 in2.8 mm
01:23 PM 61.3°F16.3°C 52.6°F11.4°C 73% 15.5 mph SSW24.9 kmh SSW 20.0 mph32.2 kmh 29.21 in989.2 mb 0.00 in0.0 mm 0.00 in0.0 mm 0.11 in2.8 mm
01:24 PM 61.3°F16.3°C 51.8°F11.0°C 71% 14.1 mph SSW22.7 kmh SSW 21.0 mph33.8 kmh 29.20 in988.8 mb 0.00 in0.0 mm 0.00 in0.0 mm 0.11 in2.8 mm
01:25 PM 61.3°F16.3°C 51.8°F11.0°C 71% 11.7 mph SSW18.8 kmh SSW 21.0 mph33.8 kmh 29.20 in988.8 mb 0.00 in0.0 mm 0.00 in0.0 mm 0.11 in2.8 mm
01:26 PM 61.2°F16.2°C 51.7°F10.9°C 71% 14.9 mph SSW24.0 kmh SSW 21.0 mph33.8 kmh 29.20 in988.8 mb 0.00 in0.0 mm 0.00 in0.0 mm 0.11 in2.8 mm
01:27 PM 61.0°F16.1°C 51.9°F11.1°C 72% 14.7 mph S23.7 kmh S 21.0 mph33.8 kmh 29.20 in988.8 mb 0.00 in0.0 mm 0.00 in0.0 mm 0.11 in2.8 mm
01:28 PM 60.9°F16.1°C 52.6°F11.4°C 74% 9.0 mph S14.5 kmh S 19.0 mph30.6 kmh 29.20 in988.8 mb 0.00 in0.0 mm 0.00 in0.0 mm 0.11 in2.8 mm
01:29 PM 60.8°F16.0°C 52.5°F11.4°C 74% 11.9 mph S19.2 kmh S 21.0 mph33.8 kmh 29.20 in988.8 mb 0.00 in0.0 mm 0.00 in0.0 mm 0.11 in2.8 mm
01:30 PM 60.6°F15.9°C 52.6°F11.4°C 75% 11.9 mph S19.2 kmh S 21.0 mph33.8 kmh 29.20 in988.8 mb 0.00 in0.0 mm 0.00 in0.0 mm 0.11 in2.8 mm
01:31 PM 60.5°F15.8°C 52.5°F11.4°C 75% 10.7 mph S17.2 kmh S 16.0 mph25.7 kmh 29.20 in988.8 mb 0.00 in0.0 mm 0.00 in0.0 mm 0.11 in2.8 mm
01:32 PM 60.4°F15.8°C 52.4°F11.3°C 75% 11.2 mph SSW18.0 kmh SSW 16.0 mph25.7 kmh 29.20 in988.8 mb 0.00 in0.0 mm 0.00 in0.0 mm 0.11 in2.8 mm
01:33 PM 60.3°F15.7°C 52.7°F11.5°C 76% 8.5 mph S13.7 kmh S 16.0 mph25.7 kmh 29.20 in988.8 mb 0.00 in0.0 mm 0.00 in0.0 mm 0.11 in2.8 mm
01:34 PM 60.2°F15.7°C 52.6°F11.4°C 76% 8.8 mph S14.2 kmh S 20.0 mph32.2 kmh 29.20 in988.8 mb 0.00 in0.0 mm 0.00 in0.0 mm 0.11 in2.8 mm
01:35 PM 60.2°F15.7°C 52.2°F11.2°C 75% 11.6 mph S18.7 kmh S 20.0 mph32.2 kmh 29.20 in988.8 mb 0.00 in0.0 mm 0.00 in0.0 mm 0.11 in2.8 mm
01:36 PM 60.2°F15.7°C 52.2°F11.2°C 75% 9.8 mph SSW15.8 kmh SSW 20.0 mph32.2 kmh 29.20 in988.8 mb 0.00 in0.0 mm 0.00 in0.0 mm 0.11 in2.8 mm
01:37 PM 60.2°F15.7°C 52.2°F11.2°C 75% 8.8 mph S14.2 kmh S 15.0 mph24.1 kmh 29.20 in988.8 mb 0.00 in0.0 mm 0.00 in0.0 mm 0.11 in2.8 mm
01:38 PM 60.3°F15.7°C 52.7°F11.5°C 76% 7.4 mph S11.9 kmh S 11.0 mph17.7 kmh 29.20 in988.8 mb 0.00 in0.0 mm 0.00 in0.0 mm 0.11 in2.8 mm
01:39 PM 60.4°F15.8°C 51.7°F10.9°C 73% 8.9 mph S14.3 kmh S 13.0 mph20.9 kmh 29.20 in988.8 mb 0.00 in0.0 mm 0.00 in0.0 mm 0.11 in2.8 mm
01:40 PM 60.4°F15.8°C 52.4°F11.3°C 75% 8.2 mph S13.2 kmh S 13.0 mph20.9 kmh 29.20 in988.8 mb 0.00 in0.0 mm 0.00 in0.0 mm 0.11 in2.8 mm
01:41 PM 60.5°F15.8°C 52.5°F11.4°C 75% 10.1 mph S16.3 kmh S 13.0 mph20.9 kmh 29.20 in988.8 mb 0.00 in0.0 mm 0.00 in0.0 mm 0.11 in2.8 mm
01:42 PM 60.5°F15.8°C 52.5°F11.4°C 75% 8.0 mph S12.9 kmh S 13.0 mph20.9 kmh 29.20 in988.8 mb 0.00 in0.0 mm 0.00 in0.0 mm 0.11 in2.8 mm
01:43 PM 60.5°F15.8°C 51.4°F10.8°C 72% 13.7 mph S22.0 kmh S 22.0 mph35.4 kmh 29.20 in988.8 mb 0.00 in0.0 mm 0.00 in0.0 mm 0.11 in2.8 mm
01:44 PM 60.4°F15.8°C 52.1°F11.2°C 74% 13.2 mph S21.2 kmh S 22.0 mph35.4 kmh 29.20 in988.8 mb 0.00 in0.0 mm 0.00 in0.0 mm 0.11 in2.8 mm
01:45 PM 60.4°F15.8°C 51.7°F10.9°C 73% 10.9 mph SSW17.5 kmh SSW 17.0 mph27.4 kmh 29.20 in988.8 mb 0.00 in0.0 mm 0.00 in0.0 mm 0.11 in2.8 mm
01:46 PM 60.4°F15.8°C 52.4°F11.3°C 75% 13.0 mph S20.9 kmh S 17.0 mph27.4 kmh 29.20 in988.8 mb 0.00 in0.0 mm 0.00 in0.0 mm 0.11 in2.8 mm
01:47 PM 60.4°F15.8°C 52.1°F11.2°C 74% 11.1 mph S17.9 kmh S 19.0 mph30.6 kmh 29.20 in988.8 mb 0.00 in0.0 mm 0.00 in0.0 mm 0.11 in2.8 mm
01:48 PM 60.5°F15.8°C 52.5°F11.4°C 75% 10.8 mph S17.4 kmh S 19.0 mph30.6 kmh 29.20 in988.8 mb 0.00 in0.0 mm 0.00 in0.0 mm 0.11 in2.8 mm
01:49 PM 60.6°F15.9°C 52.3°F11.3°C 74% 14.3 mph S23.0 kmh S 20.0 mph32.2 kmh 29.20 in988.8 mb 0.00 in0.0 mm 0.00 in0.0 mm 0.11 in2.8 mm
01:50 PM 60.7°F15.9°C 52.7°F11.5°C 75% 10.5 mph S16.9 kmh S 20.0 mph32.2 kmh 29.20 in988.8 mb 0.00 in0.0 mm 0.00 in0.0 mm 0.11 in2.8 mm
01:51 PM 60.8°F16.0°C 52.8°F11.6°C 75% 12.0 mph S19.3 kmh S 17.0 mph27.4 kmh 29.20 in988.8 mb 0.00 in0.0 mm 0.00 in0.0 mm 0.11 in2.8 mm
01:52 PM 60.8°F16.0°C 52.5°F11.4°C 74% 14.3 mph S23.0 kmh S 19.0 mph30.6 kmh 29.20 in988.8 mb 0.00 in0.0 mm 0.00 in0.0 mm 0.11 in2.8 mm
01:53 PM 60.8°F16.0°C 52.5°F11.4°C 74% 11.0 mph S17.7 kmh S 19.0 mph30.6 kmh 29.20 in988.8 mb 0.00 in0.0 mm 0.00 in0.0 mm 0.11 in2.8 mm
01:54 PM 60.8°F16.0°C 53.2°F11.8°C 76% 9.6 mph S15.4 kmh S 16.0 mph25.7 kmh 29.20 in988.8 mb 0.00 in0.0 mm 0.00 in0.0 mm 0.11 in2.8 mm
01:55 PM 60.8°F16.0°C 52.8°F11.6°C 75% 10.9 mph S17.5 kmh S 16.0 mph25.7 kmh 29.20 in988.8 mb 0.00 in0.0 mm 0.00 in0.0 mm 0.11 in2.8 mm
01:56 PM 60.9°F16.1°C 52.9°F11.6°C 75% 13.5 mph S21.7 kmh S 19.0 mph30.6 kmh 29.20 in988.8 mb 0.00 in0.0 mm 0.00 in0.0 mm 0.11 in2.8 mm
01:57 PM 60.8°F16.0°C 52.8°F11.6°C 75% 15.1 mph S24.3 kmh S 20.0 mph32.2 kmh 29.20 in988.8 mb 0.00 in0.0 mm 0.00 in0.0 mm 0.11 in2.8 mm
01:58 PM 60.8°F16.0°C 52.8°F11.6°C 75% 13.9 mph S22.4 kmh S 20.0 mph32.2 kmh 29.20 in988.8 mb 0.00 in0.0 mm 0.00 in0.0 mm 0.11 in2.8 mm
01:59 PM 60.9°F16.1°C 52.9°F11.6°C 75% 11.9 mph S19.2 kmh S 20.0 mph32.2 kmh 29.20 in988.8 mb 0.00 in0.0 mm 0.00 in0.0 mm 0.11 in2.8 mm
02:00 PM 60.9°F16.1°C 52.9°F11.6°C 75% 8.6 mph SSE13.8 kmh SSE 18.0 mph29.0 kmh 29.20 in988.8 mb 0.00 in0.0 mm 0.00 in0.0 mm 0.11 in2.8 mm
02:01 PM 61.0°F16.1°C 53.0°F11.7°C 75% 15.4 mph S24.8 kmh S 21.0 mph33.8 kmh 29.20 in988.8 mb 0.00 in0.0 mm 0.00 in0.0 mm 0.11 in2.8 mm
02:02 PM 61.0°F16.1°C 53.0°F11.7°C 75% 13.5 mph S21.7 kmh S 21.0 mph33.8 kmh 29.20 in988.8 mb 0.00 in0.0 mm 0.00 in0.0 mm 0.11 in2.8 mm
02:03 PM 61.1°F16.2°C 52.7°F11.5°C 74% 14.5 mph S23.3 kmh S 19.0 mph30.6 kmh 29.20 in988.8 mb 0.00 in0.0 mm 0.00 in0.0 mm 0.11 in2.8 mm
02:04 PM 61.2°F16.2°C 52.8°F11.6°C 74% 11.1 mph SSE17.9 kmh SSE 19.0 mph30.6 kmh 29.20 in988.8 mb 0.00 in0.0 mm 0.00 in0.0 mm 0.11 in2.8 mm
02:05 PM 61.2°F16.2°C 53.2°F11.8°C 75% 15.2 mph S24.5 kmh S 21.0 mph33.8 kmh 29.20 in988.8 mb 0.00 in0.0 mm 0.00 in0.0 mm 0.11 in2.8 mm
02:06 PM 61.3°F16.3°C 52.6°F11.4°C 73% 15.4 mph S24.8 kmh S 23.0 mph37.0 kmh 29.20 in988.8 mb 0.00 in0.0 mm 0.00 in0.0 mm 0.11 in2.8 mm
02:07 PM 61.3°F16.3°C 52.9°F11.6°C 74% 12.6 mph S20.3 kmh S 23.0 mph37.0 kmh 29.20 in988.8 mb 0.00 in0.0 mm 0.00 in0.0 mm 0.11 in2.8 mm
02:08 PM 61.4°F16.3°C 52.7°F11.5°C 73% 12.1 mph S19.5 kmh S 18.0 mph29.0 kmh 29.20 in988.8 mb 0.00 in0.0 mm 0.00 in0.0 mm 0.11 in2.8 mm
02:09 PM 61.4°F16.3°C 53.0°F11.7°C 74% 12.4 mph S20.0 kmh S 16.0 mph25.7 kmh 29.20 in988.8 mb 0.00 in0.0 mm 0.00 in0.0 mm 0.11 in2.8 mm
02:10 PM 61.4°F16.3°C 53.4°F11.9°C 75% 11.9 mph S19.2 kmh S 18.0 mph29.0 kmh 29.20 in988.8 mb 0.00 in0.0 mm 0.00 in0.0 mm 0.11 in2.8 mm
02:11 PM 61.5°F16.4°C 53.5°F11.9°C 75% 12.2 mph S19.6 kmh S 18.0 mph29.0 kmh 29.20 in988.8 mb 0.00 in0.0 mm 0.00 in0.0 mm 0.11 in2.8 mm
02:12 PM 61.5°F16.4°C 53.1°F11.7°C 74% 12.7 mph S20.4 kmh S 18.0 mph29.0 kmh 29.20 in988.8 mb 0.00 in0.0 mm 0.00 in0.0 mm 0.11 in2.8 mm
02:13 PM 61.5°F16.4°C 52.8°F11.6°C 73% 14.4 mph S23.2 kmh S 22.0 mph35.4 kmh 29.21 in989.2 mb 0.00 in0.0 mm 0.00 in0.0 mm 0.11 in2.8 mm
02:14 PM 61.5°F16.4°C 53.1°F11.7°C 74% 11.9 mph S19.2 kmh S 22.0 mph35.4 kmh 29.21 in989.2 mb 0.00 in0.0 mm 0.00 in0.0 mm 0.11 in2.8 mm
02:15 PM 61.5°F16.4°C 52.8°F11.6°C 73% 13.2 mph SSE21.2 kmh SSE 18.0 mph29.0 kmh 29.20 in988.8 mb 0.00 in0.0 mm 0.00 in0.0 mm 0.11 in2.8 mm
02:16 PM 61.6°F16.4°C 53.2°F11.8°C 74% 10.5 mph S16.9 kmh S 18.0 mph29.0 kmh 29.20 in988.8 mb 0.00 in0.0 mm 0.00 in0.0 mm 0.11 in2.8 mm
02:17 PM 61.7°F16.5°C 53.3°F11.8°C 74% 10.5 mph S16.9 kmh S 17.0 mph27.4 kmh 29.21 in989.2 mb 0.00 in0.0 mm 0.00 in0.0 mm 0.11 in2.8 mm
02:18 PM 61.8°F16.6°C 53.4°F11.9°C 74% 9.7 mph S15.6 kmh S 17.0 mph27.4 kmh 29.21 in989.2 mb 0.00 in0.0 mm 0.00 in0.0 mm 0.11 in2.8 mm
02:19 PM 61.8°F16.6°C 53.4°F11.9°C 74% 10.8 mph SSE17.4 kmh SSE 14.0 mph22.5 kmh 29.21 in989.2 mb 0.00 in0.0 mm 0.00 in0.0 mm 0.11 in2.8 mm
02:20 PM 61.9°F16.6°C 53.5°F11.9°C 74% 14.2 mph S22.9 kmh S 21.0 mph33.8 kmh 29.21 in989.2 mb 0.00 in0.0 mm 0.00 in0.0 mm 0.11 in2.8 mm
02:21 PM 61.9°F16.6°C 53.1°F11.7°C 73% 12.7 mph S20.4 kmh S 21.0 mph33.8 kmh 29.20 in988.8 mb 0.00 in0.0 mm 0.00 in0.0 mm 0.11 in2.8 mm
02:22 PM 61.9°F16.6°C 53.1°F11.7°C 73% 12.0 mph S19.3 kmh S 17.0 mph27.4 kmh 29.20 in988.8 mb 0.00 in0.0 mm 0.00 in0.0 mm 0.11 in2.8 mm
02:23 PM 61.9°F16.6°C 53.1°F11.7°C 73% 9.3 mph S15.0 kmh S 17.0 mph27.4 kmh 29.20 in988.8 mb 0.00 in0.0 mm 0.00 in0.0 mm 0.11 in2.8 mm
02:24 PM 62.0°F16.7°C 53.2°F11.8°C 73% 10.7 mph S17.2 kmh S 18.0 mph29.0 kmh 29.20 in988.8 mb 0.00 in0.0 mm 0.00 in0.0 mm 0.11 in2.8 mm
02:25 PM 62.1°F16.7°C 53.3°F11.8°C 73% 15.9 mph S25.6 kmh S 22.0 mph35.4 kmh 29.20 in988.8 mb 0.00 in0.0 mm 0.00 in0.0 mm 0.11 in2.8 mm
02:26 PM 62.0°F16.7°C 52.9°F11.6°C 72% 14.2 mph S22.9 kmh S 22.0 mph35.4 kmh 29.21 in989.2 mb 0.00 in0.0 mm 0.00 in0.0 mm 0.11 in2.8 mm
02:27 PM 61.9°F16.6°C 52.8°F11.6°C 72% 10.7 mph S17.2 kmh S 19.0 mph30.6 kmh 29.20 in988.8 mb 0.00 in0.0 mm 0.00 in0.0 mm 0.11 in2.8 mm
02:28 PM 61.9°F16.6°C 53.1°F11.7°C 73% 14.6 mph S23.5 kmh S 23.0 mph37.0 kmh 29.20 in988.8 mb 0.00 in0.0 mm 0.00 in0.0 mm 0.11 in2.8 mm
02:29 PM 61.9°F16.6°C 53.1°F11.7°C 73% 14.9 mph S24.0 kmh S 23.0 mph37.0 kmh 29.20 in988.8 mb 0.00 in0.0 mm 0.00 in0.0 mm 0.11 in2.8 mm
02:30 PM 61.9°F16.6°C 53.1°F11.7°C 73% 10.6 mph S17.1 kmh S 21.0 mph33.8 kmh 29.20 in988.8 mb 0.00 in0.0 mm 0.00 in0.0 mm 0.11 in2.8 mm
02:31 PM 62.1°F16.7°C 53.3°F11.8°C 73% 8.5 mph S13.7 kmh S 15.0 mph24.1 kmh 29.21 in989.2 mb 0.00 in0.0 mm 0.00 in0.0 mm 0.11 in2.8 mm
02:32 PM 62.1°F16.7°C 53.7°F12.1°C 74% 10.3 mph S16.6 kmh S 15.0 mph24.1 kmh 29.21 in989.2 mb 0.00 in0.0 mm 0.00 in0.0 mm 0.11 in2.8 mm
02:33 PM 62.2°F16.8°C 53.4°F11.9°C 73% 12.5 mph S20.1 kmh S 18.0 mph29.0 kmh 29.21 in989.2 mb 0.00 in0.0 mm 0.00 in0.0 mm 0.11 in2.8 mm
02:34 PM 62.2°F16.8°C 53.4°F11.9°C 73% 12.3 mph S19.8 kmh S 18.0 mph29.0 kmh 29.21 in989.2 mb 0.00 in0.0 mm 0.00 in0.0 mm 0.11 in2.8 mm
02:35 PM 62.2°F16.8°C 53.4°F11.9°C 73% 12.2 mph S19.6 kmh S 17.0 mph27.4 kmh 29.21 in989.2 mb 0.00 in0.0 mm 0.00 in0.0 mm 0.11 in2.8 mm
02:36 PM 62.2°F16.8°C 53.4°F11.9°C 73% 12.2 mph S19.6 kmh S 22.0 mph35.4 kmh 29.21 in989.2 mb 0.00 in0.0 mm 0.00 in0.0 mm 0.11 in2.8 mm
02:37 PM 62.2°F16.8°C 53.4°F11.9°C 73% 10.9 mph S17.5 kmh S 22.0 mph35.4 kmh 29.21 in989.2 mb 0.00 in0.0 mm 0.00 in0.0 mm 0.11 in2.8 mm
02:38 PM 62.2°F16.8°C 53.4°F11.9°C 73% 8.9 mph S14.3 kmh S 16.0 mph25.7 kmh 29.21 in989.2 mb 0.00 in0.0 mm 0.00 in0.0 mm 0.11 in2.8 mm
02:39 PM 62.3°F16.8°C 53.5°F11.9°C 73% 15.8 mph S25.4 kmh S 21.0 mph33.8 kmh 29.21 in989.2 mb 0.00 in0.0 mm 0.00 in0.0 mm 0.11 in2.8 mm
02:40 PM 62.3°F16.8°C 53.9°F12.2°C 74% 12.4 mph S20.0 kmh S 21.0 mph33.8 kmh 29.21 in989.2 mb 0.00 in0.0 mm 0.00 in0.0 mm 0.11 in2.8 mm
02:41 PM 62.3°F16.8°C 53.5°F11.9°C 73% 14.9 mph S24.0 kmh S 22.0 mph35.4 kmh 29.21 in989.2 mb 0.00 in0.0 mm 0.00 in0.0 mm 0.11 in2.8 mm
02:42 PM 62.3°F16.8°C 53.5°F11.9°C 73% 14.6 mph S23.5 kmh S 22.0 mph35.4 kmh 29.21 in989.2 mb 0.00 in0.0 mm 0.00 in0.0 mm 0.11 in2.8 mm
02:43 PM 62.3°F16.8°C 53.5°F11.9°C 73% 17.8 mph S28.6 kmh S 23.0 mph37.0 kmh 29.21 in989.2 mb 0.00 in0.0 mm 0.00 in0.0 mm 0.11 in2.8 mm
02:44 PM 62.3°F16.8°C 53.2°F11.8°C 72% 15.5 mph S24.9 kmh S 23.0 mph37.0 kmh 29.21 in989.2 mb 0.00 in0.0 mm 0.00 in0.0 mm 0.11 in2.8 mm
02:45 PM 62.2°F16.8°C 53.4°F11.9°C 73% 11.8 mph S19.0 kmh S 20.0 mph32.2 kmh 29.21 in989.2 mb 0.00 in0.0 mm 0.00 in0.0 mm 0.11 in2.8 mm
02:46 PM 62.3°F16.8°C 53.5°F11.9°C 73% 13.2 mph S21.2 kmh S 20.0 mph32.2 kmh 29.21 in989.2 mb 0.00 in0.0 mm 0.00 in0.0 mm 0.11 in2.8 mm
02:47 PM 62.3°F16.8°C 53.5°F11.9°C 73% 13.0 mph S20.9 kmh S 19.0 mph30.6 kmh 29.21 in989.2 mb 0.00 in0.0 mm 0.00 in0.0 mm 0.11 in2.8 mm
02:48 PM 62.3°F16.8°C 53.5°F11.9°C 73% 10.6 mph S17.1 kmh S 17.0 mph27.4 kmh 29.21 in989.2 mb 0.00 in0.0 mm 0.00 in0.0 mm 0.11 in2.8 mm
02:49 PM 62.3°F16.8°C 53.5°F11.9°C 73% 13.3 mph S21.4 kmh S 20.0 mph32.2 kmh 29.21 in989.2 mb 0.00 in0.0 mm 0.00 in0.0 mm 0.11 in2.8 mm
02:50 PM 62.2°F16.8°C 53.8°F12.1°C 74% 12.7 mph S20.4 kmh S 22.0 mph35.4 kmh 29.21 in989.2 mb 0.00 in0.0 mm 0.00 in0.0 mm 0.11 in2.8 mm
02:51 PM 62.2°F16.8°C 53.4°F11.9°C 73% 12.0 mph S19.3 kmh S 22.0 mph35.4 kmh 29.21 in989.2 mb 0.00 in0.0 mm 0.00 in0.0 mm 0.11 in2.8 mm
02:52 PM 62.2°F16.8°C 53.8°F12.1°C 74% 12.2 mph S19.6 kmh S 18.0 mph29.0 kmh 29.21 in989.2 mb 0.00 in0.0 mm 0.00 in0.0 mm 0.11 in2.8 mm
02:53 PM 62.1°F16.7°C 53.7°F12.1°C 74% 10.4 mph S16.7 kmh S 18.0 mph29.0 kmh 29.21 in989.2 mb 0.00 in0.0 mm 0.00 in0.0 mm 0.11 in2.8 mm
02:54 PM 62.0°F16.7°C 53.6°F12.0°C 74% 10.6 mph S17.1 kmh S 14.0 mph22.5 kmh 29.21 in989.2 mb 0.00 in0.0 mm 0.00 in0.0 mm 0.11 in2.8 mm
02:55 PM 62.0°F16.7°C 53.6°F12.0°C 74% 13.7 mph S22.0 kmh S 22.0 mph35.4 kmh 29.21 in989.2 mb 0.00 in0.0 mm 0.00 in0.0 mm 0.11 in2.8 mm
02:56 PM 61.8°F16.6°C 53.0°F11.7°C 73% 14.4 mph S23.2 kmh S 22.0 mph35.4 kmh 29.21 in989.2 mb 0.00 in0.0 mm 0.00 in0.0 mm 0.11 in2.8 mm
02:57 PM 61.7°F16.5°C 53.3°F11.8°C 74% 10.1 mph S16.3 kmh S 19.0 mph30.6 kmh 29.21 in989.2 mb 0.00 in0.0 mm 0.00 in0.0 mm 0.11 in2.8 mm
02:58 PM 61.6°F16.4°C 53.2°F11.8°C 74% 13.8 mph S22.2 kmh S 20.0 mph32.2 kmh 29.21 in989.2 mb 0.00 in0.0 mm 0.00 in0.0 mm 0.11 in2.8 mm
02:59 PM 61.5°F16.4°C 53.5°F11.9°C 75% 9.4 mph S15.1 kmh S 20.0 mph32.2 kmh 29.21 in989.2 mb 0.00 in0.0 mm 0.00 in0.0 mm 0.11 in2.8 mm
03:00 PM 61.4°F16.3°C 53.0°F11.7°C 74% 11.6 mph S18.7 kmh S 17.0 mph27.4 kmh 29.21 in989.2 mb 0.00 in0.0 mm 0.00 in0.0 mm 0.11 in2.8 mm
03:01 PM 61.4°F16.3°C 53.4°F11.9°C 75% 14.0 mph S22.5 kmh S 22.0 mph35.4 kmh 29.21 in989.2 mb 0.00 in0.0 mm 0.00 in0.0 mm 0.11 in2.8 mm
03:02 PM 61.3°F16.3°C 53.3°F11.8°C 75% 12.2 mph S19.6 kmh S 22.0 mph35.4 kmh 29.21 in989.2 mb 0.00 in0.0 mm 0.00 in0.0 mm 0.11 in2.8 mm
03:03 PM 61.2°F16.2°C 53.2°F11.8°C 75% 9.0 mph S14.5 kmh S 17.0 mph27.4 kmh 29.21 in989.2 mb 0.00 in0.0 mm 0.00 in0.0 mm 0.11 in2.8 mm
03:04 PM 61.2°F16.2°C 53.6°F12.0°C 76% 9.0 mph S14.5 kmh S 15.0 mph24.1 kmh 29.21 in989.2 mb 0.00 in0.0 mm 0.00 in0.0 mm 0.11 in2.8 mm
03:05 PM 61.2°F16.2°C 53.6°F12.0°C 76% 13.6 mph S21.9 kmh S 19.0 mph30.6 kmh 29.21 in989.2 mb 0.00 in0.0 mm 0.00 in0.0 mm 0.11 in2.8 mm
03:06 PM 61.2°F16.2°C 53.6°F12.0°C 76% 11.3 mph S18.2 kmh S 19.0 mph30.6 kmh 29.21 in989.2 mb 0.00 in0.0 mm 0.00 in0.0 mm 0.11 in2.8 mm
03:07 PM 61.2°F16.2°C 53.9°F12.2°C 77% 8.3 mph S13.4 kmh S 15.0 mph24.1 kmh 29.21 in989.2 mb 0.00 in0.0 mm 0.00 in0.0 mm 0.11 in2.8 mm
03:08 PM 61.2°F16.2°C 53.9°F12.2°C 77% 10.4 mph S16.7 kmh S 19.0 mph30.6 kmh 29.21 in989.2 mb 0.00 in0.0 mm 0.00 in0.0 mm 0.11 in2.8 mm
03:09 PM 61.2°F16.2°C 53.6°F12.0°C 76% 10.8 mph S17.4 kmh S 19.0 mph30.6 kmh 29.21 in989.2 mb 0.00 in0.0 mm 0.00 in0.0 mm 0.11 in2.8 mm
03:10 PM 61.2°F16.2°C 53.9°F12.2°C 77% 11.7 mph S18.8 kmh S 21.0 mph33.8 kmh 29.21 in989.2 mb 0.00 in0.0 mm 0.00 in0.0 mm 0.11 in2.8 mm
03:11 PM 61.2°F16.2°C 53.6°F12.0°C 76% 13.6 mph S21.9 kmh S 21.0 mph33.8 kmh 29.21 in989.2 mb 0.00 in0.0 mm 0.00 in0.0 mm 0.11 in2.8 mm
03:12 PM 61.2°F16.2°C 53.6°F12.0°C 76% 11.5 mph S18.5 kmh S 17.0 mph27.4 kmh 29.21 in989.2 mb 0.00 in0.0 mm 0.00 in0.0 mm 0.11 in2.8 mm
03:13 PM 61.2°F16.2°C 53.6°F12.0°C 76% 14.8 mph S23.8 kmh S 20.0 mph32.2 kmh 29.21 in989.2 mb 0.00 in0.0 mm 0.00 in0.0 mm 0.11 in2.8 mm
03:14 PM 61.2°F16.2°C 53.6°F12.0°C 76% 9.8 mph S15.8 kmh S 20.0 mph32.2 kmh 29.21 in989.2 mb 0.00 in0.0 mm 0.00 in0.0 mm 0.11 in2.8 mm
03:15 PM 61.2°F16.2°C 53.9°F12.2°C 77% 9.7 mph S15.6 kmh S 16.0 mph25.7 kmh 29.21 in989.2 mb 0.00 in0.0 mm 0.00 in0.0 mm 0.11 in2.8 mm
03:16 PM 61.2°F16.2°C 53.6°F12.0°C 76% 12.5 mph S20.1 kmh S 24.0 mph38.6 kmh 29.21 in989.2 mb 0.00 in0.0 mm 0.00 in0.0 mm 0.11 in2.8 mm
03:17 PM 61.2°F16.2°C 53.2°F11.8°C 75% 14.3 mph S23.0 kmh S 24.0 mph38.6 kmh 29.21 in989.2 mb 0.00 in0.0 mm 0.00 in0.0 mm 0.11 in2.8 mm
03:18 PM 61.3°F16.3°C 53.7°F12.1°C 76% 14.5 mph S23.3 kmh S 22.0 mph35.4 kmh 29.21 in989.2 mb 0.00 in0.0 mm 0.00 in0.0 mm 0.11 in2.8 mm
03:19 PM 61.3°F16.3°C 53.7°F12.1°C 76% 13.6 mph S21.9 kmh S 22.0 mph35.4 kmh 29.21 in989.2 mb 0.00 in0.0 mm 0.00 in0.0 mm 0.11 in2.8 mm
03:20 PM 61.3°F16.3°C 53.3°F11.8°C 75% 15.3 mph S24.6 kmh S 21.0 mph33.8 kmh 29.21 in989.2 mb 0.00 in0.0 mm 0.00 in0.0 mm 0.11 in2.8 mm
03:21 PM 61.3°F16.3°C 53.7°F12.1°C 76% 12.9 mph S20.8 kmh S 24.0 mph38.6 kmh 29.21 in989.2 mb 0.00 in0.0 mm 0.00 in0.0 mm 0.11 in2.8 mm
03:22 PM 61.3°F16.3°C 54.0°F12.2°C 77% 16.3 mph S26.2 kmh S 24.0 mph38.6 kmh 29.21 in989.2 mb 0.01 in0.3 mm 0.60 in15.2 mm 0.12 in3.0 mm
03:23 PM 61.2°F16.2°C 54.3°F12.4°C 78% 15.5 mph S24.9 kmh S 23.0 mph37.0 kmh 29.22 in989.5 mb 0.01 in0.3 mm 0.00 in0.0 mm 0.12 in3.0 mm
03:24 PM 60.9°F16.1°C 54.3°F12.4°C 79% 14.4 mph S23.2 kmh S 21.0 mph33.8 kmh 29.21 in989.2 mb 0.01 in0.3 mm 0.00 in0.0 mm 0.12 in3.0 mm
03:25 PM 60.6°F15.9°C 54.0°F12.2°C 79% 15.7 mph S25.3 kmh S 24.0 mph38.6 kmh 29.21 in989.2 mb 0.01 in0.3 mm 0.00 in0.0 mm 0.12 in3.0 mm
03:26 PM 60.2°F15.7°C 53.7°F12.1°C 79% 12.7 mph S20.4 kmh S 24.0 mph38.6 kmh 29.21 in989.2 mb 0.01 in0.3 mm 0.00 in0.0 mm 0.12 in3.0 mm
03:27 PM 59.9°F15.5°C 53.4°F11.9°C 79% 14.0 mph SSE22.5 kmh SSE 23.0 mph37.0 kmh 29.21 in989.2 mb 0.01 in0.3 mm 0.00 in0.0 mm 0.12 in3.0 mm
03:28 PM 59.7°F15.4°C 53.9°F12.2°C 81% 15.2 mph S24.5 kmh S 23.0 mph37.0 kmh 29.21 in989.2 mb 0.01 in0.3 mm 0.00 in0.0 mm 0.12 in3.0 mm
03:29 PM 59.5°F15.3°C 53.7°F12.1°C 81% 17.0 mph S27.4 kmh S 27.0 mph43.5 kmh 29.21 in989.2 mb 0.01 in0.3 mm 0.00 in0.0 mm 0.12 in3.0 mm
03:30 PM 59.3°F15.2°C 53.8°F12.1°C 82% 12.7 mph S20.4 kmh S 27.0 mph43.5 kmh 29.21 in989.2 mb 0.01 in0.3 mm 0.00 in0.0 mm 0.12 in3.0 mm
03:31 PM 59.3°F15.2°C 54.1°F12.3°C 83% 13.4 mph S21.6 kmh S 18.0 mph29.0 kmh 29.21 in989.2 mb 0.01 in0.3 mm 0.00 in0.0 mm 0.12 in3.0 mm
03:32 PM 59.2°F15.1°C 53.7°F12.1°C 82% 18.3 mph S29.5 kmh S 23.0 mph37.0 kmh 29.21 in989.2 mb 0.01 in0.3 mm 0.00 in0.0 mm 0.12 in3.0 mm
03:33 PM 59.0°F15.0°C 53.5°F11.9°C 82% 18.4 mph S29.6 kmh S 27.0 mph43.5 kmh 29.21 in989.2 mb 0.01 in0.3 mm 0.00 in0.0 mm 0.12 in3.0 mm
03:34 PM 58.9°F14.9°C 53.4°F11.9°C 82% 15.0 mph S24.1 kmh S 27.0 mph43.5 kmh 29.21 in989.2 mb 0.01 in0.3 mm 0.00 in0.0 mm 0.12 in3.0 mm
03:35 PM 58.9°F14.9°C 53.7°F12.1°C 83% 12.8 mph S20.6 kmh S 21.0 mph33.8 kmh 29.21 in989.2 mb 0.01 in0.3 mm 0.00 in0.0 mm 0.12 in3.0 mm
03:36 PM 58.9°F14.9°C 53.7°F12.1°C 83% 10.8 mph S17.4 kmh S 17.0 mph27.4 kmh 29.21 in989.2 mb 0.01 in0.3 mm 0.00 in0.0 mm 0.12 in3.0 mm
03:37 PM 58.9°F14.9°C 53.7°F12.1°C 83% 13.3 mph S21.4 kmh S 20.0 mph32.2 kmh 29.21 in989.2 mb 0.01 in0.3 mm 0.00 in0.0 mm 0.12 in3.0 mm
03:38 PM 58.8°F14.9°C 53.6°F12.0°C 83% 13.3 mph S21.4 kmh S 20.0 mph32.2 kmh 29.21 in989.2 mb 0.01 in0.3 mm 0.00 in0.0 mm 0.12 in3.0 mm
03:39 PM 58.7°F14.8°C 53.5°F11.9°C 83% 10.2 mph S16.4 kmh S 18.0 mph29.0 kmh 29.21 in989.2 mb 0.01 in0.3 mm 0.00 in0.0 mm 0.12 in3.0 mm
03:40 PM 58.7°F14.8°C 53.5°F11.9°C 83% 14.2 mph S22.9 kmh S 21.0 mph33.8 kmh 29.21 in989.2 mb 0.01 in0.3 mm 0.00 in0.0 mm 0.12 in3.0 mm
03:41 PM 58.7°F14.8°C 53.5°F11.9°C 83% 11.9 mph S19.2 kmh S 21.0 mph33.8 kmh 29.21 in989.2 mb 0.01 in0.3 mm 0.00 in0.0 mm 0.12 in3.0 mm
03:42 PM 58.7°F14.8°C 53.5°F11.9°C 83% 11.6 mph S18.7 kmh S 16.0 mph25.7 kmh 29.21 in989.2 mb 0.01 in0.3 mm 0.00 in0.0 mm 0.12 in3.0 mm
03:43 PM 58.6°F14.8°C 53.5°F11.9°C 83% 13.0 mph S20.9 kmh S 18.0 mph29.0 kmh 29.21 in989.2 mb 0.01 in0.3 mm 0.00 in0.0 mm 0.12 in3.0 mm
03:44 PM 58.6°F14.8°C 53.5°F11.9°C 83% 12.9 mph S20.8 kmh S 18.0 mph29.0 kmh 29.21 in989.2 mb 0.01 in0.3 mm 0.00 in0.0 mm 0.12 in3.0 mm
03:45 PM 58.6°F14.8°C 53.5°F11.9°C 83% 13.0 mph S20.9 kmh S 17.0 mph27.4 kmh 29.21 in989.2 mb 0.01 in0.3 mm 0.00 in0.0 mm 0.12 in3.0 mm
03:46 PM 58.6°F14.8°C 53.1°F11.7°C 82% 12.7 mph S20.4 kmh S 19.0 mph30.6 kmh 29.21 in989.2 mb 0.01 in0.3 mm 0.00 in0.0 mm 0.12 in3.0 mm
03:47 PM 58.6°F14.8°C 53.5°F11.9°C 83% 13.0 mph S20.9 kmh S 22.0 mph35.4 kmh 29.21 in989.2 mb 0.01 in0.3 mm 0.00 in0.0 mm 0.12 in3.0 mm
03:48 PM 58.6°F14.8°C 53.5°F11.9°C 83% 9.7 mph S15.6 kmh S 22.0 mph35.4 kmh 29.21 in989.2 mb 0.01 in0.3 mm 0.00 in0.0 mm 0.12 in3.0 mm
03:49 PM 58.6°F14.8°C 53.1°F11.7°C 82% 14.2 mph S22.9 kmh S 19.0 mph30.6 kmh 29.21 in989.2 mb 0.01 in0.3 mm 0.00 in0.0 mm 0.12 in3.0 mm
03:50 PM 58.7°F14.8°C 53.5°F11.9°C 83% 10.0 mph S16.1 kmh S 19.0 mph30.6 kmh 29.21 in989.2 mb 0.01 in0.3 mm 0.00 in0.0 mm 0.12 in3.0 mm
03:51 PM 58.6°F14.8°C 53.5°F11.9°C 83% 10.6 mph S17.1 kmh S 16.0 mph25.7 kmh 29.21 in989.2 mb 0.01 in0.3 mm 0.00 in0.0 mm 0.12 in3.0 mm
03:52 PM 58.6°F14.8°C 53.5°F11.9°C 83% 12.1 mph S19.5 kmh S 18.0 mph29.0 kmh 29.21 in989.2 mb 0.01 in0.3 mm 0.00 in0.0 mm 0.12 in3.0 mm
03:53 PM 58.6°F14.8°C 53.5°F11.9°C 83% 11.4 mph S18.3 kmh S 18.0 mph29.0 kmh 29.21 in989.2 mb 0.01 in0.3 mm 0.00 in0.0 mm 0.12 in3.0 mm
03:54 PM 58.6°F14.8°C 53.5°F11.9°C 83% 12.3 mph S19.8 kmh S 16.0 mph25.7 kmh 29.21 in989.2 mb 0.01 in0.3 mm 0.00 in0.0 mm 0.12 in3.0 mm
03:55 PM 58.6°F14.8°C 53.5°F11.9°C 83% 10.2 mph S16.4 kmh S 16.0 mph25.7 kmh 29.21 in989.2 mb 0.01 in0.3 mm 0.00 in0.0 mm 0.12 in3.0 mm
03:56 PM 58.6°F14.8°C 53.5°F11.9°C 83% 10.6 mph S17.1 kmh S 16.0 mph25.7 kmh 29.21 in989.2 mb 0.01 in0.3 mm 0.00 in0.0 mm 0.12 in3.0 mm
03:57 PM 58.6°F14.8°C 53.5°F11.9°C 83% 10.3 mph S16.6 kmh S 16.0 mph25.7 kmh 29.21 in989.2 mb 0.01 in0.3 mm 0.00 in0.0 mm 0.12 in3.0 mm
03:58 PM 58.6°F14.8°C 53.5°F11.9°C 83% 12.0 mph S19.3 kmh S 16.0 mph25.7 kmh 29.21 in989.2 mb 0.01 in0.3 mm 0.00 in0.0 mm 0.12 in3.0 mm
03:59 PM 58.7°F14.8°C 53.5°F11.9°C 83% 10.7 mph S17.2 kmh S 16.0 mph25.7 kmh 29.21 in989.2 mb 0.01 in0.3 mm 0.00 in0.0 mm 0.12 in3.0 mm
04:00 PM 58.6°F14.8°C 53.1°F11.7°C 82% 14.6 mph S23.5 kmh S 19.0 mph30.6 kmh 29.21 in989.2 mb 0.01 in0.3 mm 0.00 in0.0 mm 0.12 in3.0 mm
04:01 PM 58.7°F14.8°C 53.2°F11.8°C 82% 14.8 mph S23.8 kmh S 19.0 mph30.6 kmh 29.21 in989.2 mb 0.01 in0.3 mm 0.00 in0.0 mm 0.12 in3.0 mm
04:02 PM 58.8°F14.9°C 53.3°F11.8°C 82% 11.9 mph S19.2 kmh S 18.0 mph29.0 kmh 29.21 in989.2 mb 0.01 in0.3 mm 0.00 in0.0 mm 0.12 in3.0 mm
04:03 PM 58.9°F14.9°C 53.7°F12.1°C 83% 9.7 mph S15.6 kmh S 17.0 mph27.4 kmh 29.21 in989.2 mb 0.01 in0.3 mm 0.00 in0.0 mm 0.12 in3.0 mm
04:04 PM 58.9°F14.9°C 53.1°F11.7°C 81% 13.0 mph S20.9 kmh S 21.0 mph33.8 kmh 29.21 in989.2 mb 0.01 in0.3 mm 0.00 in0.0 mm 0.12 in3.0 mm
04:05 PM 59.1°F15.1°C 53.3°F11.8°C 81% 12.5 mph S20.1 kmh S 21.0 mph33.8 kmh 29.21 in989.2 mb 0.01 in0.3 mm 0.00 in0.0 mm 0.12 in3.0 mm
04:06 PM 59.2°F15.1°C 53.4°F11.9°C 81% 11.3 mph S18.2 kmh S 18.0 mph29.0 kmh 29.21 in989.2 mb 0.01 in0.3 mm 0.00 in0.0 mm 0.12 in3.0 mm
04:07 PM 59.3°F15.2°C 53.8°F12.1°C 82% 10.3 mph S16.6 kmh S 15.0 mph24.1 kmh 29.21 in989.2 mb 0.01 in0.3 mm 0.00 in0.0 mm 0.12 in3.0 mm
04:08 PM 59.5°F15.3°C 54.0°F12.2°C 82% 10.5 mph S16.9 kmh S 16.0 mph25.7 kmh 29.21 in989.2 mb 0.01 in0.3 mm 0.00 in0.0 mm 0.12 in3.0 mm
04:09 PM 59.6°F15.3°C 53.1°F11.7°C 79% 14.9 mph S24.0 kmh S 22.0 mph35.4 kmh 29.21 in989.2 mb 0.01 in0.3 mm 0.00 in0.0 mm 0.12 in3.0 mm
04:10 PM 59.7°F15.4°C 53.2°F11.8°C 79% 12.9 mph S20.8 kmh S 22.0 mph35.4 kmh 29.21 in989.2 mb 0.01 in0.3 mm 0.00 in0.0 mm 0.12 in3.0 mm
04:11 PM 59.7°F15.4°C 53.2°F11.8°C 79% 10.1 mph S16.3 kmh S 18.0 mph29.0 kmh 29.21 in989.2 mb 0.01 in0.3 mm 0.00 in0.0 mm 0.12 in3.0 mm
04:12 PM 59.7°F15.4°C 53.2°F11.8°C 79% 13.4 mph S21.6 kmh S 22.0 mph35.4 kmh 29.21 in989.2 mb 0.01 in0.3 mm 0.00 in0.0 mm 0.12 in3.0 mm
04:13 PM 59.7°F15.4°C 52.8°F11.6°C 78% 12.7 mph S20.4 kmh S 22.0 mph35.4 kmh 29.21 in989.2 mb 0.01 in0.3 mm 0.00 in0.0 mm 0.12 in3.0 mm
04:14 PM 59.7°F15.4°C 52.8°F11.6°C 78% 12.1 mph SSW19.5 kmh SSW 19.0 mph30.6 kmh 29.21 in989.2 mb 0.01 in0.3 mm 0.00 in0.0 mm 0.12 in3.0 mm
04:15 PM 59.7°F15.4°C 53.2°F11.8°C 79% 12.7 mph S20.4 kmh S 19.0 mph30.6 kmh 29.21 in989.2 mb 0.01 in0.3 mm 0.00 in0.0 mm 0.12 in3.0 mm
04:16 PM 59.6°F15.3°C 52.4°F11.3°C 77% 13.1 mph S21.1 kmh S 19.0 mph30.6 kmh 29.21 in989.2 mb 0.01 in0.3 mm 0.00 in0.0 mm 0.12 in3.0 mm
04:17 PM 59.6°F15.3°C 52.4°F11.3°C 77% 14.4 mph S23.2 kmh S 24.0 mph38.6 kmh 29.21 in989.2 mb 0.01 in0.3 mm 0.00 in0.0 mm 0.12 in3.0 mm
04:18 PM 59.7°F15.4°C 52.8°F11.6°C 78% 11.4 mph S18.3 kmh S 24.0 mph38.6 kmh 29.21 in989.2 mb 0.01 in0.3 mm 0.00 in0.0 mm 0.12 in3.0 mm
04:19 PM 59.8°F15.4°C 52.9°F11.6°C 78% 13.5 mph SSW21.7 kmh SSW 22.0 mph35.4 kmh 29.21 in989.2 mb 0.01 in0.3 mm 0.00 in0.0 mm 0.12 in3.0 mm
04:20 PM 59.8°F15.4°C 52.6°F11.4°C 77% 13.1 mph SSW21.1 kmh SSW 22.0 mph35.4 kmh 29.21 in989.2 mb 0.01 in0.3 mm 0.00 in0.0 mm 0.12 in3.0 mm
04:21 PM 59.7°F15.4°C 52.5°F11.4°C 77% 12.5 mph S20.1 kmh S 19.0 mph30.6 kmh 29.21 in989.2 mb 0.01 in0.3 mm 0.00 in0.0 mm 0.12 in3.0 mm
04:22 PM 59.8°F15.4°C 52.9°F11.6°C 78% 9.4 mph S15.1 kmh S 19.0 mph30.6 kmh 29.21 in989.2 mb 0.00 in0.0 mm 0.00 in0.0 mm 0.12 in3.0 mm
04:23 PM 59.8°F15.4°C 52.9°F11.6°C 78% 11.3 mph S18.2 kmh S 19.0 mph30.6 kmh 29.21 in989.2 mb 0.00 in0.0 mm 0.00 in0.0 mm 0.12 in3.0 mm
04:24 PM 59.8°F15.4°C 52.6°F11.4°C 77% 14.9 mph S24.0 kmh S 25.0 mph40.2 kmh 29.21 in989.2 mb 0.00 in0.0 mm 0.00 in0.0 mm 0.12 in3.0 mm
04:25 PM 59.8°F15.4°C 52.9°F11.6°C 78% 13.7 mph S22.0 kmh S 25.0 mph40.2 kmh 29.21 in989.2 mb 0.00 in0.0 mm 0.00 in0.0 mm 0.12 in3.0 mm
04:26 PM 59.8°F15.4°C 52.6°F11.4°C 77% 14.0 mph S22.5 kmh S 23.0 mph37.0 kmh 29.22 in989.5 mb 0.00 in0.0 mm 0.00 in0.0 mm 0.12 in3.0 mm
04:27 PM 59.7°F15.4°C 52.1°F11.2°C 76% 19.8 mph S31.9 kmh S 25.0 mph40.2 kmh 29.22 in989.5 mb 0.00 in0.0 mm 0.00 in0.0 mm 0.12 in3.0 mm
04:28 PM 59.7°F15.4°C 52.1°F11.2°C 76% 15.2 mph S24.5 kmh S 25.0 mph40.2 kmh 29.21 in989.2 mb 0.00 in0.0 mm 0.00 in0.0 mm 0.12 in3.0 mm
04:29 PM 59.6°F15.3°C 52.0°F11.1°C 76% 14.2 mph S22.9 kmh S 24.0 mph38.6 kmh 29.21 in989.2 mb 0.00 in0.0 mm 0.00 in0.0 mm 0.12 in3.0 mm
04:30 PM 59.6°F15.3°C 52.4°F11.3°C 77% 14.7 mph S23.7 kmh S 22.0 mph35.4 kmh 29.22 in989.5 mb 0.01 in0.3 mm 0.60 in15.2 mm 0.13 in3.3 mm
04:31 PM 59.6°F15.3°C 52.4°F11.3°C 77% 17.1 mph S27.5 kmh S 22.0 mph35.4 kmh 29.21 in989.2 mb 0.01 in0.3 mm 0.00 in0.0 mm 0.13 in3.3 mm
04:32 PM 59.5°F15.3°C 51.9°F11.1°C 76% 17.7 mph S28.5 kmh S 24.0 mph38.6 kmh 29.21 in989.2 mb 0.01 in0.3 mm 0.00 in0.0 mm 0.13 in3.3 mm
04:33 PM 59.4°F15.2°C 51.8°F11.0°C 76% 17.5 mph S28.2 kmh S 26.0 mph41.8 kmh 29.21 in989.2 mb 0.01 in0.3 mm 0.00 in0.0 mm 0.13 in3.3 mm
04:34 PM 59.4°F15.2°C 51.8°F11.0°C 76% 16.2 mph S26.1 kmh S 26.0 mph41.8 kmh 29.21 in989.2 mb 0.01 in0.3 mm 0.00 in0.0 mm 0.13 in3.3 mm
04:35 PM 59.3°F15.2°C 51.7°F10.9°C 76% 10.0 mph S16.1 kmh S 17.0 mph27.4 kmh 29.21 in989.2 mb 0.01 in0.3 mm 0.00 in0.0 mm 0.13 in3.3 mm
04:36 PM 59.3°F15.2°C 52.1°F11.2°C 77% 11.0 mph S17.7 kmh S 18.0 mph29.0 kmh 29.21 in989.2 mb 0.01 in0.3 mm 0.00 in0.0 mm 0.13 in3.3 mm
04:37 PM 59.2°F15.1°C 52.0°F11.1°C 77% 9.6 mph S15.4 kmh S 13.0 mph20.9 kmh 29.21 in989.2 mb 0.01 in0.3 mm 0.00 in0.0 mm 0.13 in3.3 mm
04:38 PM 59.2°F15.1°C 51.6°F10.9°C 76% 12.6 mph S20.3 kmh S 17.0 mph27.4 kmh 29.21 in989.2 mb 0.01 in0.3 mm 0.00 in0.0 mm 0.13 in3.3 mm
04:39 PM 59.1°F15.1°C 51.2°F10.7°C 75% 15.0 mph S24.1 kmh S 21.0 mph33.8 kmh 29.21 in989.2 mb 0.01 in0.3 mm 0.00 in0.0 mm 0.13 in3.3 mm
04:40 PM 59.0°F15.0°C 51.1°F10.6°C 75% 14.0 mph S22.5 kmh S 21.0 mph33.8 kmh 29.21 in989.2 mb 0.01 in0.3 mm 0.00 in0.0 mm 0.13 in3.3 mm
04:41 PM 59.0°F15.0°C 51.4°F10.8°C 76% 10.5 mph S16.9 kmh S 19.0 mph30.6 kmh 29.21 in989.2 mb 0.01 in0.3 mm 0.00 in0.0 mm 0.13 in3.3 mm
04:42 PM 59.0°F15.0°C 51.4°F10.8°C 76% 11.9 mph S19.2 kmh S 23.0 mph37.0 kmh 29.21 in989.2 mb 0.01 in0.3 mm 0.00 in0.0 mm 0.13 in3.3 mm
04:43 PM 59.1°F15.1°C 51.5°F10.8°C 76% 8.5 mph S13.7 kmh S 23.0 mph37.0 kmh 29.21 in989.2 mb 0.01 in0.3 mm 0.00 in0.0 mm 0.13 in3.3 mm
04:44 PM 59.1°F15.1°C 51.5°F10.8°C 76% 10.4 mph S16.7 kmh S 17.0 mph27.4 kmh 29.21 in989.2 mb 0.01 in0.3 mm 0.00 in0.0 mm 0.13 in3.3 mm
04:45 PM 59.1°F15.1°C 51.2°F10.7°C 75% 13.3 mph S21.4 kmh S 18.0 mph29.0 kmh 29.21 in989.2 mb 0.01 in0.3 mm 0.00 in0.0 mm 0.13 in3.3 mm
04:46 PM 59.1°F15.1°C 51.5°F10.8°C 76% 12.5 mph S20.1 kmh S 18.0 mph29.0 kmh 29.21 in989.2 mb 0.01 in0.3 mm 0.00 in0.0 mm 0.13 in3.3 mm
04:47 PM 59.1°F15.1°C 51.5°F10.8°C 76% 12.3 mph S19.8 kmh S 21.0 mph33.8 kmh 29.21 in989.2 mb 0.01 in0.3 mm 0.00 in0.0 mm 0.13 in3.3 mm
04:48 PM 59.1°F15.1°C 51.2°F10.7°C 75% 12.3 mph S19.8 kmh S 21.0 mph33.8 kmh 29.21 in989.2 mb 0.01 in0.3 mm 0.00 in0.0 mm 0.13 in3.3 mm
04:49 PM 59.0°F15.0°C 51.4°F10.8°C 76% 13.9 mph S22.4 kmh S 20.0 mph32.2 kmh 29.21 in989.2 mb 0.01 in0.3 mm 0.00 in0.0 mm 0.13 in3.3 mm
04:50 PM 58.9°F14.9°C 51.3°F10.7°C 76% 18.4 mph S29.6 kmh S 25.0 mph40.2 kmh 29.21 in989.2 mb 0.01 in0.3 mm 0.00 in0.0 mm 0.13 in3.3 mm
04:51 PM 58.8°F14.9°C 51.6°F10.9°C 77% 14.8 mph S23.8 kmh S 25.0 mph40.2 kmh 29.21 in989.2 mb 0.01 in0.3 mm 0.00 in0.0 mm 0.13 in3.3 mm
04:52 PM 58.8°F14.9°C 51.6°F10.9°C 77% 17.6 mph S28.3 kmh S 24.0 mph38.6 kmh 29.21 in989.2 mb 0.01 in0.3 mm 0.00 in0.0 mm 0.13 in3.3 mm
04:53 PM 58.8°F14.9°C 51.6°F10.9°C 77% 13.1 mph S21.1 kmh S 24.0 mph38.6 kmh 29.21 in989.2 mb 0.01 in0.3 mm 0.00 in0.0 mm 0.13 in3.3 mm
04:54 PM 58.9°F14.9°C 51.7°F10.9°C 77% 12.2 mph S19.6 kmh S 21.0 mph33.8 kmh 29.21 in989.2 mb 0.01 in0.3 mm 0.00 in0.0 mm 0.13 in3.3 mm
04:55 PM 58.9°F14.9°C 51.7°F10.9°C 77% 13.4 mph S21.6 kmh S 21.0 mph33.8 kmh 29.21 in989.2 mb 0.01 in0.3 mm 0.00 in0.0 mm 0.13 in3.3 mm
04:56 PM 58.9°F14.9°C 52.1°F11.2°C 78% 12.7 mph S20.4 kmh S 20.0 mph32.2 kmh 29.21 in989.2 mb 0.01 in0.3 mm 0.00 in0.0 mm 0.13 in3.3 mm
04:57 PM 58.9°F14.9°C 51.7°F10.9°C 77% 15.9 mph S25.6 kmh S 24.0 mph38.6 kmh 29.21 in989.2 mb 0.01 in0.3 mm 0.00 in0.0 mm 0.13 in3.3 mm
04:58 PM 58.9°F14.9°C 52.1°F11.2°C 78% 13.1 mph S21.1 kmh S 24.0 mph38.6 kmh 29.21 in989.2 mb 0.01 in0.3 mm 0.00 in0.0 mm 0.13 in3.3 mm
04:59 PM 58.9°F14.9°C 52.1°F11.2°C 78% 11.0 mph S17.7 kmh S 20.0 mph32.2 kmh 29.21 in989.2 mb 0.01 in0.3 mm 0.00 in0.0 mm 0.13 in3.3 mm
05:00 PM 58.9°F14.9°C 52.1°F11.2°C 78% 13.8 mph S22.2 kmh S 23.0 mph37.0 kmh 29.21 in989.2 mb 0.01 in0.3 mm 0.00 in0.0 mm 0.13 in3.3 mm
05:01 PM 58.9°F14.9°C 51.7°F10.9°C 77% 16.6 mph S26.7 kmh S 23.0 mph37.0 kmh 29.21 in989.2 mb 0.01 in0.3 mm 0.00 in0.0 mm 0.13 in3.3 mm
05:02 PM 58.9°F14.9°C 51.7°F10.9°C 77% 16.7 mph S26.9 kmh S 25.0 mph40.2 kmh 29.21 in989.2 mb 0.01 in0.3 mm 0.00 in0.0 mm 0.13 in3.3 mm
05:03 PM 58.9°F14.9°C 51.7°F10.9°C 77% 13.6 mph S21.9 kmh S 27.0 mph43.5 kmh 29.21 in989.2 mb 0.01 in0.3 mm 0.00 in0.0 mm 0.13 in3.3 mm
05:04 PM 58.9°F14.9°C 51.3°F10.7°C 76% 17.4 mph S28.0 kmh S 27.0 mph43.5 kmh 29.21 in989.2 mb 0.01 in0.3 mm 0.00 in0.0 mm 0.13 in3.3 mm
05:05 PM 58.9°F14.9°C 51.7°F10.9°C 77% 12.0 mph S19.3 kmh S 25.0 mph40.2 kmh 29.21 in989.2 mb 0.01 in0.3 mm 0.00 in0.0 mm 0.13 in3.3 mm
05:06 PM 58.9°F14.9°C 51.7°F10.9°C 77% 11.1 mph S17.9 kmh S 18.0 mph29.0 kmh 29.21 in989.2 mb 0.01 in0.3 mm 0.00 in0.0 mm 0.13 in3.3 mm
05:07 PM 59.0°F15.0°C 51.8°F11.0°C 77% 11.6 mph S18.7 kmh S 18.0 mph29.0 kmh 29.21 in989.2 mb 0.01 in0.3 mm 0.00 in0.0 mm 0.13 in3.3 mm
05:08 PM 58.9°F14.9°C 51.7°F10.9°C 77% 14.7 mph S23.7 kmh S 22.0 mph35.4 kmh 29.21 in989.2 mb 0.01 in0.3 mm 0.00 in0.0 mm 0.13 in3.3 mm
05:09 PM 58.9°F14.9°C 51.7°F10.9°C 77% 12.9 mph S20.8 kmh S 25.0 mph40.2 kmh 29.21 in989.2 mb 0.01 in0.3 mm 0.00 in0.0 mm 0.13 in3.3 mm
05:10 PM 59.0°F15.0°C 52.1°F11.2°C 78% 12.5 mph S20.1 kmh S 25.0 mph40.2 kmh 29.21 in989.2 mb 0.01 in0.3 mm 0.00 in0.0 mm 0.13 in3.3 mm
05:11 PM 58.9°F14.9°C 51.7°F10.9°C 77% 16.6 mph S26.7 kmh S 23.0 mph37.0 kmh 29.21 in989.2 mb 0.01 in0.3 mm 0.00 in0.0 mm 0.13 in3.3 mm
05:12 PM 58.9°F14.9°C 52.1°F11.2°C 78% 9.8 mph S15.8 kmh S 23.0 mph37.0 kmh 29.21 in989.2 mb 0.01 in0.3 mm 0.00 in0.0 mm 0.13 in3.3 mm
05:13 PM 58.8°F14.9°C 52.0°F11.1°C 78% 10.0 mph S16.1 kmh S 15.0 mph24.1 kmh 29.21 in989.2 mb 0.01 in0.3 mm 0.00 in0.0 mm 0.13 in3.3 mm
05:14 PM 58.7°F14.8°C 52.2°F11.2°C 79% 11.0 mph S17.7 kmh S 17.0 mph27.4 kmh 29.21 in989.2 mb 0.01 in0.3 mm 0.00 in0.0 mm 0.13 in3.3 mm
05:15 PM 58.6°F14.8°C 51.8°F11.0°C 78% 14.2 mph S22.9 kmh S 23.0 mph37.0 kmh 29.21 in989.2 mb 0.01 in0.3 mm 0.00 in0.0 mm 0.13 in3.3 mm
05:16 PM 58.5°F14.7°C 51.7°F10.9°C 78% 14.5 mph S23.3 kmh S 23.0 mph37.0 kmh 29.21 in989.2 mb 0.01 in0.3 mm 0.00 in0.0 mm 0.13 in3.3 mm
05:17 PM 58.4°F14.7°C 51.6°F10.9°C 78% 15.0 mph S24.1 kmh S 21.0 mph33.8 kmh 29.21 in989.2 mb 0.01 in0.3 mm 0.00 in0.0 mm 0.13 in3.3 mm
05:18 PM 58.3°F14.6°C 51.5°F10.8°C 78% 16.3 mph S26.2 kmh S 22.0 mph35.4 kmh 29.21 in989.2 mb 0.01 in0.3 mm 0.00 in0.0 mm 0.13 in3.3 mm
05:19 PM 58.2°F14.6°C 51.4°F10.8°C 78% 12.6 mph S20.3 kmh S 22.0 mph35.4 kmh 29.21 in989.2 mb 0.01 in0.3 mm 0.00 in0.0 mm 0.13 in3.3 mm
05:20 PM 58.1°F14.5°C 51.3°F10.7°C 78% 10.6 mph S17.1 kmh S 20.0 mph32.2 kmh 29.21 in989.2 mb 0.01 in0.3 mm 0.00 in0.0 mm 0.13 in3.3 mm
05:21 PM 58.1°F14.5°C 51.3°F10.7°C 78% 11.4 mph S18.3 kmh S 20.0 mph32.2 kmh 29.21 in989.2 mb 0.01 in0.3 mm 0.00 in0.0 mm 0.13 in3.3 mm
05:22 PM 58.0°F14.4°C 51.2°F10.7°C 78% 13.8 mph S22.2 kmh S 21.0 mph33.8 kmh 29.21 in989.2 mb 0.01 in0.3 mm 0.00 in0.0 mm 0.13 in3.3 mm
05:23 PM 58.0°F14.4°C 51.5°F10.8°C 79% 14.3 mph S23.0 kmh S 21.0 mph33.8 kmh 29.21 in989.2 mb 0.01 in0.3 mm 0.00 in0.0 mm 0.13 in3.3 mm
05:24 PM 57.9°F14.4°C 51.4°F10.8°C 79% 10.7 mph S17.2 kmh S 21.0 mph33.8 kmh 29.21 in989.2 mb 0.01 in0.3 mm 0.00 in0.0 mm 0.13 in3.3 mm
05:25 PM 57.8°F14.3°C 51.3°F10.7°C 79% 16.5 mph SSW26.6 kmh SSW 21.0 mph33.8 kmh 29.21 in989.2 mb 0.01 in0.3 mm 0.00 in0.0 mm 0.13 in3.3 mm
05:26 PM 57.8°F14.3°C 51.7°F10.9°C 80% 13.8 mph SSW22.2 kmh SSW 21.0 mph33.8 kmh 29.21 in989.2 mb 0.01 in0.3 mm 0.00 in0.0 mm 0.13 in3.3 mm
05:27 PM 57.8°F14.3°C 51.7°F10.9°C 80% 9.4 mph S15.1 kmh S 19.0 mph30.6 kmh 29.21 in989.2 mb 0.01 in0.3 mm 0.00 in0.0 mm 0.13 in3.3 mm
05:28 PM 57.7°F14.3°C 51.6°F10.9°C 80% 7.5 mph S12.1 kmh S 14.0 mph22.5 kmh 29.21 in989.2 mb 0.01 in0.3 mm 0.00 in0.0 mm 0.13 in3.3 mm
05:29 PM 57.6°F14.2°C 51.8°F11.0°C 81% 10.3 mph S16.6 kmh S 14.0 mph22.5 kmh 29.21 in989.2 mb 0.01 in0.3 mm 0.00 in0.0 mm 0.13 in3.3 mm
05:30 PM 57.6°F14.2°C 51.8°F11.0°C 81% 10.6 mph SSW17.1 kmh SSW 14.0 mph22.5 kmh 29.21 in989.2 mb 0.00 in0.0 mm 0.00 in0.0 mm 0.13 in3.3 mm
05:31 PM 57.5°F14.2°C 52.0°F11.1°C 82% 10.0 mph S16.1 kmh S 13.0 mph20.9 kmh 29.21 in989.2 mb 0.00 in0.0 mm 0.00 in0.0 mm 0.13 in3.3 mm
05:32 PM 57.4°F14.1°C 51.9°F11.1°C 82% 11.0 mph SSW17.7 kmh SSW 16.0 mph25.7 kmh 29.21 in989.2 mb 0.00 in0.0 mm 0.00 in0.0 mm 0.13 in3.3 mm
05:33 PM 57.4°F14.1°C 52.3°F11.3°C 83% 11.0 mph SSW17.7 kmh SSW 15.0 mph24.1 kmh 29.21 in989.2 mb 0.00 in0.0 mm 0.00 in0.0 mm 0.13 in3.3 mm
05:34 PM 57.3°F14.1°C 52.2°F11.2°C 83% 8.6 mph SSW13.8 kmh SSW 13.0 mph20.9 kmh 29.21 in989.2 mb 0.00 in0.0 mm 0.00 in0.0 mm 0.13 in3.3 mm
05:35 PM 57.2°F14.0°C 51.8°F11.0°C 82% 15.4 mph S24.8 kmh S 22.0 mph35.4 kmh 29.21 in989.2 mb 0.00 in0.0 mm 0.00 in0.0 mm 0.13 in3.3 mm
05:36 PM 57.1°F13.9°C 52.0°F11.1°C 83% 12.8 mph SSW20.6 kmh SSW 22.0 mph35.4 kmh 29.20 in988.8 mb 0.00 in0.0 mm 0.00 in0.0 mm 0.13 in3.3 mm
05:37 PM 57.0°F13.9°C 52.2°F11.2°C 84% 11.2 mph S18.0 kmh S 18.0 mph29.0 kmh 29.21 in989.2 mb 0.00 in0.0 mm 0.00 in0.0 mm 0.13 in3.3 mm
05:38 PM 56.9°F13.8°C 52.1°F11.2°C 84% 13.1 mph S21.1 kmh S 18.0 mph29.0 kmh 29.21 in989.2 mb 0.00 in0.0 mm 0.00 in0.0 mm 0.13 in3.3 mm
05:39 PM 56.8°F13.8°C 52.0°F11.1°C 84% 12.7 mph S20.4 kmh S 27.0 mph43.5 kmh 29.21 in989.2 mb 0.00 in0.0 mm 0.00 in0.0 mm 0.13 in3.3 mm
05:40 PM 56.7°F13.7°C 52.2°F11.2°C 85% 12.3 mph S19.8 kmh S 27.0 mph43.5 kmh 29.21 in989.2 mb 0.00 in0.0 mm 0.00 in0.0 mm 0.13 in3.3 mm
05:41 PM 56.6°F13.7°C 52.1°F11.2°C 85% 14.1 mph S22.7 kmh S 19.0 mph30.6 kmh 29.21 in989.2 mb 0.01 in0.3 mm 0.60 in15.2 mm 0.13 in3.3 mm
05:42 PM 56.5°F13.6°C 52.0°F11.1°C 85% 10.9 mph SSW17.5 kmh SSW 19.0 mph30.6 kmh 29.21 in989.2 mb 0.01 in0.3 mm 0.00 in0.0 mm 0.13 in3.3 mm
05:43 PM 56.4°F13.6°C 52.3°F11.3°C 86% 10.1 mph S16.3 kmh S 16.0 mph25.7 kmh 29.21 in989.2 mb 0.01 in0.3 mm 0.00 in0.0 mm 0.13 in3.3 mm
05:44 PM 56.3°F13.5°C 52.5°F11.4°C 87% 12.0 mph SSW19.3 kmh SSW 15.0 mph24.1 kmh 29.21 in989.2 mb 0.01 in0.3 mm 0.00 in0.0 mm 0.13 in3.3 mm
05:45 PM 56.2°F13.4°C 52.4°F11.3°C 87% 12.7 mph SSW20.4 kmh SSW 19.0 mph30.6 kmh 29.21 in989.2 mb 0.01 in0.3 mm 0.00 in0.0 mm 0.13 in3.3 mm
05:46 PM 56.1°F13.4°C 52.3°F11.3°C 87% 13.2 mph S21.2 kmh S 19.0 mph30.6 kmh 29.21 in989.2 mb 0.01 in0.3 mm 0.00 in0.0 mm 0.13 in3.3 mm
05:47 PM 56.1°F13.4°C 52.3°F11.3°C 87% 10.2 mph S16.4 kmh S 17.0 mph27.4 kmh 29.21 in989.2 mb 0.01 in0.3 mm 0.00 in0.0 mm 0.13 in3.3 mm
05:48 PM 56.0°F13.3°C 52.2°F11.2°C 87% 9.4 mph S15.1 kmh S 19.0 mph30.6 kmh 29.21 in989.2 mb 0.01 in0.3 mm 0.00 in0.0 mm 0.13 in3.3 mm
05:49 PM 56.0°F13.3°C 52.5°F11.4°C 88% 11.6 mph S18.7 kmh S 16.0 mph25.7 kmh 29.21 in989.2 mb 0.01 in0.3 mm 0.00 in0.0 mm 0.13 in3.3 mm
05:50 PM 55.8°F13.2°C 52.3°F11.3°C 88% 11.9 mph S19.2 kmh S 17.0 mph27.4 kmh 29.20 in988.8 mb 0.02 in0.5 mm 0.60 in15.2 mm 0.14 in3.6 mm
05:51 PM 55.7°F13.2°C 51.9°F11.1°C 87% 16.0 mph S25.7 kmh S 24.0 mph38.6 kmh 29.20 in988.8 mb 0.02 in0.5 mm 0.00 in0.0 mm 0.14 in3.6 mm
05:52 PM 55.7°F13.2°C 51.9°F11.1°C 87% 11.0 mph S17.7 kmh S 18.0 mph29.0 kmh 29.20 in988.8 mb 0.02 in0.5 mm 0.00 in0.0 mm 0.14 in3.6 mm
05:53 PM 55.7°F13.2°C 52.2°F11.2°C 88% 10.0 mph S16.1 kmh S 15.0 mph24.1 kmh 29.20 in988.8 mb 0.02 in0.5 mm 0.00 in0.0 mm 0.14 in3.6 mm
05:54 PM 55.6°F13.1°C 52.1°F11.2°C 88% 13.2 mph S21.2 kmh S 23.0 mph37.0 kmh 29.20 in988.8 mb 0.02 in0.5 mm 0.00 in0.0 mm 0.14 in3.6 mm
05:55 PM 55.6°F13.1°C 52.1°F11.2°C 88% 7.9 mph S12.7 kmh S 23.0 mph37.0 kmh 29.20 in988.8 mb 0.02 in0.5 mm 0.00 in0.0 mm 0.14 in3.6 mm
05:56 PM 55.5°F13.1°C 52.3°F11.3°C 89% 9.6 mph S15.4 kmh S 16.0 mph25.7 kmh 29.20 in988.8 mb 0.02 in0.5 mm 0.00 in0.0 mm 0.14 in3.6 mm
05:57 PM 55.5°F13.1°C 52.3°F11.3°C 89% 9.1 mph S14.6 kmh S 16.0 mph25.7 kmh 29.20 in988.8 mb 0.02 in0.5 mm 0.00 in0.0 mm 0.14 in3.6 mm
05:58 PM 55.4°F13.0°C 52.2°F11.2°C 89% 9.4 mph S15.1 kmh S 12.0 mph19.3 kmh 29.20 in988.8 mb 0.02 in0.5 mm 0.00 in0.0 mm 0.14 in3.6 mm
05:59 PM 55.4°F13.0°C 52.2°F11.2°C 89% 10.2 mph S16.4 kmh S 14.0 mph22.5 kmh 29.20 in988.8 mb 0.02 in0.5 mm 0.00 in0.0 mm 0.14 in3.6 mm
06:00 PM 55.3°F12.9°C 52.1°F11.2°C 89% 9.5 mph S15.3 kmh S 16.0 mph25.7 kmh 29.20 in988.8 mb 0.02 in0.5 mm 0.00 in0.0 mm 0.14 in3.6 mm
06:01 PM 55.3°F12.9°C 51.8°F11.0°C 88% 11.8 mph S19.0 kmh S 18.0 mph29.0 kmh 29.20 in988.8 mb 0.02 in0.5 mm 0.00 in0.0 mm 0.14 in3.6 mm
06:02 PM 55.3°F12.9°C 51.8°F11.0°C 88% 9.9 mph S15.9 kmh S 18.0 mph29.0 kmh 29.20 in988.8 mb 0.02 in0.5 mm 0.00 in0.0 mm 0.14 in3.6 mm
06:03 PM 55.3°F12.9°C 51.8°F11.0°C 88% 12.6 mph S20.3 kmh S 17.0 mph27.4 kmh 29.20 in988.8 mb 0.02 in0.5 mm 0.00 in0.0 mm 0.14 in3.6 mm
06:04 PM 55.3°F12.9°C 51.8°F11.0°C 88% 12.0 mph S19.3 kmh S 16.0 mph25.7 kmh 29.20 in988.8 mb 0.02 in0.5 mm 0.00 in0.0 mm 0.14 in3.6 mm
06:05 PM 55.3°F12.9°C 51.8°F11.0°C 88% 8.0 mph S12.9 kmh S 11.0 mph17.7 kmh 29.20 in988.8 mb 0.02 in0.5 mm 0.00 in0.0 mm 0.14 in3.6 mm
06:06 PM 55.3°F12.9°C 51.8°F11.0°C 88% 10.7 mph S17.2 kmh S 13.0 mph20.9 kmh 29.20 in988.8 mb 0.02 in0.5 mm 0.00 in0.0 mm 0.14 in3.6 mm
06:07 PM 55.3°F12.9°C 51.8°F11.0°C 88% 11.8 mph S19.0 kmh S 17.0 mph27.4 kmh 29.20 in988.8 mb 0.02 in0.5 mm 0.00 in0.0 mm 0.14 in3.6 mm
06:08 PM 55.3°F12.9°C 51.8°F11.0°C 88% 10.0 mph S16.1 kmh S 17.0 mph27.4 kmh 29.20 in988.8 mb 0.02 in0.5 mm 0.00 in0.0 mm 0.14 in3.6 mm
06:09 PM 55.3°F12.9°C 51.8°F11.0°C 88% 14.1 mph S22.7 kmh S 25.0 mph40.2 kmh 29.20 in988.8 mb 0.02 in0.5 mm 0.00 in0.0 mm 0.14 in3.6 mm
06:10 PM 55.3°F12.9°C 51.8°F11.0°C 88% 12.4 mph S20.0 kmh S 25.0 mph40.2 kmh 29.20 in988.8 mb 0.02 in0.5 mm 0.00 in0.0 mm 0.14 in3.6 mm
06:11 PM 55.3°F12.9°C 51.8°F11.0°C 88% 8.5 mph S13.7 kmh S 20.0 mph32.2 kmh 29.20 in988.8 mb 0.02 in0.5 mm 0.00 in0.0 mm 0.14 in3.6 mm
06:12 PM 55.3°F12.9°C 51.8°F11.0°C 88% 13.4 mph S21.6 kmh S 18.0 mph29.0 kmh 29.20 in988.8 mb 0.02 in0.5 mm 0.00 in0.0 mm 0.14 in3.6 mm
06:13 PM 55.3°F12.9°C 51.8°F11.0°C 88% 10.0 mph S16.1 kmh S 18.0 mph29.0 kmh 29.20 in988.8 mb 0.02 in0.5 mm 0.00 in0.0 mm 0.14 in3.6 mm
06:14 PM 55.3°F12.9°C 51.8°F11.0°C 88% 12.2 mph S19.6 kmh S 15.0 mph24.1 kmh 29.20 in988.8 mb 0.02 in0.5 mm 0.00 in0.0 mm 0.14 in3.6 mm
06:15 PM 55.3°F12.9°C 51.8°F11.0°C 88% 13.4 mph S21.6 kmh S 19.0 mph30.6 kmh 29.20 in988.8 mb 0.02 in0.5 mm 0.00 in0.0 mm 0.14 in3.6 mm
06:16 PM 55.3°F12.9°C 51.5°F10.8°C 87% 13.2 mph S21.2 kmh S 19.0 mph30.6 kmh 29.20 in988.8 mb 0.02 in0.5 mm 0.00 in0.0 mm 0.14 in3.6 mm
06:17 PM 55.3°F12.9°C 51.5°F10.8°C 87% 9.0 mph S14.5 kmh S 19.0 mph30.6 kmh 29.20 in988.8 mb 0.02 in0.5 mm 0.00 in0.0 mm 0.14 in3.6 mm
06:18 PM 55.2°F12.9°C 51.7°F10.9°C 88% 11.4 mph SSE18.3 kmh SSE 15.0 mph24.1 kmh 29.20 in988.8 mb 0.02 in0.5 mm 0.00 in0.0 mm 0.14 in3.6 mm
06:19 PM 55.2°F12.9°C 51.4°F10.8°C 87% 11.4 mph S18.3 kmh S 16.0 mph25.7 kmh 29.20 in988.8 mb 0.02 in0.5 mm 0.00 in0.0 mm 0.14 in3.6 mm
06:20 PM 55.2°F12.9°C 51.4°F10.8°C 87% 11.8 mph S19.0 kmh S 16.0 mph25.7 kmh 29.20 in988.8 mb 0.02 in0.5 mm 0.00 in0.0 mm 0.14 in3.6 mm
06:21 PM 55.2°F12.9°C 51.4°F10.8°C 87% 12.4 mph S20.0 kmh S 17.0 mph27.4 kmh 29.20 in988.8 mb 0.02 in0.5 mm 0.00 in0.0 mm 0.14 in3.6 mm
06:22 PM 55.2°F12.9°C 51.4°F10.8°C 87% 11.0 mph S17.7 kmh S 17.0 mph27.4 kmh 29.20 in988.8 mb 0.02 in0.5 mm 0.00 in0.0 mm 0.14 in3.6 mm
06:23 PM 55.2°F12.9°C 51.7°F10.9°C 88% 11.0 mph S17.7 kmh S 19.0 mph30.6 kmh 29.20 in988.8 mb 0.02 in0.5 mm 0.00 in0.0 mm 0.14 in3.6 mm
06:24 PM 55.1°F12.8°C 51.3°F10.7°C 87% 13.0 mph S20.9 kmh S 18.0 mph29.0 kmh 29.20 in988.8 mb 0.02 in0.5 mm 0.00 in0.0 mm 0.14 in3.6 mm
06:25 PM 55.1°F12.8°C 51.6°F10.9°C 88% 10.2 mph S16.4 kmh S 14.0 mph22.5 kmh 29.20 in988.8 mb 0.02 in0.5 mm 0.00 in0.0 mm 0.14 in3.6 mm
06:26 PM 55.1°F12.8°C 51.6°F10.9°C 88% 14.1 mph S22.7 kmh S 20.0 mph32.2 kmh 29.20 in988.8 mb 0.02 in0.5 mm 0.00 in0.0 mm 0.14 in3.6 mm
06:27 PM 55.1°F12.8°C 51.6°F10.9°C 88% 10.0 mph S16.1 kmh S 14.0 mph22.5 kmh 29.20 in988.8 mb 0.02 in0.5 mm 0.00 in0.0 mm 0.14 in3.6 mm
06:28 PM 55.0°F12.8°C 51.5°F10.8°C 88% 11.0 mph S17.7 kmh S 14.0 mph22.5 kmh 29.20 in988.8 mb 0.02 in0.5 mm 0.00 in0.0 mm 0.14 in3.6 mm
06:29 PM 55.0°F12.8°C 51.5°F10.8°C 88% 12.0 mph S19.3 kmh S 16.0 mph25.7 kmh 29.20 in988.8 mb 0.02 in0.5 mm 0.00 in0.0 mm 0.14 in3.6 mm
06:30 PM 55.0°F12.8°C 51.5°F10.8°C 88% 9.6 mph S15.4 kmh S 16.0 mph25.7 kmh 29.20 in988.8 mb 0.02 in0.5 mm 0.00 in0.0 mm 0.14 in3.6 mm
06:31 PM 54.9°F12.7°C 51.4°F10.8°C 88% 8.6 mph S13.8 kmh S 16.0 mph25.7 kmh 29.20 in988.8 mb 0.02 in0.5 mm 0.00 in0.0 mm 0.14 in3.6 mm
06:32 PM 54.9°F12.7°C 51.4°F10.8°C 88% 10.0 mph S16.1 kmh S 13.0 mph20.9 kmh 29.20 in988.8 mb 0.02 in0.5 mm 0.00 in0.0 mm 0.14 in3.6 mm
06:33 PM 54.8°F12.7°C 51.3°F10.7°C 88% 9.0 mph S14.5 kmh S 14.0 mph22.5 kmh 29.20 in988.8 mb 0.02 in0.5 mm 0.00 in0.0 mm 0.14 in3.6 mm
06:34 PM 54.8°F12.7°C 51.3°F10.7°C 88% 10.2 mph S16.4 kmh S 11.0 mph17.7 kmh 29.20 in988.8 mb 0.02 in0.5 mm 0.00 in0.0 mm 0.14 in3.6 mm
06:35 PM 54.8°F12.7°C 51.0°F10.6°C 87% 15.4 mph S24.8 kmh S 23.0 mph37.0 kmh 29.20 in988.8 mb 0.02 in0.5 mm 0.00 in0.0 mm 0.14 in3.6 mm
06:36 PM 54.7°F12.6°C 50.9°F10.5°C 87% 12.0 mph S19.3 kmh S 17.0 mph27.4 kmh 29.20 in988.8 mb 0.02 in0.5 mm 0.00 in0.0 mm 0.14 in3.6 mm
06:37 PM 54.8°F12.7°C 51.0°F10.6°C 87% 13.0 mph S20.9 kmh S 20.0 mph32.2 kmh 29.20 in988.8 mb 0.02 in0.5 mm 0.00 in0.0 mm 0.14 in3.6 mm
06:38 PM 54.8°F12.7°C 51.0°F10.6°C 87% 11.7 mph S18.8 kmh S 12.0 mph19.3 kmh 29.20 in988.8 mb 0.02 in0.5 mm 0.00 in0.0 mm 0.14 in3.6 mm
06:39 PM 54.7°F12.6°C 50.9°F10.5°C 87% 14.2 mph S22.9 kmh S 20.0 mph32.2 kmh 29.20 in988.8 mb 0.02 in0.5 mm 0.00 in0.0 mm 0.14 in3.6 mm
06:40 PM 54.7°F12.6°C 50.9°F10.5°C 87% 15.5 mph S24.9 kmh S 21.0 mph33.8 kmh 29.20 in988.8 mb 0.02 in0.5 mm 0.00 in0.0 mm 0.14 in3.6 mm
06:41 PM 54.7°F12.6°C 50.9°F10.5°C 87% 13.8 mph S22.2 kmh S 21.0 mph33.8 kmh 29.20 in988.8 mb 0.01 in0.3 mm 0.00 in0.0 mm 0.14 in3.6 mm
06:42 PM 54.7°F12.6°C 51.2°F10.7°C 88% 10.8 mph S17.4 kmh S 20.0 mph32.2 kmh 29.20 in988.8 mb 0.02 in0.5 mm 0.60 in15.2 mm 0.15 in3.8 mm
06:43 PM 54.6°F12.6°C 51.1°F10.6°C 88% 14.5 mph S23.3 kmh S 25.0 mph40.2 kmh 29.20 in988.8 mb 0.02 in0.5 mm 0.00 in0.0 mm 0.15 in3.8 mm
06:44 PM 54.5°F12.5°C 50.7°F10.4°C 87% 17.8 mph S28.6 kmh S 27.0 mph43.5 kmh 29.20 in988.8 mb 0.02 in0.5 mm 0.00 in0.0 mm 0.15 in3.8 mm
06:45 PM 54.5°F12.5°C 51.0°F10.6°C 88% 12.1 mph S19.5 kmh S 27.0 mph43.5 kmh 29.20 in988.8 mb 0.02 in0.5 mm 0.00 in0.0 mm 0.15 in3.8 mm
06:46 PM 54.5°F12.5°C 51.0°F10.6°C 88% 11.9 mph S19.2 kmh S 17.0 mph27.4 kmh 29.20 in988.8 mb 0.02 in0.5 mm 0.00 in0.0 mm 0.15 in3.8 mm
06:47 PM 54.5°F12.5°C 51.0°F10.6°C 88% 12.1 mph S19.5 kmh S 19.0 mph30.6 kmh 29.20 in988.8 mb 0.02 in0.5 mm 0.00 in0.0 mm 0.15 in3.8 mm
06:48 PM 54.4°F12.4°C 50.9°F10.5°C 88% 11.8 mph S19.0 kmh S 19.0 mph30.6 kmh 29.20 in988.8 mb 0.02 in0.5 mm 0.00 in0.0 mm 0.15 in3.8 mm
06:49 PM 54.4°F12.4°C 51.2°F10.7°C 89% 13.1 mph S21.1 kmh S 22.0 mph35.4 kmh 29.20 in988.8 mb 0.02 in0.5 mm 0.00 in0.0 mm 0.16 in4.1 mm
06:50 PM 54.3°F12.4°C 51.1°F10.6°C 89% 15.5 mph S24.9 kmh S 23.0 mph37.0 kmh 29.20 in988.8 mb 0.02 in0.5 mm 0.00 in0.0 mm 0.16 in4.1 mm
06:51 PM 54.3°F12.4°C 51.1°F10.6°C 89% 12.2 mph S19.6 kmh S 23.0 mph37.0 kmh 29.20 in988.8 mb 0.02 in0.5 mm 0.00 in0.0 mm 0.17 in4.3 mm
06:52 PM 54.2°F12.3°C 51.0°F10.6°C 89% 13.6 mph S21.9 kmh S 19.0 mph30.6 kmh 29.20 in988.8 mb 0.02 in0.5 mm 0.00 in0.0 mm 0.17 in4.3 mm
06:53 PM 54.1°F12.3°C 50.9°F10.5°C 89% 11.5 mph S18.5 kmh S 19.0 mph30.6 kmh 29.20 in988.8 mb 0.02 in0.5 mm 0.00 in0.0 mm 0.17 in4.3 mm
06:54 PM 54.1°F12.3°C 50.9°F10.5°C 89% 10.8 mph S17.4 kmh S 16.0 mph25.7 kmh 29.20 in988.8 mb 0.02 in0.5 mm 0.00 in0.0 mm 0.17 in4.3 mm
06:55 PM 54.1°F12.3°C 50.9°F10.5°C 89% 11.0 mph S17.7 kmh S 17.0 mph27.4 kmh 29.20 in988.8 mb 0.02 in0.5 mm 0.00 in0.0 mm 0.17 in4.3 mm
06:56 PM 54.1°F12.3°C 50.9°F10.5°C 89% 12.0 mph SSE19.3 kmh SSE 19.0 mph30.6 kmh 29.20 in988.8 mb 0.02 in0.5 mm 0.00 in0.0 mm 0.17 in4.3 mm
06:57 PM 54.0°F12.2°C 50.8°F10.4°C 89% 14.0 mph S22.5 kmh S 20.0 mph32.2 kmh 29.20 in988.8 mb 0.03 in0.8 mm 0.60 in15.2 mm 0.17 in4.3 mm
06:58 PM 53.9°F12.2°C 50.7°F10.4°C 89% 12.4 mph S20.0 kmh S 19.0 mph30.6 kmh 29.20 in988.8 mb 0.03 in0.8 mm 0.00 in0.0 mm 0.17 in4.3 mm
06:59 PM 53.9°F12.2°C 51.0°F10.6°C 90% 11.9 mph S19.2 kmh S 19.0 mph30.6 kmh 29.20 in988.8 mb 0.03 in0.8 mm 0.00 in0.0 mm 0.17 in4.3 mm
07:00 PM 53.9°F12.2°C 51.0°F10.6°C 90% 9.6 mph S15.4 kmh S 19.0 mph30.6 kmh 29.21 in989.2 mb 0.03 in0.8 mm 0.00 in0.0 mm 0.17 in4.3 mm
07:01 PM 53.8°F12.1°C 50.9°F10.5°C 90% 10.2 mph S16.4 kmh S 18.0 mph29.0 kmh 29.20 in988.8 mb 0.03 in0.8 mm 0.00 in0.0 mm 0.17 in4.3 mm
07:02 PM 53.8°F12.1°C 50.9°F10.5°C 90% 11.0 mph S17.7 kmh S 15.0 mph24.1 kmh 29.20 in988.8 mb 0.03 in0.8 mm 0.00 in0.0 mm 0.17 in4.3 mm
07:03 PM 53.8°F12.1°C 50.9°F10.5°C 90% 9.0 mph S14.5 kmh S 14.0 mph22.5 kmh 29.20 in988.8 mb 0.03 in0.8 mm 0.00 in0.0 mm 0.17 in4.3 mm
07:04 PM 53.8°F12.1°C 50.9°F10.5°C 90% 8.0 mph S12.9 kmh S 8.0 mph12.9 kmh 29.20 in988.8 mb 0.03 in0.8 mm 0.00 in0.0 mm 0.17 in4.3 mm
07:05 PM 53.8°F12.1°C 50.9°F10.5°C 90% 12.2 mph S19.6 kmh S 18.0 mph29.0 kmh 29.20 in988.8 mb 0.03 in0.8 mm 0.00 in0.0 mm 0.17 in4.3 mm
07:06 PM 53.8°F12.1°C 51.2°F10.7°C 91% 9.9 mph S15.9 kmh S 18.0 mph29.0 kmh 29.20 in988.8 mb 0.03 in0.8 mm 0.00 in0.0 mm 0.17 in4.3 mm
07:07 PM 53.8°F12.1°C 51.2°F10.7°C 91% 9.8 mph S15.8 kmh S 16.0 mph25.7 kmh 29.20 in988.8 mb 0.03 in0.8 mm 0.00 in0.0 mm 0.17 in4.3 mm
07:08 PM 53.8°F12.1°C 51.2°F10.7°C 91% 11.6 mph S18.7 kmh S 16.0 mph25.7 kmh 29.20 in988.8 mb 0.03 in0.8 mm 0.00 in0.0 mm 0.17 in4.3 mm
07:09 PM 53.8°F12.1°C 50.9°F10.5°C 90% 11.0 mph SSE17.7 kmh SSE 16.0 mph25.7 kmh 29.20 in988.8 mb 0.03 in0.8 mm 0.00 in0.0 mm 0.17 in4.3 mm
07:10 PM 53.8°F12.1°C 51.2°F10.7°C 91% 9.0 mph S14.5 kmh S 14.0 mph22.5 kmh 29.20 in988.8 mb 0.03 in0.8 mm 0.00 in0.0 mm 0.17 in4.3 mm
07:11 PM 53.8°F12.1°C 51.2°F10.7°C 91% 9.0 mph S14.5 kmh S 15.0 mph24.1 kmh 29.20 in988.8 mb 0.03 in0.8 mm 0.00 in0.0 mm 0.17 in4.3 mm
07:12 PM 53.8°F12.1°C 51.2°F10.7°C 91% 10.5 mph S16.9 kmh S 16.0 mph25.7 kmh 29.20 in988.8 mb 0.03 in0.8 mm 0.00 in0.0 mm 0.17 in4.3 mm
07:13 PM 53.9°F12.2°C 51.0°F10.6°C 90% 11.0 mph S17.7 kmh S 15.0 mph24.1 kmh 29.20 in988.8 mb 0.03 in0.8 mm 0.00 in0.0 mm 0.17 in4.3 mm
07:14 PM 53.9°F12.2°C 51.0°F10.6°C 90% 11.0 mph SSE17.7 kmh SSE 15.0 mph24.1 kmh 29.20 in988.8 mb 0.03 in0.8 mm 0.00 in0.0 mm 0.17 in4.3 mm
07:15 PM 53.9°F12.2°C 51.0°F10.6°C 90% 10.0 mph S16.1 kmh S 14.0 mph22.5 kmh 29.20 in988.8 mb 0.03 in0.8 mm 0.00 in0.0 mm 0.17 in4.3 mm
07:16 PM 53.9°F12.2°C 51.0°F10.6°C 90% 10.2 mph S16.4 kmh S 16.0 mph25.7 kmh 29.20 in988.8 mb 0.03 in0.8 mm 0.00 in0.0 mm 0.17 in4.3 mm
07:17 PM 54.0°F12.2°C 51.1°F10.6°C 90% 7.8 mph SSE12.6 kmh SSE 16.0 mph25.7 kmh 29.20 in988.8 mb 0.03 in0.8 mm 0.00 in0.0 mm 0.17 in4.3 mm
07:18 PM 54.0°F12.2°C 51.1°F10.6°C 90% 7.2 mph S11.6 kmh S 12.0 mph19.3 kmh 29.20 in988.8 mb 0.03 in0.8 mm 0.00 in0.0 mm 0.17 in4.3 mm
07:19 PM 54.0°F12.2°C 51.1°F10.6°C 90% 9.1 mph S14.6 kmh S 12.0 mph19.3 kmh 29.20 in988.8 mb 0.03 in0.8 mm 0.00 in0.0 mm 0.17 in4.3 mm
07:20 PM 54.0°F12.2°C 51.1°F10.6°C 90% 9.8 mph SSE15.8 kmh SSE 14.0 mph22.5 kmh 29.20 in988.8 mb 0.03 in0.8 mm 0.00 in0.0 mm 0.17 in4.3 mm
07:21 PM 54.0°F12.2°C 51.1°F10.6°C 90% 7.8 mph SSE12.6 kmh SSE 14.0 mph22.5 kmh 29.20 in988.8 mb 0.03 in0.8 mm 0.00 in0.0 mm 0.17 in4.3 mm
07:22 PM 54.0°F12.2°C 51.1°F10.6°C 90% 9.1 mph S14.6 kmh S 13.0 mph20.9 kmh 29.21 in989.2 mb 0.03 in0.8 mm 0.00 in0.0 mm 0.17 in4.3 mm
07:23 PM 54.1°F12.3°C 51.2°F10.7°C 90% 8.1 mph S13.0 kmh S 14.0 mph22.5 kmh 29.21 in989.2 mb 0.03 in0.8 mm 0.00 in0.0 mm 0.17 in4.3 mm
07:24 PM 54.0°F12.2°C 50.8°F10.4°C 89% 8.1 mph S13.0 kmh S 14.0 mph22.5 kmh 29.21 in989.2 mb 0.03 in0.8 mm 0.00 in0.0 mm 0.17 in4.3 mm
07:25 PM 54.0°F12.2°C 50.8°F10.4°C 89% 9.1 mph S14.6 kmh S 13.0 mph20.9 kmh 29.20 in988.8 mb 0.03 in0.8 mm 0.00 in0.0 mm 0.17 in4.3 mm
07:26 PM 54.0°F12.2°C 50.8°F10.4°C 89% 7.5 mph SSE12.1 kmh SSE 13.0 mph20.9 kmh 29.21 in989.2 mb 0.03 in0.8 mm 0.00 in0.0 mm 0.17 in4.3 mm
07:27 PM 54.0°F12.2°C 50.8°F10.4°C 89% 10.0 mph SSE16.1 kmh SSE 15.0 mph24.1 kmh 29.20 in988.8 mb 0.03 in0.8 mm 0.00 in0.0 mm 0.17 in4.3 mm
07:28 PM 54.0°F12.2°C 50.8°F10.4°C 89% 10.5 mph SSE16.9 kmh SSE 17.0 mph27.4 kmh 29.20 in988.8 mb 0.03 in0.8 mm 0.00 in0.0 mm 0.17 in4.3 mm
07:29 PM 54.0°F12.2°C 50.8°F10.4°C 89% 12.0 mph SSE19.3 kmh SSE 17.0 mph27.4 kmh 29.20 in988.8 mb 0.03 in0.8 mm 0.00 in0.0 mm 0.17 in4.3 mm
07:30 PM 54.0°F12.2°C 50.8°F10.4°C 89% 11.0 mph SSE17.7 kmh SSE 18.0 mph29.0 kmh 29.21 in989.2 mb 0.03 in0.8 mm 0.00 in0.0 mm 0.17 in4.3 mm
07:31 PM 54.0°F12.2°C 50.8°F10.4°C 89% 9.0 mph SSE14.5 kmh SSE 14.0 mph22.5 kmh 29.21 in989.2 mb 0.03 in0.8 mm 0.00 in0.0 mm 0.17 in4.3 mm
07:32 PM 54.1°F12.3°C 50.9°F10.5°C 89% 10.2 mph SSE<